Temperatur und Luftfeuchte

Temperatur und Luftfeuchte

Nummer Datum und Zeit Sensor ID Temperatur in Celsius gef├╝hlte Temperatur Luftfeuchte in %
37839 2021-01-18 07:57:08 Terrasse 1.70 0.53 99.90
37838 2021-01-18 07:28:52 Terrasse 1.70 0.53 99.90
37837 2021-01-18 07:00:36 Terrasse 1.70 0.53 99.90
37836 2021-01-18 06:32:21 Terrasse 1.80 0.64 99.90
37835 2021-01-18 06:04:05 Terrasse 1.90 0.75 99.90
37834 2021-01-18 05:35:50 Terrasse 1.80 0.64 99.90
37833 2021-01-18 05:07:33 Terrasse 1.80 0.64 99.90
37832 2021-01-18 04:39:20 Terrasse 1.80 0.64 99.90
37831 2021-01-18 04:11:07 Terrasse 1.80 0.64 99.90
37830 2021-01-18 03:42:48 Terrasse 1.80 0.64 99.90
37829 2021-01-18 03:14:33 Terrasse 1.80 0.64 99.90
37828 2021-01-18 02:46:16 Terrasse 1.70 0.53 99.90
37827 2021-01-18 02:18:02 Terrasse 1.70 0.53 99.90
37826 2021-01-18 01:49:47 Terrasse 1.70 0.53 99.90
37825 2021-01-18 01:21:30 Terrasse 1.70 0.53 99.90
37824 2021-01-18 00:53:17 Terrasse 1.60 0.42 99.90
37823 2021-01-18 00:25:01 Terrasse 1.50 0.31 99.90
37822 2021-01-17 23:56:44 Terrasse 1.40 0.20 99.90
37821 2021-01-17 23:28:28 Terrasse 1.30 0.09 99.90
37820 2021-01-17 23:00:13 Terrasse 1.20 -0.02 99.90
37819 2021-01-17 22:31:55 Terrasse 1.00 -0.24 99.90
37818 2021-01-17 22:03:39 Terrasse 0.80 -0.46 99.90
37817 2021-01-17 21:35:23 Terrasse 0.70 -0.57 99.90
37816 2021-01-17 21:07:07 Terrasse 0.70 -0.57 99.90
37815 2021-01-17 20:38:52 Terrasse 0.60 -0.68 99.90
37814 2021-01-17 20:10:35 Terrasse 0.60 -0.68 99.90
37813 2021-01-17 19:42:20 Terrasse 0.50 -0.79 99.90
37812 2021-01-17 19:14:04 Terrasse 0.50 -0.79 99.90
37811 2021-01-17 18:45:48 Terrasse 0.40 -0.90 99.90
37810 2021-01-17 18:17:31 Terrasse 0.30 -1.01 99.90
37809 2021-01-17 17:49:14 Terrasse 0.30 -1.01 99.90
37808 2021-01-17 17:20:59 Terrasse 0.30 -1.01 99.90
37807 2021-01-17 16:52:44 Terrasse 0.30 -1.01 99.90
37806 2021-01-17 16:24:27 Terrasse 0.30 -1.01 99.90
37805 2021-01-17 15:56:12 Terrasse 0.30 -1.01 99.90
37804 2021-01-17 15:27:56 Terrasse 0.40 -0.90 99.90
37803 2021-01-17 14:59:41 Terrasse 0.30 -1.01 99.90
37802 2021-01-17 14:31:26 Terrasse 0.40 -0.90 99.90
37801 2021-01-17 14:03:10 Terrasse 0.30 -1.01 99.90
37800 2021-01-17 13:34:53 Terrasse 0.10 -1.23 99.90
37799 2021-01-17 13:06:38 Terrasse -0.10 -1.45 99.90
37798 2021-01-17 12:38:22 Terrasse -0.20 -1.56 99.90
37797 2021-01-17 12:10:05 Terrasse -0.40 -1.78 99.90
37796 2021-01-17 11:41:49 Terrasse -0.60 -2.00 99.90
37795 2021-01-17 11:13:35 Terrasse -0.80 -2.22 99.90
37794 2021-01-17 10:45:19 Terrasse -1.00 -2.44 99.90
37793 2021-01-17 10:17:03 Terrasse -1.10 -2.55 99.90
37792 2021-01-17 09:48:48 Terrasse -1.10 -2.55 99.90
37791 2021-01-17 09:20:31 Terrasse -1.20 -2.66 99.90
37790 2021-01-17 08:52:16 Terrasse -1.30 -2.77 99.90
37789 2021-01-17 08:24:01 Terrasse -1.30 -2.77 99.90
37788 2021-01-17 07:55:46 Terrasse -1.30 -2.77 99.90
37787 2021-01-17 07:27:31 Terrasse -1.30 -2.77 99.90
37786 2021-01-17 06:59:15 Terrasse -1.40 -2.88 99.90
37785 2021-01-17 06:30:59 Terrasse -1.40 -2.88 99.90
37784 2021-01-17 06:02:44 Terrasse -1.40 -2.88 99.90
37783 2021-01-17 05:34:28 Terrasse -1.40 -2.88 99.90
37782 2021-01-17 05:06:14 Terrasse -1.50 -2.99 99.90
37781 2021-01-17 04:37:58 Terrasse -1.50 -2.99 99.90
37780 2021-01-17 04:09:43 Terrasse -1.50 -2.99 99.90
37779 2021-01-17 03:41:27 Terrasse -1.50 -2.99 99.90
37778 2021-01-17 03:13:12 Terrasse -1.30 -2.77 99.90
37777 2021-01-17 02:44:57 Terrasse -1.40 -2.88 99.90
37776 2021-01-17 02:16:54 Terrasse -1.30 -2.77 99.90
37775 2021-01-17 01:48:35 Terrasse -1.30 -2.77 99.90
37774 2021-01-17 01:20:21 Terrasse -1.30 -2.77 99.90
37773 2021-01-17 00:52:05 Terrasse -1.40 -2.88 99.90
37772 2021-01-17 00:23:48 Terrasse -1.40 -2.88 99.90
37771 2021-01-16 23:55:33 Terrasse -1.40 -2.88 99.90
37770 2021-01-16 23:27:21 Terrasse -1.30 -2.77 99.90
37769 2021-01-16 22:59:36 Terrasse -1.10 -2.55 99.90
37768 2021-01-16 22:31:38 Terrasse -0.90 -2.33 99.90
37767 2021-01-16 22:03:30 Terrasse -0.90 -2.33 99.90
37766 2021-01-16 21:35:35 Terrasse -0.80 -2.22 99.90
37765 2021-01-16 21:07:36 Terrasse -0.80 -2.22 99.90
37764 2021-01-16 20:39:34 Terrasse -0.70 -2.11 99.90
37763 2021-01-16 20:11:05 Terrasse -0.70 -2.11 99.90
37762 2021-01-16 19:42:48 Terrasse -0.60 -2.00 99.90
37761 2021-01-16 19:14:33 Terrasse -0.60 -2.00 99.90
37760 2021-01-16 18:46:18 Terrasse -0.50 -1.89 99.90
37759 2021-01-16 18:18:02 Terrasse -0.40 -1.94 93.60
37758 2021-01-16 17:49:47 Terrasse -0.40 -1.82 98.20
37757 2021-01-16 17:21:32 Terrasse -0.30 -1.80 94.70
37756 2021-01-16 16:53:16 Terrasse -0.30 -1.76 96.20
37755 2021-01-16 16:25:01 Terrasse -0.20 -1.73 93.10
37754 2021-01-16 15:56:45 Terrasse -0.10 -1.86 84.20
37753 2021-01-16 15:28:30 Terrasse 0.00 -1.76 83.70
37752 2021-01-16 15:00:14 Terrasse 0.10 -1.77 79.10
37751 2021-01-16 14:31:58 Terrasse 0.10 -1.88 74.70
37750 2021-01-16 14:03:43 Terrasse 0.10 -1.88 75.00
37749 2021-01-16 13:35:27 Terrasse 0.20 -1.72 76.90
37748 2021-01-16 13:07:12 Terrasse 0.10 -1.94 72.40
37747 2021-01-16 12:38:56 Terrasse 0.10 -1.85 75.90
37746 2021-01-16 12:10:42 Terrasse -0.10 -2.09 75.30
37745 2021-01-16 11:42:25 Terrasse -0.20 -2.14 77.50
37744 2021-01-16 11:14:09 Terrasse -0.30 -2.11 83.00
37743 2021-01-16 10:45:53 Terrasse -0.40 -2.02 90.60
37742 2021-01-16 10:17:37 Terrasse -0.40 -1.93 93.90
37741 2021-01-16 09:49:20 Terrasse -0.50 -2.06 93.40
37740 2021-01-16 09:21:04 Terrasse -0.50 -1.90 99.30
37739 2021-01-16 08:52:47 Terrasse -0.50 -2.00 95.70
37738 2021-01-16 08:24:47 Terrasse -0.50 -1.89 99.90
37737 2021-01-16 07:57:01 Terrasse -0.50 -1.89 99.90
37736 2021-01-16 07:28:45 Terrasse -0.40 -1.78 99.90
37735 2021-01-16 07:00:32 Terrasse -0.40 -1.78 99.90
37734 2021-01-16 06:32:29 Terrasse -0.40 -1.78 99.90
37733 2021-01-16 05:34:17 Terrasse -0.40 -1.78 99.90
37732 2021-01-16 05:06:34 Terrasse -0.30 -1.67 99.90
37731 2021-01-16 04:37:05 Terrasse -0.20 -1.56 99.90
37730 2021-01-16 04:07:01 Terrasse 0.00 -1.34 99.90
37729 2021-01-16 02:36:33 Terrasse 0.20 -1.12 99.90
37728 2021-01-16 02:06:29 Terrasse 0.20 -1.12 99.90
37727 2021-01-16 01:38:51 Terrasse 0.30 -1.01 99.90
37726 2021-01-16 01:10:44 Terrasse 0.30 -1.01 99.90
37725 2021-01-16 00:41:46 Terrasse 0.40 -0.90 99.90
37724 2021-01-16 00:14:22 Terrasse 0.40 -0.90 99.90
37723 2021-01-15 23:44:03 Terrasse 0.40 -0.90 99.90
37722 2021-01-15 23:15:47 Terrasse 0.40 -0.90 99.90
37721 2021-01-15 22:47:32 Terrasse 0.50 -0.79 99.90
37720 2021-01-15 22:19:17 Terrasse 0.60 -0.68 99.90
37719 2021-01-15 21:20:33 Terrasse 0.60 -0.68 99.90
37718 2021-01-15 20:52:16 Terrasse 0.70 -0.57 99.90
37717 2021-01-15 20:24:01 Terrasse 0.70 -0.57 99.90
37716 2021-01-15 19:25:18 Terrasse 0.70 -0.57 99.90
37715 2021-01-15 18:57:03 Terrasse 0.70 -0.57 99.90
37714 2021-01-15 18:28:47 Terrasse 0.80 -0.46 99.90
37713 2021-01-15 18:00:32 Terrasse 0.80 -0.46 99.90
37712 2021-01-15 17:32:17 Terrasse 0.90 -0.35 99.90
37711 2021-01-15 17:04:01 Terrasse 0.90 -0.35 99.90
37710 2021-01-15 16:35:47 Terrasse 0.90 -0.35 99.90
37709 2021-01-15 16:07:33 Terrasse 1.10 -0.13 99.90
37708 2021-01-15 15:39:19 Terrasse 1.20 -0.02 99.90
37707 2021-01-15 15:11:04 Terrasse 1.20 -0.02 99.90
37706 2021-01-15 14:42:49 Terrasse 1.20 -0.02 99.90
37705 2021-01-15 14:14:35 Terrasse 1.10 -0.13 99.90
37704 2021-01-15 13:46:19 Terrasse 1.10 -0.13 99.90
37703 2021-01-15 13:18:03 Terrasse 1.10 -0.13 99.90
37702 2021-01-15 12:49:46 Terrasse 1.00 -0.24 99.90
37701 2021-01-15 12:21:30 Terrasse 0.90 -0.35 99.90
37700 2021-01-15 11:53:13 Terrasse 0.70 -0.57 99.90
37699 2021-01-15 11:24:57 Terrasse 0.60 -0.68 99.90
37698 2021-01-15 10:56:39 Terrasse 0.30 -1.01 99.90
37697 2021-01-15 10:28:22 Terrasse 0.00 -1.34 99.90
37696 2021-01-15 10:00:04 Terrasse -0.20 -1.56 99.90
37695 2021-01-15 09:31:48 Terrasse -0.40 -1.78 99.90
37694 2021-01-15 09:03:33 Terrasse -0.50 -1.89 99.90
37693 2021-01-15 08:35:18 Terrasse -0.40 -1.78 99.90
37692 2021-01-15 08:07:04 Terrasse -0.20 -1.56 99.90
37691 2021-01-15 07:38:50 Terrasse 0.00 -1.34 99.90
37690 2021-01-15 07:10:35 Terrasse 0.10 -1.23 99.90
37689 2021-01-15 06:42:19 Terrasse 0.10 -1.23 99.90
37688 2021-01-15 05:43:37 Terrasse 0.00 -1.34 99.90
37687 2021-01-15 05:15:22 Terrasse -0.10 -1.45 99.90
37686 2021-01-15 04:16:35 Terrasse -0.30 -1.67 99.90
37685 2021-01-15 03:48:18 Terrasse -0.30 -1.67 99.90
37684 2021-01-15 03:20:03 Terrasse -0.10 -1.45 99.90
37683 2021-01-15 02:21:20 Terrasse -0.10 -1.45 99.90
37682 2021-01-15 01:22:36 Terrasse 0.10 -1.23 99.90
37681 2021-01-15 00:54:20 Terrasse 0.20 -1.12 99.90
37680 2021-01-15 00:26:07 Terrasse 0.30 -1.01 99.90
37679 2021-01-14 23:57:53 Terrasse 0.30 -1.01 99.90
37678 2021-01-14 23:29:36 Terrasse 0.30 -1.01 99.90
37677 2021-01-14 23:01:21 Terrasse 0.30 -1.01 99.90
37676 2021-01-14 22:33:08 Terrasse 0.40 -0.90 99.90
37675 2021-01-14 22:04:53 Terrasse 0.50 -0.79 99.90
37674 2021-01-14 21:36:51 Terrasse 0.60 -0.68 99.90
37673 2021-01-14 21:08:33 Terrasse 0.70 -0.57 99.90
37672 2021-01-14 20:40:18 Terrasse 0.70 -0.57 99.90
37671 2021-01-14 20:12:04 Terrasse 0.80 -0.46 99.90
37670 2021-01-14 19:43:49 Terrasse 0.90 -0.35 99.90
37669 2021-01-14 19:15:38 Terrasse 1.00 -0.24 99.90
37668 2021-01-14 18:47:22 Terrasse 1.10 -0.13 99.90
37667 2021-01-14 18:19:13 Terrasse 1.20 -0.02 99.90
37666 2021-01-14 17:50:59 Terrasse 1.30 0.09 99.90
37665 2021-01-14 17:22:42 Terrasse 1.20 -0.02 99.90
37664 2021-01-14 16:54:28 Terrasse 1.40 0.20 99.90
37663 2021-01-14 16:26:15 Terrasse 1.60 0.42 99.90
37662 2021-01-14 15:58:01 Terrasse 1.80 0.64 99.90
37661 2021-01-14 15:29:48 Terrasse 2.00 0.86 99.90
37660 2021-01-14 15:01:35 Terrasse 2.10 0.97 99.90
37659 2021-01-14 14:33:18 Terrasse 2.20 1.08 99.90
37658 2021-01-14 14:05:03 Terrasse 2.20 1.08 99.90
37657 2021-01-14 13:36:49 Terrasse 2.20 1.08 99.90
37656 2021-01-14 13:08:34 Terrasse 2.20 1.08 99.90
37655 2021-01-14 12:40:18 Terrasse 2.10 0.97 99.90
37654 2021-01-14 12:12:03 Terrasse 2.00 0.86 99.90
37653 2021-01-14 11:43:46 Terrasse 1.90 0.75 99.90
37652 2021-01-14 11:15:29 Terrasse 1.70 0.53 99.90
37651 2021-01-14 10:47:14 Terrasse 1.60 0.42 99.90
37650 2021-01-14 10:18:58 Terrasse 1.40 0.20 99.90
37649 2021-01-14 09:50:41 Terrasse 1.30 0.09 99.90
37648 2021-01-14 09:22:26 Terrasse 1.20 -0.02 99.90
37647 2021-01-14 08:54:10 Terrasse 2.30 1.19 99.90
37646 2021-01-14 08:25:59 Terrasse 1.20 -0.02 99.90
37645 2021-01-14 07:57:42 Terrasse 1.20 -0.02 99.90
37644 2021-01-14 07:29:27 Terrasse 1.20 -0.02 99.90
37643 2021-01-14 07:01:14 Terrasse 1.30 0.09 99.90
37642 2021-01-14 06:33:00 Terrasse 1.30 0.09 99.90
37641 2021-01-14 06:04:45 Terrasse 1.40 0.20 99.90
37640 2021-01-14 05:36:31 Terrasse 1.50 0.31 99.90
37639 2021-01-14 05:08:17 Terrasse 1.60 0.42 99.90
37638 2021-01-14 04:40:02 Terrasse 1.70 0.53 99.90
37637 2021-01-14 04:11:47 Terrasse 1.70 0.53 99.90
37636 2021-01-14 03:43:31 Terrasse 1.80 0.64 99.90
37635 2021-01-14 03:15:17 Terrasse 2.00 0.86 99.90
37634 2021-01-14 02:47:02 Terrasse 2.00 0.86 99.90
37633 2021-01-14 02:18:46 Terrasse 2.00 0.86 99.90
37632 2021-01-14 01:50:29 Terrasse 2.00 0.86 99.90
37631 2021-01-14 01:22:13 Terrasse 2.00 0.86 99.90
37630 2021-01-14 00:53:57 Terrasse 2.00 0.86 99.90
37629 2021-01-14 00:25:42 Terrasse 1.90 0.75 99.90
37628 2021-01-13 23:57:25 Terrasse 1.90 0.75 99.90
37627 2021-01-13 23:29:10 Terrasse 1.80 0.64 99.90
37626 2021-01-13 23:00:54 Terrasse 1.80 0.64 99.90
37625 2021-01-13 22:32:38 Terrasse 1.80 0.64 99.90
37624 2021-01-13 22:04:23 Terrasse 1.70 0.53 99.90
37623 2021-01-13 21:36:08 Terrasse 1.60 0.42 99.90
37622 2021-01-13 21:07:52 Terrasse 1.50 0.31 99.90
37621 2021-01-13 20:39:35 Terrasse 1.50 0.31 99.90
37620 2021-01-13 20:11:20 Terrasse 1.30 0.09 99.90
37619 2021-01-13 19:43:03 Terrasse 1.30 0.09 99.90
37618 2021-01-13 19:14:49 Terrasse 1.30 0.09 99.90
37617 2021-01-13 18:46:33 Terrasse 1.30 0.09 99.90
37616 2021-01-13 18:18:16 Terrasse 1.40 0.20 99.90
37615 2021-01-13 17:50:01 Terrasse 1.50 0.31 99.90
37614 2021-01-13 17:21:46 Terrasse 1.70 0.53 99.90
37613 2021-01-13 16:53:31 Terrasse 1.80 0.64 99.90
37612 2021-01-13 16:25:16 Terrasse 2.10 0.97 99.90
37611 2021-01-13 15:57:00 Terrasse 2.20 1.08 99.90
37610 2021-01-13 15:28:46 Terrasse 2.40 1.30 99.90
37609 2021-01-13 15:00:33 Terrasse 2.70 1.63 99.90
37608 2021-01-13 14:32:17 Terrasse 2.60 1.52 99.90
37607 2021-01-13 14:04:03 Terrasse 2.70 1.63 99.90
37606 2021-01-13 13:35:45 Terrasse 2.60 1.52 99.90
37605 2021-01-13 13:07:33 Terrasse 2.60 1.52 99.90
37604 2021-01-13 12:39:16 Terrasse 2.30 1.19 99.90
37603 2021-01-13 12:11:00 Terrasse 2.10 0.97 99.90
37602 2021-01-13 11:42:46 Terrasse 1.90 0.75 99.90
37601 2021-01-13 11:14:30 Terrasse 1.70 0.53 99.90
37600 2021-01-13 10:46:11 Terrasse 1.10 -0.13 99.90
37599 2021-01-13 10:17:54 Terrasse 0.70 -0.57 99.90
37598 2021-01-13 09:49:38 Terrasse 0.50 -0.79 99.90
37597 2021-01-13 09:21:23 Terrasse 0.40 -0.90 99.90
37596 2021-01-13 08:53:07 Terrasse 0.30 -1.01 99.90
37595 2021-01-13 08:24:52 Terrasse 0.10 -1.23 99.90
37594 2021-01-13 07:56:38 Terrasse 0.30 -1.01 99.90
37593 2021-01-13 07:28:23 Terrasse 0.40 -0.90 99.90
37592 2021-01-13 07:00:10 Terrasse 0.60 -0.68 99.90
37591 2021-01-13 06:31:55 Terrasse 0.60 -0.68 99.90
37590 2021-01-13 06:03:40 Terrasse 0.60 -0.68 99.90
37589 2021-01-13 05:35:27 Terrasse 0.70 -0.57 99.90
37588 2021-01-13 05:07:12 Terrasse 0.70 -0.57 99.90
37587 2021-01-13 04:38:58 Terrasse 0.60 -0.68 99.90
37586 2021-01-13 04:10:45 Terrasse 0.70 -0.57 99.90
37585 2021-01-13 03:42:30 Terrasse 0.90 -0.35 99.90
37584 2021-01-13 03:14:15 Terrasse 0.90 -0.35 99.90
37583 2021-01-13 02:46:00 Terrasse 0.90 -0.35 99.90
37582 2021-01-13 02:17:46 Terrasse 1.00 -0.24 99.90
37581 2021-01-13 01:49:30 Terrasse 1.00 -0.24 99.90
37580 2021-01-13 01:21:16 Terrasse 1.10 -0.13 99.90
37579 2021-01-13 00:53:00 Terrasse 1.20 -0.02 99.90
37578 2021-01-13 00:24:46 Terrasse 1.30 0.09 99.90
37577 2021-01-12 23:56:32 Terrasse 1.40 0.20 99.90
37576 2021-01-12 23:28:17 Terrasse 1.50 0.31 99.90
37575 2021-01-12 23:00:02 Terrasse 1.60 0.42 99.90
37574 2021-01-12 22:31:46 Terrasse 1.70 0.53 99.90
37573 2021-01-12 22:03:32 Terrasse 1.70 0.53 99.90
37572 2021-01-12 21:35:17 Terrasse 1.70 0.53 99.90
37571 2021-01-12 21:07:01 Terrasse 1.70 0.53 99.90
37570 2021-01-12 20:38:47 Terrasse 1.80 0.64 99.90
37569 2021-01-12 20:10:33 Terrasse 1.90 0.75 99.90
37568 2021-01-12 19:42:18 Terrasse 2.00 0.86 99.90
37567 2021-01-12 19:14:03 Terrasse 2.00 0.86 99.90
37566 2021-01-12 18:45:49 Terrasse 2.00 0.86 99.90
37565 2021-01-12 18:17:35 Terrasse 2.20 1.08 99.90
37564 2021-01-12 17:49:18 Terrasse 2.20 1.08 99.90
37563 2021-01-12 17:21:02 Terrasse 2.20 1.08 99.90
37562 2021-01-12 16:52:46 Terrasse 2.10 0.97 99.90
37561 2021-01-12 16:24:30 Terrasse 1.90 0.75 99.90
37560 2021-01-12 15:56:16 Terrasse 1.90 0.75 99.90
37559 2021-01-12 15:27:59 Terrasse 1.90 0.75 99.90
37558 2021-01-12 14:59:44 Terrasse 1.80 0.64 99.90
37557 2021-01-12 14:31:28 Terrasse 1.80 0.64 99.90
37556 2021-01-12 14:03:12 Terrasse 1.70 0.53 99.90
37555 2021-01-12 13:34:56 Terrasse 1.50 0.31 99.90
37554 2021-01-12 13:06:39 Terrasse 1.40 0.20 99.90
37553 2021-01-12 12:38:24 Terrasse 1.30 0.09 99.90
37552 2021-01-12 12:10:08 Terrasse 1.20 -0.02 99.90
37551 2021-01-12 11:41:53 Terrasse 1.20 -0.02 99.90
37550 2021-01-12 11:13:38 Terrasse 1.10 -0.13 99.90
37549 2021-01-12 10:45:30 Terrasse 1.10 -0.13 99.90
37548 2021-01-12 08:15:34 Terrasse 0.80 -0.46 99.90
37547 2021-01-12 07:47:54 Terrasse 0.80 -0.46 99.90
37546 2021-01-12 07:18:43 Terrasse 0.80 -0.46 99.90
37545 2021-01-12 06:50:28 Terrasse 0.70 -0.57 99.90
37544 2021-01-12 06:22:13 Terrasse 0.70 -0.57 99.90
37543 2021-01-12 05:53:58 Terrasse 0.70 -0.57 99.90
37542 2021-01-12 05:25:43 Terrasse 0.70 -0.57 99.90
37541 2021-01-12 04:57:27 Terrasse 0.70 -0.57 99.90
37540 2021-01-12 04:29:12 Terrasse 0.70 -0.57 99.90
37539 2021-01-12 04:00:57 Terrasse 0.60 -0.68 99.90
37538 2021-01-12 03:32:42 Terrasse 0.50 -0.79 99.90
37537 2021-01-12 03:04:26 Terrasse 0.40 -0.90 99.90
37536 2021-01-12 02:36:13 Terrasse 1.70 0.53 99.90
37535 2021-01-12 02:07:58 Terrasse 0.50 -0.79 99.90
37534 2021-01-12 01:39:43 Terrasse 0.40 -0.90 99.90
37533 2021-01-12 01:11:29 Terrasse 0.50 -0.79 99.90
37532 2021-01-12 00:43:14 Terrasse 0.40 -0.90 99.90
37531 2021-01-12 00:14:58 Terrasse 0.40 -0.90 99.90
37530 2021-01-11 23:46:43 Terrasse 0.40 -0.90 99.90
37529 2021-01-11 23:18:29 Terrasse 0.50 -0.79 99.90
37528 2021-01-11 22:50:15 Terrasse 0.40 -0.90 99.90
37527 2021-01-11 22:22:00 Terrasse 0.40 -0.90 99.90
37526 2021-01-11 21:53:45 Terrasse 0.50 -0.79 99.90
37525 2021-01-11 21:25:32 Terrasse 0.50 -0.79 99.90
37524 2021-01-11 20:57:17 Terrasse 0.50 -0.79 99.90
37523 2021-01-11 20:29:01 Terrasse 0.60 -0.68 99.90
37522 2021-01-11 20:00:47 Terrasse 0.60 -0.68 99.90
37521 2021-01-11 19:32:35 Terrasse 0.70 -0.57 99.90
37520 2021-01-11 19:04:20 Terrasse 0.80 -0.46 99.90
37519 2021-01-11 18:36:05 Terrasse 1.80 0.64 99.90
37518 2021-01-11 18:07:50 Terrasse 0.80 -0.46 99.90
37517 2021-01-11 17:39:36 Terrasse 0.80 -0.46 99.90
37516 2021-01-11 17:11:23 Terrasse 0.90 -0.35 99.90
37515 2021-01-11 16:43:10 Terrasse 1.20 -0.02 99.90
37514 2021-01-11 16:14:57 Terrasse 1.60 0.42 99.90
37513 2021-01-11 15:46:46 Terrasse 1.90 0.75 99.90
37512 2021-01-11 15:18:35 Terrasse 2.40 1.30 99.90
37511 2021-01-11 14:50:31 Terrasse 3.70 2.46 89.40
37510 2021-01-11 14:22:09 Terrasse 4.30 3.00 85.00
37509 2021-01-11 13:53:41 Terrasse 2.60 1.52 99.90
37508 2021-01-11 13:25:21 Terrasse 1.60 0.42 99.90
37507 2021-01-11 12:57:06 Terrasse 1.40 0.20 99.90
37506 2021-01-11 12:28:48 Terrasse 0.80 -0.46 99.90
37505 2021-01-11 12:00:32 Terrasse 0.60 -0.68 99.90
37504 2021-01-11 11:32:16 Terrasse 0.30 -1.01 99.90
37503 2021-01-11 11:03:55 Terrasse -0.30 -1.67 99.90
37502 2021-01-11 10:35:40 Terrasse -0.80 -2.22 99.90
37501 2021-01-11 10:07:22 Terrasse -1.20 -2.66 99.90
37500 2021-01-11 09:39:05 Terrasse -1.60 -3.10 99.90
37499 2021-01-11 09:10:50 Terrasse -2.00 -3.54 99.90
37498 2021-01-11 08:42:40 Terrasse -2.00 -3.54 99.90
37497 2021-01-11 08:14:24 Terrasse -2.20 -3.76 99.90
37496 2021-01-11 07:46:11 Terrasse -2.10 -3.65 99.90
37495 2021-01-11 07:17:58 Terrasse -2.00 -3.54 99.90
37494 2021-01-11 06:49:44 Terrasse -1.90 -3.43 99.90
37493 2021-01-11 06:21:40 Terrasse -1.90 -3.43 99.90
37492 2021-01-11 05:53:23 Terrasse -1.80 -3.32 99.90
37491 2021-01-11 05:25:10 Terrasse -1.70 -3.21 99.90
37490 2021-01-11 04:56:56 Terrasse -1.60 -3.10 99.90
37489 2021-01-11 04:28:42 Terrasse -1.70 -3.21 99.90
37488 2021-01-11 04:00:28 Terrasse -1.50 -2.99 99.90
37487 2021-01-11 03:32:14 Terrasse -1.40 -2.88 99.90
37486 2021-01-11 03:04:00 Terrasse -1.50 -2.99 99.90
37485 2021-01-11 02:35:46 Terrasse -1.40 -2.88 99.90
37484 2021-01-11 02:07:32 Terrasse -1.30 -2.77 99.90
37483 2021-01-11 01:39:18 Terrasse -1.20 -2.66 99.90
37482 2021-01-11 01:11:04 Terrasse -1.20 -2.66 99.90
37481 2021-01-11 00:42:49 Terrasse -1.20 -2.66 99.90
37480 2021-01-11 00:14:35 Terrasse -1.10 -2.55 99.90
37479 2021-01-10 23:46:22 Terrasse -0.90 -2.33 99.90
37478 2021-01-10 23:18:07 Terrasse -0.90 -2.33 99.90
37477 2021-01-10 22:49:54 Terrasse -0.70 -2.11 99.90
37476 2021-01-10 22:21:40 Terrasse -0.70 -2.11 99.90
37475 2021-01-10 21:53:27 Terrasse -0.50 -1.89 99.90
37474 2021-01-10 21:25:13 Terrasse -0.30 -1.67 99.90
37473 2021-01-10 20:57:00 Terrasse -0.20 -1.56 99.90
37472 2021-01-10 20:28:47 Terrasse 0.00 -1.34 99.90
37471 2021-01-10 20:00:34 Terrasse 0.20 -1.12 99.90
37470 2021-01-10 19:32:22 Terrasse 0.50 -0.79 99.90
37469 2021-01-10 19:04:08 Terrasse 0.80 -0.46 99.90
37468 2021-01-10 18:35:55 Terrasse 1.10 -0.13 99.90
37467 2021-01-10 18:07:42 Terrasse 1.40 0.20 99.90
37466 2021-01-10 17:39:28 Terrasse 1.80 0.64 99.90
37465 2021-01-10 17:11:16 Terrasse 2.30 1.19 99.90
37464 2021-01-10 16:43:05 Terrasse 3.00 1.92 98.20
37463 2021-01-10 16:14:53 Terrasse 3.20 2.11 96.90
37462 2021-01-10 15:46:47 Terrasse 4.40 2.95 78.60
37461 2021-01-10 15:18:30 Terrasse 4.70 3.23 76.90
37460 2021-01-10 14:50:23 Terrasse 5.30 3.77 72.20
37459 2021-01-10 14:22:02 Terrasse 5.10 3.62 75.00
37458 2021-01-10 13:53:34 Terrasse 3.70 2.72 99.50
37457 2021-01-10 13:25:17 Terrasse 3.10 1.79 88.90
37456 2021-01-10 12:57:01 Terrasse 2.80 1.70 98.10
37455 2021-01-10 12:28:47 Terrasse 2.80 1.73 99.40
37454 2021-01-10 12:00:40 Terrasse 3.30 2.29 99.90
37453 2021-01-10 11:32:12 Terrasse 1.80 0.64 99.90
37452 2021-01-10 11:03:48 Terrasse 0.60 -0.68 99.90
37451 2021-01-10 10:35:31 Terrasse 0.30 -1.01 99.90
37450 2021-01-10 10:07:15 Terrasse 0.00 -1.34 99.90
37449 2021-01-10 09:38:58 Terrasse -0.30 -1.67 99.90
37448 2021-01-10 09:10:42 Terrasse -0.50 -1.89 99.90
37447 2021-01-10 08:42:28 Terrasse -0.70 -2.11 99.90
37446 2021-01-10 08:14:12 Terrasse -0.70 -2.11 99.90
37445 2021-01-10 07:46:05 Terrasse -0.80 -2.22 99.90
37444 2021-01-10 07:17:47 Terrasse -0.90 -2.33 99.90
37443 2021-01-10 06:49:33 Terrasse -1.00 -2.44 99.90
37442 2021-01-10 06:21:17 Terrasse -1.00 -2.44 99.90
37441 2021-01-10 05:53:03 Terrasse -1.10 -2.55 99.90
37440 2021-01-10 05:24:50 Terrasse -1.10 -2.55 99.90
37439 2021-01-10 04:56:35 Terrasse -1.00 -2.44 99.90
37438 2021-01-10 04:28:23 Terrasse -0.80 -2.22 99.90
37437 2021-01-10 04:00:10 Terrasse -0.50 -1.89 99.90
37436 2021-01-10 03:31:57 Terrasse -0.30 -1.67 99.90
37435 2021-01-10 03:03:44 Terrasse -0.20 -1.56 99.90
37434 2021-01-10 02:35:31 Terrasse 0.00 -1.34 99.90
37433 2021-01-10 02:07:17 Terrasse 0.00 -1.34 99.90
37432 2021-01-10 01:39:05 Terrasse 0.10 -1.23 99.90
37431 2021-01-10 01:10:51 Terrasse 0.20 -1.12 99.90
37430 2021-01-10 00:42:37 Terrasse 0.30 -1.01 99.90
37429 2021-01-10 00:14:23 Terrasse 0.20 -1.12 99.90
37428 2021-01-09 23:46:08 Terrasse 0.30 -1.01 99.90
37427 2021-01-09 23:17:55 Terrasse 0.50 -0.79 99.90
37426 2021-01-09 22:49:41 Terrasse 0.70 -0.57 99.90
37425 2021-01-09 22:21:27 Terrasse 0.70 -0.57 99.90
37424 2021-01-09 21:53:12 Terrasse 0.70 -0.57 99.90
37423 2021-01-09 21:24:58 Terrasse 0.80 -0.46 99.90
37422 2021-01-09 20:56:43 Terrasse 0.70 -0.57 99.90
37421 2021-01-09 20:28:29 Terrasse 0.70 -0.57 99.90
37420 2021-01-09 20:00:13 Terrasse 0.70 -0.57 99.90
37419 2021-01-09 19:31:59 Terrasse 0.60 -0.68 99.90
37418 2021-01-09 19:03:45 Terrasse 0.50 -0.79 99.90
37417 2021-01-09 18:35:32 Terrasse 0.50 -0.79 99.90
37416 2021-01-09 18:07:19 Terrasse 0.60 -0.68 99.90
37415 2021-01-09 17:39:06 Terrasse 1.10 -0.13 99.90
37414 2021-01-09 17:10:56 Terrasse 1.50 0.31 99.90
37413 2021-01-09 16:42:42 Terrasse 1.80 0.64 99.90
37412 2021-01-09 16:14:30 Terrasse 2.20 1.08 99.90
37411 2021-01-09 15:46:18 Terrasse 2.70 1.63 99.90
37410 2021-01-09 15:18:05 Terrasse 3.20 2.18 99.90
37409 2021-01-09 14:49:53 Terrasse 3.30 2.29 99.90
37408 2021-01-09 14:21:18 Terrasse 1.50 0.31 99.90
37407 2021-01-09 13:53:04 Terrasse 1.60 0.42 99.90
37406 2021-01-09 13:24:50 Terrasse 1.60 0.42 99.90
37405 2021-01-09 12:56:37 Terrasse 1.80 0.64 99.90
37404 2021-01-09 12:28:22 Terrasse 1.80 0.64 99.90
37403 2021-01-09 12:00:08 Terrasse 1.80 0.64 99.90
37402 2021-01-09 11:31:49 Terrasse 1.80 0.64 99.90
37401 2021-01-09 11:03:29 Terrasse 1.40 0.20 99.90
37400 2021-01-09 10:35:10 Terrasse 0.80 -0.46 99.90
37399 2021-01-09 10:06:53 Terrasse 0.20 -1.12 99.90
37398 2021-01-09 09:38:37 Terrasse -0.20 -1.56 99.90
37397 2021-01-09 09:10:22 Terrasse -0.20 -1.56 99.90
37396 2021-01-09 08:42:09 Terrasse 0.10 -1.23 99.90
37395 2021-01-09 08:13:57 Terrasse 0.50 -0.79 99.90
37394 2021-01-09 07:45:44 Terrasse 0.60 -0.68 99.90
37393 2021-01-09 07:17:29 Terrasse 0.80 -0.46 99.90
37392 2021-01-09 06:49:14 Terrasse 0.90 -0.35 99.90
37391 2021-01-09 06:20:59 Terrasse 0.90 -0.35 99.90
37390 2021-01-09 05:52:44 Terrasse 0.90 -0.35 99.90
37389 2021-01-09 05:24:29 Terrasse 0.90 -0.35 99.90
37388 2021-01-09 04:56:15 Terrasse 0.90 -0.35 99.90
37387 2021-01-09 04:28:00 Terrasse 0.90 -0.35 99.90
37386 2021-01-09 03:59:45 Terrasse 0.90 -0.35 99.90
37385 2021-01-09 03:31:31 Terrasse 0.90 -0.35 99.90
37384 2021-01-09 03:03:16 Terrasse 0.90 -0.35 99.90
37383 2021-01-09 02:35:01 Terrasse 1.00 -0.24 99.90
37382 2021-01-09 02:06:47 Terrasse 1.00 -0.24 99.90
37381 2021-01-09 01:38:33 Terrasse 1.10 -0.13 99.90
37380 2021-01-09 01:10:19 Terrasse 1.20 -0.02 99.90
37379 2021-01-09 00:42:04 Terrasse 1.20 -0.02 99.90
37378 2021-01-09 00:13:50 Terrasse 1.20 -0.02 99.90
37377 2021-01-08 23:45:36 Terrasse 1.30 0.09 99.90
37376 2021-01-08 23:17:22 Terrasse 1.40 0.20 99.90
37375 2021-01-08 22:49:07 Terrasse 1.40 0.20 99.90
37374 2021-01-08 22:20:52 Terrasse 1.40 0.20 99.90
37373 2021-01-08 21:52:38 Terrasse 1.40 0.20 99.90
37372 2021-01-08 21:24:23 Terrasse 1.40 0.20 99.90
37371 2021-01-08 20:56:08 Terrasse 1.40 0.20 99.90
37370 2021-01-08 20:27:53 Terrasse 1.40 0.20 99.90
37369 2021-01-08 19:59:38 Terrasse 1.40 0.20 99.90
37368 2021-01-08 19:31:24 Terrasse 1.40 0.20 99.90
37367 2021-01-08 19:03:09 Terrasse 1.50 0.31 99.90
37366 2021-01-08 18:34:54 Terrasse 1.50 0.31 99.90
37365 2021-01-08 18:06:40 Terrasse 1.60 0.42 99.90
37364 2021-01-08 17:38:25 Terrasse 1.60 0.42 99.90
37363 2021-01-08 17:10:11 Terrasse 1.60 0.42 99.90
37362 2021-01-08 16:41:57 Terrasse 1.60 0.42 99.90
37361 2021-01-08 16:13:41 Terrasse 1.80 0.64 99.90
37360 2021-01-08 15:45:27 Terrasse 2.00 0.86 99.90
37359 2021-01-08 15:17:14 Terrasse 2.50 1.41 99.90
37358 2021-01-08 14:48:56 Terrasse 1.80 0.64 99.90
37357 2021-01-08 14:20:41 Terrasse 1.80 0.64 99.90
37356 2021-01-08 13:52:26 Terrasse 1.90 0.75 99.90
37355 2021-01-08 13:24:10 Terrasse 1.80 0.64 99.90
37354 2021-01-08 12:55:54 Terrasse 1.60 0.42 99.90
37353 2021-01-08 12:27:38 Terrasse 1.50 0.31 99.90
37352 2021-01-08 11:59:25 Terrasse 1.40 0.20 99.90
37351 2021-01-08 11:31:09 Terrasse 1.40 0.20 99.90
37350 2021-01-08 11:02:54 Terrasse 1.30 0.09 99.90
37349 2021-01-08 10:34:39 Terrasse 1.20 -0.02 99.90
37348 2021-01-08 10:06:24 Terrasse 1.20 -0.02 99.90
37347 2021-01-08 09:38:09 Terrasse 1.10 -0.13 99.90
37346 2021-01-08 09:09:55 Terrasse 1.10 -0.13 99.90
37345 2021-01-08 08:41:41 Terrasse 1.00 -0.24 99.90
37344 2021-01-08 08:13:27 Terrasse 0.90 -0.35 99.90
37343 2021-01-08 07:45:12 Terrasse 0.80 -0.46 99.90
37342 2021-01-08 07:16:55 Terrasse 0.80 -0.46 99.90
37341 2021-01-08 06:48:40 Terrasse 0.70 -0.57 99.90
37340 2021-01-08 06:20:26 Terrasse 0.70 -0.57 99.90
37339 2021-01-08 05:52:10 Terrasse 0.70 -0.57 99.90
37338 2021-01-08 05:23:55 Terrasse 0.70 -0.57 99.90
37337 2021-01-08 04:55:39 Terrasse 0.70 -0.57 99.90
37336 2021-01-08 04:27:25 Terrasse 0.70 -0.57 99.90
37335 2021-01-08 03:59:11 Terrasse 0.70 -0.57 99.90
37334 2021-01-08 03:30:56 Terrasse 0.70 -0.57 99.90
37333 2021-01-08 03:02:42 Terrasse 0.80 -0.46 99.90
37332 2021-01-08 02:34:28 Terrasse 0.80 -0.46 99.90
37331 2021-01-08 02:06:13 Terrasse 0.90 -0.35 99.90
37330 2021-01-08 01:37:59 Terrasse 0.90 -0.35 99.90
37329 2021-01-08 01:09:45 Terrasse 1.00 -0.24 99.90
37328 2021-01-08 00:41:29 Terrasse 0.90 -0.35 99.90
37327 2021-01-08 00:13:14 Terrasse 0.90 -0.35 99.90
37326 2021-01-07 23:45:00 Terrasse 1.00 -0.24 99.90
37325 2021-01-07 23:16:45 Terrasse 1.10 -0.13 99.90
37324 2021-01-07 22:48:31 Terrasse 1.20 -0.02 99.90
37323 2021-01-07 22:20:15 Terrasse 1.20 -0.02 99.90
37322 2021-01-07 21:52:01 Terrasse 1.20 -0.02 99.90
37321 2021-01-07 21:23:46 Terrasse 1.80 0.64 99.90
37320 2021-01-07 20:55:33 Terrasse 1.20 -0.02 99.90
37319 2021-01-07 20:27:17 Terrasse 1.20 -0.02 99.90
37318 2021-01-07 19:59:02 Terrasse 1.30 0.09 99.90
37317 2021-01-07 19:30:47 Terrasse 1.30 0.09 99.90
37316 2021-01-07 19:02:34 Terrasse 1.30 0.09 99.90
37315 2021-01-07 18:34:19 Terrasse 1.40 0.20 99.90
37314 2021-01-07 18:06:04 Terrasse 1.40 0.20 99.90
37313 2021-01-07 17:37:50 Terrasse 1.50 0.31 99.90
37312 2021-01-07 17:09:36 Terrasse 1.60 0.42 99.90
37311 2021-01-07 16:41:21 Terrasse 1.70 0.53 99.90
37310 2021-01-07 16:13:05 Terrasse 1.70 0.53 99.90
37309 2021-01-07 15:44:51 Terrasse 1.70 0.53 99.90
37308 2021-01-07 15:16:36 Terrasse 1.80 0.64 99.90
37307 2021-01-07 14:48:21 Terrasse 1.90 0.75 99.90
37306 2021-01-07 14:20:07 Terrasse 2.00 0.86 99.90
37305 2021-01-07 13:51:52 Terrasse 2.10 0.97 99.90
37304 2021-01-07 13:23:37 Terrasse 2.00 0.86 99.90
37303 2021-01-07 12:55:20 Terrasse 1.70 0.53 99.90
37302 2021-01-07 12:27:05 Terrasse 1.60 0.42 99.90
37301 2021-01-07 11:58:50 Terrasse 1.60 0.42 99.90
37300 2021-01-07 11:30:35 Terrasse 1.50 0.31 99.90
37299 2021-01-07 11:02:18 Terrasse 1.40 0.20 99.90
37298 2021-01-07 10:34:04 Terrasse 1.30 0.09 99.90
37297 2021-01-07 10:05:49 Terrasse 1.20 -0.02 99.90
37296 2021-01-07 09:37:33 Terrasse 1.10 -0.13 99.90
37295 2021-01-07 09:09:22 Terrasse 1.10 -0.13 99.90
37294 2021-01-07 08:41:07 Terrasse 1.10 -0.13 99.90
37293 2021-01-07 08:12:51 Terrasse 1.00 -0.24 99.90
37292 2021-01-07 07:44:36 Terrasse 1.10 -0.13 99.90
37291 2021-01-07 07:16:23 Terrasse 1.10 -0.13 99.90
37290 2021-01-07 06:48:08 Terrasse 1.20 -0.02 99.90
37289 2021-01-07 06:19:53 Terrasse 1.20 -0.02 99.90
37288 2021-01-07 05:51:37 Terrasse 1.20 -0.02 99.90
37287 2021-01-07 05:23:22 Terrasse 1.30 0.09 99.90
37286 2021-01-07 04:55:08 Terrasse 1.30 0.09 99.90
37285 2021-01-07 04:26:53 Terrasse 1.40 0.20 99.90
37284 2021-01-07 03:58:39 Terrasse 1.50 0.31 99.90
37283 2021-01-07 03:30:24 Terrasse 1.50 0.31 99.90
37282 2021-01-07 03:02:10 Terrasse 1.50 0.31 99.90
37281 2021-01-07 02:33:55 Terrasse 1.70 0.53 99.90
37280 2021-01-07 02:05:41 Terrasse 1.70 0.53 99.90
37279 2021-01-07 01:37:27 Terrasse 1.70 0.53 99.90
37278 2021-01-07 01:09:13 Terrasse 1.90 0.75 99.90
37277 2021-01-07 00:41:00 Terrasse 1.90 0.75 99.90
37276 2021-01-07 00:12:45 Terrasse 2.00 0.86 99.90
37275 2021-01-06 23:44:30 Terrasse 2.00 0.86 99.90
37274 2021-01-06 23:16:16 Terrasse 2.10 0.97 99.90
37273 2021-01-06 22:48:03 Terrasse 2.20 1.08 99.90
37272 2021-01-06 22:19:48 Terrasse 2.20 1.08 99.90
37271 2021-01-06 21:51:34 Terrasse 2.30 1.19 99.90
37270 2021-01-06 21:23:19 Terrasse 2.30 1.19 99.90
37269 2021-01-06 20:55:04 Terrasse 2.40 1.30 99.90
37268 2021-01-06 20:26:49 Terrasse 2.50 1.41 99.90
37267 2021-01-06 19:58:34 Terrasse 2.60 1.52 99.90
37266 2021-01-06 19:30:20 Terrasse 2.70 1.63 99.90
37265 2021-01-06 19:02:06 Terrasse 2.80 1.74 99.90
37264 2021-01-06 18:33:51 Terrasse 2.80 1.74 99.90
37263 2021-01-06 18:05:36 Terrasse 2.90 1.85 99.90
37262 2021-01-06 17:37:21 Terrasse 2.90 1.85 99.90
37261 2021-01-06 17:09:06 Terrasse 3.00 1.96 99.90
37260 2021-01-06 16:40:53 Terrasse 3.10 2.07 99.90
37259 2021-01-06 16:12:39 Terrasse 3.30 2.29 99.90
37258 2021-01-06 15:44:24 Terrasse 3.40 2.40 99.90
37257 2021-01-06 15:16:10 Terrasse 3.50 2.51 99.90
37256 2021-01-06 14:47:56 Terrasse 3.70 2.73 99.90
37255 2021-01-06 14:19:39 Terrasse 3.60 2.62 99.90
37254 2021-01-06 13:51:25 Terrasse 3.50 2.51 99.90
37253 2021-01-06 13:23:09 Terrasse 3.50 2.51 99.90
37252 2021-01-06 12:54:54 Terrasse 3.40 2.40 99.90
37251 2021-01-06 12:26:37 Terrasse 3.00 1.96 99.90
37250 2021-01-06 11:58:20 Terrasse 2.80 1.74 99.90
37249 2021-01-06 11:30:05 Terrasse 2.60 1.52 99.90
37248 2021-01-06 11:01:49 Terrasse 2.50 1.41 99.90
37247 2021-01-06 10:33:34 Terrasse 2.40 1.30 99.90
37246 2021-01-06 10:05:18 Terrasse 2.30 1.19 99.90
37245 2021-01-06 09:37:03 Terrasse 2.10 0.97 99.90
37244 2021-01-06 09:08:47 Terrasse 2.10 0.97 99.90
37243 2021-01-06 08:40:33 Terrasse 2.00 0.86 99.90
37242 2021-01-06 08:12:30 Terrasse 1.90 0.75 99.90
37241 2021-01-06 07:44:12 Terrasse 2.10 0.97 99.90
37240 2021-01-06 07:15:57 Terrasse 2.10 0.97 99.90
37239 2021-01-06 06:47:41 Terrasse 2.10 0.97 99.90
37238 2021-01-06 06:19:26 Terrasse 2.10 0.97 99.90
37237 2021-01-06 05:51:12 Terrasse 2.00 0.86 99.90
37236 2021-01-06 05:22:57 Terrasse 2.00 0.86 99.90
37235 2021-01-06 04:54:43 Terrasse 2.00 0.86 99.90
37234 2021-01-06 04:26:28 Terrasse 2.00 0.86 99.90
37233 2021-01-06 03:58:12 Terrasse 2.00 0.86 99.90
37232 2021-01-06 03:29:58 Terrasse 2.00 0.86 99.90
37231 2021-01-06 03:01:43 Terrasse 2.10 0.97 99.90
37230 2021-01-06 02:33:30 Terrasse 2.10 0.97 99.90
37229 2021-01-06 02:05:14 Terrasse 2.10 0.97 99.90
37228 2021-01-06 01:36:59 Terrasse 2.20 1.08 99.90
37227 2021-01-06 01:08:45 Terrasse 2.20 1.08 99.90
37226 2021-01-06 00:40:31 Terrasse 2.10 0.97 99.90
37225 2021-01-06 00:12:17 Terrasse 2.20 1.08 99.90
37224 2021-01-05 23:44:04 Terrasse 2.20 1.08 99.90
37223 2021-01-05 23:15:49 Terrasse 2.30 1.19 99.90
37222 2021-01-05 22:47:34 Terrasse 2.30 1.19 99.90
37221 2021-01-05 22:19:20 Terrasse 2.40 1.30 99.90
37220 2021-01-05 21:51:07 Terrasse 2.40 1.30 99.90
37219 2021-01-05 21:22:53 Terrasse 2.50 1.41 99.90
37218 2021-01-05 20:54:39 Terrasse 2.70 1.63 99.90
37217 2021-01-05 20:26:24 Terrasse 2.70 1.63 99.90
37216 2021-01-05 19:58:09 Terrasse 2.70 1.63 99.90
37215 2021-01-05 19:29:54 Terrasse 2.70 1.63 99.90
37214 2021-01-05 19:01:40 Terrasse 2.70 1.63 99.90
37213 2021-01-05 18:33:25 Terrasse 2.70 1.63 99.90
37212 2021-01-05 18:05:11 Terrasse 2.80 1.74 99.90
37211 2021-01-05 17:36:56 Terrasse 2.80 1.74 99.90
37210 2021-01-05 17:08:42 Terrasse 2.80 1.74 99.90
37209 2021-01-05 16:40:30 Terrasse 2.90 1.85 99.90
37208 2021-01-05 16:12:15 Terrasse 3.00 1.96 99.90
37207 2021-01-05 15:44:00 Terrasse 3.10 2.07 99.90
37206 2021-01-05 15:15:46 Terrasse 3.10 2.07 99.90
37205 2021-01-05 14:47:31 Terrasse 3.10 2.07 99.90
37204 2021-01-05 14:19:16 Terrasse 3.10 2.07 99.90
37203 2021-01-05 13:51:01 Terrasse 3.10 2.07 99.90
37202 2021-01-05 13:22:45 Terrasse 2.90 1.85 99.90
37201 2021-01-05 12:54:30 Terrasse 2.80 1.74 99.90
37200 2021-01-05 12:26:20 Terrasse 2.80 1.74 99.90
37199 2021-01-05 11:58:04 Terrasse 2.70 1.63 99.90
37198 2021-01-05 11:29:49 Terrasse 2.60 1.52 99.90
37197 2021-01-05 11:01:34 Terrasse 2.40 1.30 99.90
37196 2021-01-05 10:33:20 Terrasse 2.30 1.19 99.90
37195 2021-01-05 10:05:05 Terrasse 2.20 1.08 99.90
37194 2021-01-05 09:36:50 Terrasse 2.20 1.08 99.90
37193 2021-01-05 09:08:35 Terrasse 2.20 1.08 99.90
37192 2021-01-05 08:40:21 Terrasse 2.10 0.97 99.90
37191 2021-01-05 08:12:07 Terrasse 2.10 0.97 99.90
37190 2021-01-05 07:43:52 Terrasse 2.00 0.86 99.90
37189 2021-01-05 07:15:37 Terrasse 2.10 0.97 99.90
37188 2021-01-05 06:47:21 Terrasse 2.10 0.97 99.90
37187 2021-01-05 06:19:06 Terrasse 2.00 0.86 99.90
37186 2021-01-05 05:50:52 Terrasse 2.00 0.86 99.90
37185 2021-01-05 05:22:38 Terrasse 2.00 0.86 99.90
37184 2021-01-05 04:54:24 Terrasse 2.00 0.86 99.90
37183 2021-01-05 04:26:09 Terrasse 1.90 0.75 99.90
37182 2021-01-05 03:57:53 Terrasse 1.90 0.75 99.90
37181 2021-01-05 03:29:39 Terrasse 2.00 0.86 99.90
37180 2021-01-05 03:01:24 Terrasse 2.00 0.86 99.90
37179 2021-01-05 02:33:10 Terrasse 1.90 0.75 99.90
37178 2021-01-05 02:04:55 Terrasse 1.90 0.75 99.90
37177 2021-01-05 01:36:41 Terrasse 2.00 0.86 99.90
37176 2021-01-05 01:08:26 Terrasse 1.90 0.75 99.90
37175 2021-01-05 00:40:11 Terrasse 1.90 0.75 99.90
37174 2021-01-05 00:11:57 Terrasse 1.90 0.75 99.90
37173 2021-01-04 23:43:42 Terrasse 1.90 0.75 99.90
37172 2021-01-04 23:15:28 Terrasse 1.90 0.75 99.90
37171 2021-01-04 22:47:13 Terrasse 1.90 0.75 99.90
37170 2021-01-04 22:19:00 Terrasse 1.80 0.64 99.90
37169 2021-01-04 21:50:49 Terrasse 1.90 0.75 99.90
37168 2021-01-04 21:22:34 Terrasse 1.80 0.64 99.90
37167 2021-01-04 20:54:20 Terrasse 1.90 0.75 99.90
37166 2021-01-04 20:26:06 Terrasse 1.80 0.64 99.90
37165 2021-01-04 19:57:51 Terrasse 1.80 0.64 99.90
37164 2021-01-04 19:29:37 Terrasse 1.90 0.75 99.90
37163 2021-01-04 19:01:21 Terrasse 1.80 0.64 99.90
37162 2021-01-04 18:33:08 Terrasse 1.80 0.64 99.90
37161 2021-01-04 18:04:53 Terrasse 1.80 0.64 99.90
37160 2021-01-04 17:36:40 Terrasse 1.90 0.75 99.90
37159 2021-01-04 17:08:27 Terrasse 1.90 0.75 99.90
37158 2021-01-04 16:40:12 Terrasse 2.00 0.86 99.90
37157 2021-01-04 16:11:58 Terrasse 2.00 0.86 99.90
37156 2021-01-04 15:43:44 Terrasse 2.00 0.86 99.90
37155 2021-01-04 15:15:29 Terrasse 2.00 0.86 99.90
37154 2021-01-04 14:47:15 Terrasse 2.00 0.86 99.90
37153 2021-01-04 14:19:01 Terrasse 2.00 0.86 99.90
37152 2021-01-04 13:50:48 Terrasse 2.00 0.86 99.90
37151 2021-01-04 13:22:35 Terrasse 2.10 0.97 99.90
37150 2021-01-04 12:54:20 Terrasse 2.10 0.97 99.90
37149 2021-01-04 12:26:05 Terrasse 2.10 0.97 99.90
37148 2021-01-04 11:57:50 Terrasse 2.00 0.86 99.90
37147 2021-01-04 11:29:35 Terrasse 1.90 0.75 99.90
37146 2021-01-04 11:01:19 Terrasse 1.70 0.53 99.90
37145 2021-01-04 10:33:05 Terrasse 1.70 0.53 99.90
37144 2021-01-04 10:04:51 Terrasse 1.60 0.42 99.90
37143 2021-01-04 09:36:37 Terrasse 1.50 0.31 99.90
37142 2021-01-04 09:08:23 Terrasse 1.50 0.31 99.90
37141 2021-01-04 08:40:09 Terrasse 1.50 0.31 99.90
37140 2021-01-04 08:11:54 Terrasse 1.40 0.20 99.90
37139 2021-01-04 07:43:41 Terrasse 1.40 0.20 99.90
37138 2021-01-04 07:15:28 Terrasse 1.40 0.20 99.90
37137 2021-01-04 06:47:14 Terrasse 1.40 0.20 99.90
37136 2021-01-04 06:18:58 Terrasse 1.40 0.20 99.90
37135 2021-01-04 05:50:46 Terrasse 1.40 0.20 99.90
37134 2021-01-04 05:22:31 Terrasse 1.40 0.20 99.90
37133 2021-01-04 04:54:16 Terrasse 1.40 0.20 99.90
37132 2021-01-04 04:26:02 Terrasse 1.50 0.31 99.90
37131 2021-01-04 03:57:47 Terrasse 1.50 0.31 99.90
37130 2021-01-04 03:29:32 Terrasse 1.50 0.31 99.90
37129 2021-01-04 03:01:17 Terrasse 1.50 0.31 99.90
37128 2021-01-04 02:33:03 Terrasse 1.50 0.31 99.90
37127 2021-01-04 02:04:49 Terrasse 1.50 0.31 99.90
37126 2021-01-04 01:36:36 Terrasse 1.50 0.31 99.90
37125 2021-01-04 01:08:21 Terrasse 1.60 0.42 99.90
37124 2021-01-04 00:40:06 Terrasse 1.60 0.42 99.90
37123 2021-01-04 00:11:51 Terrasse 2.80 1.74 99.90
37122 2021-01-03 23:43:37 Terrasse 1.70 0.53 99.90
37121 2021-01-03 23:15:22 Terrasse 1.70 0.53 99.90
37120 2021-01-03 22:47:09 Terrasse 1.70 0.53 99.90
37119 2021-01-03 22:18:54 Terrasse 1.80 0.64 99.90
37118 2021-01-03 21:50:56 Terrasse 1.80 0.64 99.90
37117 2021-01-03 21:22:53 Terrasse 1.80 0.64 99.90
37116 2021-01-03 20:54:32 Terrasse 1.80 0.64 99.90
37115 2021-01-03 20:26:34 Terrasse 1.80 0.64 99.90
37114 2021-01-03 19:58:14 Terrasse 1.80 0.64 99.90
37113 2021-01-03 19:30:02 Terrasse 1.80 0.64 99.90
37112 2021-01-03 19:01:48 Terrasse 1.80 0.64 99.90
37111 2021-01-03 18:33:34 Terrasse 1.90 0.75 99.90
37110 2021-01-03 18:05:20 Terrasse 2.00 0.86 99.90
37109 2021-01-03 17:37:08 Terrasse 2.10 0.97 99.90
37108 2021-01-03 17:08:54 Terrasse 2.20 1.08 99.90
37107 2021-01-03 16:40:41 Terrasse 2.30 1.19 99.90
37106 2021-01-03 16:12:28 Terrasse 2.30 1.19 99.90
37105 2021-01-03 15:44:14 Terrasse 2.50 1.41 99.90
37104 2021-01-03 15:16:00 Terrasse 2.50 1.41 99.90
37103 2021-01-03 14:47:45 Terrasse 2.60 1.52 99.90
37102 2021-01-03 14:19:30 Terrasse 2.60 1.52 99.90
37101 2021-01-03 13:51:16 Terrasse 2.80 1.74 99.90
37100 2021-01-03 13:23:02 Terrasse 2.80 1.74 99.90
37099 2021-01-03 12:54:48 Terrasse 2.80 1.74 99.90
37098 2021-01-03 12:26:34 Terrasse 2.90 1.85 99.90
37097 2021-01-03 11:58:20 Terrasse 2.90 1.85 99.90
37096 2021-01-03 11:30:04 Terrasse 2.80 1.74 99.90
37095 2021-01-03 11:01:51 Terrasse 2.60 1.52 99.90
37094 2021-01-03 10:33:34 Terrasse 2.40 1.30 99.90
37093 2021-01-03 10:05:19 Terrasse 2.20 1.08 99.90
37092 2021-01-03 09:37:04 Terrasse 2.10 0.97 99.90
37091 2021-01-03 09:08:50 Terrasse 1.90 0.75 99.90
37090 2021-01-03 08:40:36 Terrasse 1.80 0.64 99.90
37089 2021-01-03 08:12:23 Terrasse 1.80 0.64 99.90
37088 2021-01-03 07:44:09 Terrasse 1.80 0.64 99.90
37087 2021-01-03 07:15:55 Terrasse 1.80 0.64 99.90
37086 2021-01-03 06:47:40 Terrasse 1.80 0.64 99.90
37085 2021-01-03 06:19:25 Terrasse 1.70 0.53 99.90
37084 2021-01-03 05:51:12 Terrasse 1.70 0.53 99.90
37083 2021-01-03 05:22:57 Terrasse 1.60 0.42 99.90
37082 2021-01-03 04:54:44 Terrasse 1.60 0.42 99.90
37081 2021-01-03 04:26:29 Terrasse 1.50 0.31 99.90
37080 2021-01-03 03:58:15 Terrasse 1.50 0.31 99.90
37079 2021-01-03 03:30:00 Terrasse 1.50 0.31 99.90
37078 2021-01-03 03:01:46 Terrasse 1.50 0.31 99.90
37077 2021-01-03 02:33:32 Terrasse 1.50 0.31 99.90
37076 2021-01-03 02:05:18 Terrasse 1.40 0.20 99.90
37075 2021-01-03 01:37:02 Terrasse 1.30 0.09 99.90
37074 2021-01-03 01:08:49 Terrasse 1.20 -0.02 99.90
37073 2021-01-03 00:40:49 Terrasse 1.30 0.09 99.90
37072 2021-01-03 00:12:32 Terrasse 1.40 0.20 99.90
37071 2021-01-02 23:44:17 Terrasse 1.50 0.31 99.90
37070 2021-01-02 23:16:04 Terrasse 1.50 0.31 99.90
37069 2021-01-02 22:47:52 Terrasse 1.60 0.42 99.90
37068 2021-01-02 22:19:40 Terrasse 1.80 0.64 99.90
37067 2021-01-02 21:51:28 Terrasse 2.00 0.86 99.90
37066 2021-01-02 21:23:14 Terrasse 2.10 0.97 99.90
37065 2021-01-02 20:55:02 Terrasse 2.10 0.97 99.90
37064 2021-01-02 20:26:52 Terrasse 2.20 1.08 99.90
37063 2021-01-02 19:58:38 Terrasse 2.20 1.08 99.90
37062 2021-01-02 19:30:23 Terrasse 2.30 1.19 99.90
37061 2021-01-02 19:02:10 Terrasse 2.30 1.19 99.90
37060 2021-01-02 18:33:56 Terrasse 2.30 1.19 99.90
37059 2021-01-02 18:05:42 Terrasse 2.30 1.19 99.90
37058 2021-01-02 17:37:29 Terrasse 2.40 1.30 99.90
37057 2021-01-02 17:09:18 Terrasse 2.50 1.41 99.90
37056 2021-01-02 16:41:03 Terrasse 2.40 1.30 99.90
37055 2021-01-02 16:12:50 Terrasse 2.60 1.52 99.90
37054 2021-01-02 15:44:37 Terrasse 2.80 1.74 99.90
37053 2021-01-02 15:16:23 Terrasse 2.90 1.85 99.90
37052 2021-01-02 14:48:10 Terrasse 3.00 1.96 99.90
37051 2021-01-02 14:19:55 Terrasse 3.00 1.96 99.90
37050 2021-01-02 13:51:41 Terrasse 3.00 1.96 99.90
37049 2021-01-02 13:23:27 Terrasse 3.00 1.96 99.90
37048 2021-01-02 12:55:18 Terrasse 3.00 1.96 99.90
37047 2021-01-02 11:56:14 Terrasse 2.80 1.74 99.90
37046 2021-01-02 11:27:59 Terrasse 2.70 1.63 99.90
37045 2021-01-02 10:59:45 Terrasse 2.50 1.41 99.90
37044 2021-01-02 10:31:29 Terrasse 2.20 1.08 99.90
37043 2021-01-02 10:03:12 Terrasse 2.00 0.86 99.90
37042 2021-01-02 09:34:57 Terrasse 1.80 0.64 99.90
37041 2021-01-02 09:06:42 Terrasse 1.60 0.42 99.90
37040 2021-01-02 08:38:29 Terrasse 1.50 0.31 99.90
37039 2021-01-02 08:10:14 Terrasse 1.50 0.31 99.90
37038 2021-01-02 07:41:59 Terrasse 1.50 0.31 99.90
37037 2021-01-02 07:13:44 Terrasse 1.50 0.31 99.90
37036 2021-01-02 06:45:29 Terrasse 1.50 0.31 99.90
37035 2021-01-02 06:17:16 Terrasse 1.60 0.42 99.90
37034 2021-01-02 05:49:01 Terrasse 1.60 0.42 99.90
37033 2021-01-02 05:20:47 Terrasse 1.70 0.53 99.90
37032 2021-01-02 04:52:33 Terrasse 1.60 0.42 99.90
37031 2021-01-02 04:24:18 Terrasse 1.60 0.42 99.90
37030 2021-01-02 03:56:05 Terrasse 1.60 0.42 99.90
37029 2021-01-02 03:27:50 Terrasse 1.70 0.53 99.90
37028 2021-01-02 02:59:36 Terrasse 1.80 0.64 99.90
37027 2021-01-02 02:31:22 Terrasse 1.70 0.53 99.90
37026 2021-01-02 02:03:08 Terrasse 1.90 0.75 99.90
37025 2021-01-02 01:34:54 Terrasse 1.90 0.75 99.90
37024 2021-01-02 01:06:40 Terrasse 2.00 0.86 99.90
37023 2021-01-02 00:38:24 Terrasse 2.00 0.86 99.90
37022 2021-01-02 00:10:09 Terrasse 2.00 0.86 99.90
37021 2021-01-01 23:41:54 Terrasse 2.10 0.97 99.90
37020 2021-01-01 23:13:40 Terrasse 2.10 0.97 99.90
37019 2021-01-01 22:45:25 Terrasse 2.10 0.97 99.90
37018 2021-01-01 22:17:11 Terrasse 2.20 1.08 99.90
37017 2021-01-01 21:48:57 Terrasse 2.20 1.08 99.90
37016 2021-01-01 21:20:43 Terrasse 2.20 1.08 99.90
37015 2021-01-01 20:52:29 Terrasse 2.10 0.97 99.90
37014 2021-01-01 20:24:16 Terrasse 2.20 1.08 99.90
37013 2021-01-01 19:56:01 Terrasse 2.20 1.08 99.90
37012 2021-01-01 19:27:46 Terrasse 2.20 1.08 99.90
37011 2021-01-01 18:59:32 Terrasse 2.20 1.08 99.90
37010 2021-01-01 18:31:17 Terrasse 2.30 1.19 99.90
37009 2021-01-01 18:03:03 Terrasse 2.30 1.19 99.90
37008 2021-01-01 17:34:49 Terrasse 2.40 1.30 99.90
37007 2021-01-01 17:06:35 Terrasse 2.40 1.30 99.90
37006 2021-01-01 16:38:20 Terrasse 2.40 1.30 99.90
37005 2021-01-01 16:10:05 Terrasse 2.50 1.41 99.90
37004 2021-01-01 15:41:52 Terrasse 2.60 1.52 99.90
37003 2021-01-01 15:13:39 Terrasse 2.80 1.74 99.90
37002 2021-01-01 14:45:26 Terrasse 2.90 1.85 99.90
37001 2021-01-01 14:17:10 Terrasse 2.90 1.85 99.90
37000 2021-01-01 13:48:55 Terrasse 2.70 1.63 99.90
36999 2021-01-01 13:20:39 Terrasse 2.60 1.52 99.90
36998 2021-01-01 12:52:23 Terrasse 2.50 1.41 99.90
36997 2021-01-01 12:24:10 Terrasse 2.30 1.19 99.90
36996 2021-01-01 11:55:57 Terrasse 2.40 1.30 99.90
36995 2021-01-01 11:27:43 Terrasse 2.50 1.41 99.90
36994 2021-01-01 10:59:28 Terrasse 2.50 1.41 99.90
36993 2021-01-01 10:31:11 Terrasse 2.20 1.08 99.90
36992 2021-01-01 10:02:56 Terrasse 1.90 0.75 99.90
36991 2021-01-01 09:34:41 Terrasse 1.80 0.64 99.90
36990 2021-01-01 09:06:27 Terrasse 1.70 0.53 99.90
36989 2021-01-01 08:38:12 Terrasse 1.70 0.53 99.90
36988 2021-01-01 08:09:57 Terrasse 1.70 0.53 99.90
36987 2021-01-01 07:41:42 Terrasse 1.60 0.42 99.90
36986 2021-01-01 07:13:28 Terrasse 1.70 0.53 99.90
36985 2021-01-01 06:45:14 Terrasse 1.60 0.42 99.90
36984 2021-01-01 06:17:00 Terrasse 1.50 0.31 99.90
36983 2021-01-01 05:48:47 Terrasse 1.60 0.42 99.90
36982 2021-01-01 05:20:34 Terrasse 1.50 0.31 99.90
36981 2021-01-01 04:52:21 Terrasse 1.50 0.31 99.90
36980 2021-01-01 04:24:07 Terrasse 1.50 0.31 99.90
36979 2021-01-01 03:55:53 Terrasse 1.50 0.31 99.90
36978 2021-01-01 03:27:40 Terrasse 1.50 0.31 99.90
36977 2021-01-01 02:59:26 Terrasse 1.60 0.42 99.90
36976 2021-01-01 02:31:11 Terrasse 1.50 0.31 99.90
36975 2021-01-01 02:02:56 Terrasse 1.60 0.42 99.90
36974 2021-01-01 01:34:41 Terrasse 1.60 0.42 99.90
36973 2021-01-01 01:06:27 Terrasse 1.60 0.42 99.90
36972 2021-01-01 00:38:13 Terrasse 1.70 0.53 99.90
36971 2021-01-01 00:10:00 Terrasse 1.70 0.53 99.90
36970 2020-12-31 23:41:46 Terrasse 1.70 0.53 99.90
36969 2020-12-31 23:13:31 Terrasse 1.60 0.42 99.90
36968 2020-12-31 22:45:17 Terrasse 1.60 0.42 99.90
36967 2020-12-31 22:17:02 Terrasse 1.50 0.31 99.90
36966 2020-12-31 21:48:49 Terrasse 1.50 0.31 99.90
36965 2020-12-31 21:20:35 Terrasse 1.60 0.42 99.90
36964 2020-12-31 20:52:21 Terrasse 1.60 0.42 99.90
36963 2020-12-31 20:24:08 Terrasse 1.70 0.53 99.90
36962 2020-12-31 19:55:54 Terrasse 1.80 0.64 99.90
36961 2020-12-31 19:27:41 Terrasse 1.80 0.64 99.90
36960 2020-12-31 18:59:27 Terrasse 1.80 0.64 99.90
36959 2020-12-31 18:31:14 Terrasse 1.70 0.53 99.90
36958 2020-12-31 18:02:58 Terrasse 1.70 0.53 99.90
36957 2020-12-31 17:34:54 Terrasse 1.60 0.42 99.90
36956 2020-12-31 17:06:37 Terrasse 1.60 0.42 99.90
36955 2020-12-31 16:38:23 Terrasse 1.60 0.42 99.90
36954 2020-12-31 16:10:09 Terrasse 1.60 0.42 99.90
36953 2020-12-31 15:41:54 Terrasse 1.50 0.31 99.90
36952 2020-12-31 15:13:39 Terrasse 1.50 0.31 99.90
36951 2020-12-31 14:45:26 Terrasse 1.50 0.31 99.90
36950 2020-12-31 14:17:12 Terrasse 1.50 0.31 99.90
36949 2020-12-31 13:48:59 Terrasse 1.50 0.31 99.90
36948 2020-12-31 13:20:45 Terrasse 1.60 0.42 99.90
36947 2020-12-31 12:52:33 Terrasse 1.50 0.31 99.90
36946 2020-12-31 12:24:19 Terrasse 1.50 0.31 99.90
36945 2020-12-31 11:56:05 Terrasse 1.60 0.42 99.90
36944 2020-12-31 11:27:50 Terrasse 1.60 0.42 99.90
36943 2020-12-31 10:59:37 Terrasse 1.60 0.42 99.90
36942 2020-12-31 10:31:25 Terrasse 1.70 0.53 99.90
36941 2020-12-31 10:03:11 Terrasse 1.70 0.53 99.90
36940 2020-12-31 09:34:58 Terrasse 1.60 0.42 99.90
36939 2020-12-31 09:06:44 Terrasse 1.70 0.53 99.90
36938 2020-12-31 08:38:30 Terrasse 1.80 0.64 99.90
36937 2020-12-31 08:10:16 Terrasse 1.80 0.64 99.90
36936 2020-12-31 07:42:03 Terrasse 1.70 0.53 99.90
36935 2020-12-31 07:13:49 Terrasse 1.80 0.64 99.90
36934 2020-12-31 06:45:35 Terrasse 1.80 0.64 99.90
36933 2020-12-31 06:17:21 Terrasse 1.90 0.75 99.90
36932 2020-12-31 05:49:06 Terrasse 1.80 0.64 99.90
36931 2020-12-31 05:20:52 Terrasse 1.80 0.64 99.90
36930 2020-12-31 04:52:40 Terrasse 1.90 0.75 99.90
36929 2020-12-31 04:24:26 Terrasse 2.00 0.86 99.90
36928 2020-12-31 03:56:12 Terrasse 2.10 0.97 99.90
36927 2020-12-31 03:27:58 Terrasse 2.10 0.97 99.90
36926 2020-12-31 02:59:45 Terrasse 2.20 1.08 99.90
36925 2020-12-31 02:31:31 Terrasse 2.20 1.08 99.90
36924 2020-12-31 02:03:16 Terrasse 2.30 1.19 99.90
36923 2020-12-31 01:35:02 Terrasse 2.30 1.19 99.90
36922 2020-12-31 01:06:47 Terrasse 2.30 1.19 99.90
36921 2020-12-31 00:38:32 Terrasse 2.20 1.08 99.90
36920 2020-12-31 00:10:17 Terrasse 2.20 1.08 99.90
36919 2020-12-30 23:42:02 Terrasse 2.30 1.19 99.90
36918 2020-12-30 23:13:48 Terrasse 2.20 1.08 99.90
36917 2020-12-30 22:45:34 Terrasse 2.30 1.19 99.90
36916 2020-12-30 22:17:19 Terrasse 2.40 1.30 99.90
36915 2020-12-30 21:49:06 Terrasse 2.50 1.41 99.90
36914 2020-12-30 21:20:50 Terrasse 2.50 1.41 99.90
36913 2020-12-30 20:52:36 Terrasse 2.60 1.52 99.90
36912 2020-12-30 20:24:21 Terrasse 2.50 1.41 99.90
36911 2020-12-30 19:56:07 Terrasse 2.50 1.41 99.90
36910 2020-12-30 19:27:53 Terrasse 2.40 1.30 99.90
36909 2020-12-30 18:59:40 Terrasse 2.50 1.41 99.90
36908 2020-12-30 18:31:28 Terrasse 2.50 1.41 99.90
36907 2020-12-30 18:03:15 Terrasse 2.80 1.74 99.90
36906 2020-12-30 17:35:00 Terrasse 3.10 2.07 99.90
36905 2020-12-30 17:06:47 Terrasse 3.20 2.18 99.90
36904 2020-12-30 16:38:35 Terrasse 3.50 2.51 99.90
36903 2020-12-30 16:10:21 Terrasse 3.70 2.73 99.90
36902 2020-12-30 15:42:14 Terrasse 3.90 2.95 99.90
36901 2020-12-30 15:13:57 Terrasse 3.80 2.84 99.90
36900 2020-12-30 14:45:43 Terrasse 3.90 2.95 99.90
36899 2020-12-30 14:17:29 Terrasse 4.00 3.06 99.90
36898 2020-12-30 13:49:15 Terrasse 4.00 3.06 99.90
36897 2020-12-30 13:21:01 Terrasse 4.10 3.17 99.90
36896 2020-12-30 12:52:46 Terrasse 3.90 2.95 99.90
36895 2020-12-30 12:24:33 Terrasse 3.90 2.95 99.90
36894 2020-12-30 11:56:17 Terrasse 3.70 2.73 99.90
36893 2020-12-30 11:28:03 Terrasse 3.70 2.73 99.90
36892 2020-12-30 10:59:53 Terrasse 3.60 2.62 99.90
36891 2020-12-30 10:31:39 Terrasse 3.70 2.73 99.90
36890 2020-12-30 10:05:50 Terrasse 3.80 2.84 99.90
36889 2020-12-30 08:54:08 Terrasse 3.10 2.07 99.90
36888 2020-12-30 08:25:53 Terrasse 3.00 1.96 99.90
36887 2020-12-30 07:57:40 Terrasse 2.90 1.85 99.90
36886 2020-12-30 07:29:25 Terrasse 2.90 1.85 99.90
36885 2020-12-30 07:01:10 Terrasse 3.00 1.96 99.90
36884 2020-12-30 06:32:56 Terrasse 2.90 1.85 99.90
36883 2020-12-30 06:04:40 Terrasse 2.80 1.74 99.90
36882 2020-12-30 05:36:25 Terrasse 2.80 1.74 99.90
36881 2020-12-30 05:08:12 Terrasse 2.80 1.74 99.90
36880 2020-12-30 04:39:58 Terrasse 2.80 1.74 99.90
36879 2020-12-30 04:11:44 Terrasse 2.90 1.85 99.90
36878 2020-12-30 03:43:31 Terrasse 2.80 1.74 99.90
36877 2020-12-30 03:15:16 Terrasse 2.80 1.74 99.90
36876 2020-12-30 02:47:02 Terrasse 2.70 1.63 99.90
36875 2020-12-30 02:18:49 Terrasse 2.70 1.63 99.90
36874 2020-12-30 01:50:36 Terrasse 2.60 1.52 99.90
36873 2020-12-30 01:22:21 Terrasse 2.60 1.52 99.90
36872 2020-12-30 00:54:08 Terrasse 2.60 1.52 99.90
36871 2020-12-30 00:25:54 Terrasse 2.70 1.63 99.90
36870 2020-12-29 23:57:40 Terrasse 2.80 1.74 99.90
36869 2020-12-29 23:29:26 Terrasse 2.70 1.63 99.90
36868 2020-12-29 23:01:12 Terrasse 2.80 1.74 99.90
36867 2020-12-29 22:32:57 Terrasse 2.90 1.85 99.90
36866 2020-12-29 22:04:42 Terrasse 2.90 1.85 99.90
36865 2020-12-29 21:36:29 Terrasse 2.90 1.85 99.90
36864 2020-12-29 21:08:15 Terrasse 3.00 1.96 99.90
36863 2020-12-29 20:40:02 Terrasse 3.00 1.96 99.90
36862 2020-12-29 20:11:50 Terrasse 3.10 2.07 99.90
36861 2020-12-29 19:43:37 Terrasse 3.20 2.18 99.90
36860 2020-12-29 19:15:22 Terrasse 3.20 2.18 99.90
36859 2020-12-29 18:47:10 Terrasse 3.20 2.18 99.90
36858 2020-12-29 18:18:56 Terrasse 3.20 2.18 99.90
36857 2020-12-29 17:50:42 Terrasse 3.20 2.18 99.90
36856 2020-12-29 17:22:27 Terrasse 3.20 2.18 99.90
36855 2020-12-29 16:54:20 Terrasse 3.20 2.18 99.90
36854 2020-12-29 16:26:05 Terrasse 3.40 2.40 99.90
36853 2020-12-29 15:57:52 Terrasse 3.50 2.51 99.90
36852 2020-12-29 15:30:17 Terrasse 3.60 2.62 99.90
36851 2020-12-29 15:01:29 Terrasse 3.30 2.29 99.90
36850 2020-12-29 14:33:13 Terrasse 3.50 2.51 99.90
36849 2020-12-29 14:04:59 Terrasse 3.40 2.40 99.90
36848 2020-12-29 13:36:44 Terrasse 3.40 2.40 99.90
36847 2020-12-29 13:08:29 Terrasse 3.20 2.18 99.90
36846 2020-12-29 12:40:10 Terrasse 2.90 1.85 99.90
36845 2020-12-29 12:11:57 Terrasse 2.70 1.63 99.90
36844 2020-12-29 11:45:01 Terrasse 2.50 1.41 99.90
36843 2020-12-29 11:15:31 Terrasse 2.40 1.30 99.90
36842 2020-12-29 10:47:17 Terrasse 2.20 1.08 99.90
36841 2020-12-29 10:19:55 Terrasse 2.10 0.97 99.90
36840 2020-12-29 09:51:10 Terrasse 2.10 0.97 99.90
36839 2020-12-29 09:23:26 Terrasse 2.00 0.86 99.90
36838 2020-12-29 08:54:57 Terrasse 2.00 0.86 99.90
36837 2020-12-29 08:26:42 Terrasse 2.00 0.86 99.90
36836 2020-12-29 07:58:29 Terrasse 2.10 0.97 99.90
36835 2020-12-29 07:30:16 Terrasse 2.10 0.97 99.90
36834 2020-12-29 07:02:03 Terrasse 2.00 0.86 99.90
36833 2020-12-29 06:33:49 Terrasse 2.00 0.86 99.90
36832 2020-12-29 06:05:35 Terrasse 2.10 0.97 99.90
36831 2020-12-29 05:37:22 Terrasse 2.10 0.97 99.90
36830 2020-12-29 05:09:08 Terrasse 2.10 0.97 99.90
36829 2020-12-29 04:40:55 Terrasse 2.10 0.97 99.90
36828 2020-12-29 04:12:39 Terrasse 2.00 0.86 99.90
36827 2020-12-29 03:44:26 Terrasse 2.10 0.97 99.90
36826 2020-12-29 03:16:12 Terrasse 2.10 0.97 99.90
36825 2020-12-29 02:47:59 Terrasse 2.20 1.08 99.90
36824 2020-12-29 02:19:46 Terrasse 2.10 0.97 99.90
36823 2020-12-29 01:51:32 Terrasse 2.20 1.08 99.90
36822 2020-12-29 01:23:21 Terrasse 2.50 1.41 99.90
36821 2020-12-29 00:55:08 Terrasse 2.80 1.74 99.90
36820 2020-12-29 00:26:54 Terrasse 2.80 1.74 99.90
36819 2020-12-28 23:58:39 Terrasse 2.80 1.74 99.90
36818 2020-12-28 23:30:24 Terrasse 2.80 1.74 99.90
36817 2020-12-28 23:02:11 Terrasse 2.80 1.74 99.90
36816 2020-12-28 22:34:51 Terrasse 2.80 1.74 99.90
36815 2020-12-28 21:32:45 Terrasse 2.50 1.41 99.90
36814 2020-12-28 21:05:05 Terrasse 2.60 1.52 99.90
36813 2020-12-28 20:36:37 Terrasse 2.80 1.74 99.90
36812 2020-12-28 20:08:53 Terrasse 3.10 2.07 99.90
36811 2020-12-28 19:41:11 Terrasse 3.30 2.29 99.90
36810 2020-12-28 19:13:13 Terrasse 3.60 2.62 99.90
36809 2020-12-28 18:45:16 Terrasse 3.70 2.73 99.90
36808 2020-12-28 18:17:23 Terrasse 3.80 2.84 99.90
36807 2020-12-28 17:48:52 Terrasse 3.90 2.95 99.90
36806 2020-12-28 17:20:45 Terrasse 4.00 3.06 99.90
36805 2020-12-28 16:52:42 Terrasse 4.10 3.17 99.90
36804 2020-12-28 16:25:02 Terrasse 4.20 3.28 99.90
36803 2020-12-28 15:56:53 Terrasse 4.30 3.39 99.90
36802 2020-12-28 15:28:37 Terrasse 4.50 3.61 99.90
36801 2020-12-28 15:01:13 Terrasse 4.50 3.61 99.90
36800 2020-12-28 14:32:30 Terrasse 4.60 3.72 99.90
36799 2020-12-28 14:04:46 Terrasse 4.60 3.72 99.90
36798 2020-12-28 13:36:30 Terrasse 4.50 3.61 99.90
36797 2020-12-28 13:08:15 Terrasse 4.50 3.61 99.90
36796 2020-12-28 12:39:59 Terrasse 4.50 3.61 99.90
36795 2020-12-28 12:11:56 Terrasse 4.40 3.50 99.90
36794 2020-12-28 11:43:57 Terrasse 4.30 3.39 99.90
36793 2020-12-28 11:16:18 Terrasse 4.20 3.28 99.90
36792 2020-12-28 10:47:41 Terrasse 4.30 3.39 99.90
36791 2020-12-28 10:19:33 Terrasse 4.10 3.17 99.90
36790 2020-12-28 09:51:37 Terrasse 3.80 2.84 99.90
36789 2020-12-28 09:23:50 Terrasse 3.50 2.51 99.90
36788 2020-12-28 08:55:43 Terrasse 3.40 2.40 99.90
36787 2020-12-28 08:27:46 Terrasse 3.40 2.40 99.90
36786 2020-12-28 07:29:13 Terrasse 3.60 2.62 99.90
36785 2020-12-28 07:01:24 Terrasse 3.60 2.62 99.90
36784 2020-12-28 06:33:08 Terrasse 3.60 2.62 99.90
36783 2020-12-28 05:04:28 Terrasse 3.50 2.51 99.90
36782 2020-12-28 04:06:17 Terrasse 3.50 2.51 99.90
36781 2020-12-28 03:07:35 Terrasse 3.50 2.51 99.90
36780 2020-12-28 00:37:00 Terrasse 3.30 2.29 99.90
36779 2020-12-27 23:38:15 Terrasse 3.00 1.96 99.90
36778 2020-12-27 23:10:00 Terrasse 2.90 1.85 99.90
36777 2020-12-27 22:41:45 Terrasse 2.80 1.74 99.90
36776 2020-12-27 22:13:31 Terrasse 2.90 1.85 99.90
36775 2020-12-27 20:44:18 Terrasse 2.40 1.30 99.90
36774 2020-12-27 19:45:37 Terrasse 2.30 1.19 99.90
36773 2020-12-27 19:17:23 Terrasse 2.40 1.30 99.90
36772 2020-12-27 18:49:08 Terrasse 2.30 1.19 99.90
36771 2020-12-27 18:20:53 Terrasse 2.10 0.97 99.90
36770 2020-12-27 17:52:39 Terrasse 2.10 0.97 99.90
36769 2020-12-27 17:24:23 Terrasse 1.90 0.75 99.90
36768 2020-12-27 16:56:09 Terrasse 1.80 0.64 99.90
36767 2020-12-27 16:27:54 Terrasse 1.70 0.53 99.90
36766 2020-12-27 15:59:39 Terrasse 1.60 0.42 99.90
36765 2020-12-27 15:31:25 Terrasse 1.50 0.31 99.90
36764 2020-12-27 15:03:10 Terrasse 1.40 0.20 99.90
36763 2020-12-27 14:34:56 Terrasse 1.20 -0.02 99.90
36762 2020-12-27 14:06:41 Terrasse 1.10 -0.13 99.90
36761 2020-12-27 13:39:21 Terrasse 1.00 -0.24 99.90
36760 2020-12-27 13:11:17 Terrasse 0.80 -0.46 99.90
36759 2020-12-27 12:43:26 Terrasse 0.70 -0.57 99.90
36758 2020-12-27 12:15:20 Terrasse 0.70 -0.57 99.90
36757 2020-12-27 11:47:29 Terrasse 0.60 -0.68 99.90
36756 2020-12-27 11:19:00 Terrasse 0.60 -0.68 99.90
36755 2020-12-27 10:19:37 Terrasse 0.50 -0.79 99.90
36754 2020-12-27 09:51:32 Terrasse 0.40 -0.90 99.90
36753 2020-12-27 09:24:08 Terrasse 0.40 -0.90 99.90
36752 2020-12-27 08:55:24 Terrasse 0.40 -0.90 99.90
36751 2020-12-27 07:56:43 Terrasse 0.40 -0.90 99.90
36750 2020-12-26 22:13:46 Terrasse 2.00 0.86 99.90
36749 2020-12-26 21:46:34 Terrasse 2.10 0.97 99.90
36748 2020-12-26 20:46:34 Terrasse 2.00 0.86 99.90
36747 2020-12-26 20:19:11 Terrasse 2.10 0.97 99.90
36746 2020-12-26 19:51:00 Terrasse 2.10 0.97 99.90
36745 2020-12-26 19:22:39 Terrasse 2.20 1.08 99.90
36744 2020-12-26 18:55:15 Terrasse 2.10 0.97 99.90
36743 2020-12-26 18:27:15 Terrasse 2.30 1.19 99.90
36742 2020-12-26 16:27:54 Terrasse 2.70 1.63 99.90
36741 2020-12-26 15:59:48 Terrasse 2.80 1.74 99.90
36740 2020-12-26 15:31:15 Terrasse 2.80 1.74 99.90
36739 2020-12-26 15:02:58 Terrasse 2.80 1.74 99.90
36738 2020-12-26 14:34:44 Terrasse 2.80 1.74 99.90
36737 2020-12-26 14:06:30 Terrasse 2.80 1.74 99.90
36736 2020-12-26 13:38:15 Terrasse 2.70 1.63 99.90
36735 2020-12-26 13:10:02 Terrasse 2.70 1.63 99.90
36734 2020-12-26 12:41:48 Terrasse 2.70 1.63 99.90
36733 2020-12-26 12:13:35 Terrasse 2.80 1.74 99.90
36732 2020-12-26 11:01:32 Terrasse 2.00 0.86 99.90
36731 2020-12-26 10:33:17 Terrasse 2.20 1.08 99.90
36730 2020-12-26 10:05:02 Terrasse 2.10 0.97 99.90
36729 2020-12-26 09:36:48 Terrasse 2.00 0.86 99.90
36728 2020-12-26 09:08:33 Terrasse 1.80 0.64 99.90
36727 2020-12-26 08:40:37 Terrasse 1.80 0.64 99.90
36726 2020-12-26 08:12:26 Terrasse 2.00 0.86 99.90
36725 2020-12-26 07:44:25 Terrasse 2.00 0.86 99.90
36724 2020-12-26 07:16:13 Terrasse 2.00 0.86 99.90
36723 2020-12-26 06:48:03 Terrasse 2.00 0.86 99.90
36722 2020-12-26 06:19:48 Terrasse 2.10 0.97 99.90
36721 2020-12-26 05:51:41 Terrasse 2.10 0.97 99.90
36720 2020-12-26 05:23:31 Terrasse 1.90 0.75 99.90
36719 2020-12-26 04:55:16 Terrasse 1.90 0.75 99.90
36718 2020-12-26 04:27:10 Terrasse 1.90 0.75 99.90
36717 2020-12-26 03:59:01 Terrasse 1.70 0.53 99.90
36716 2020-12-26 03:30:52 Terrasse 1.60 0.42 99.90
36715 2020-12-26 03:02:43 Terrasse 1.40 0.20 99.90
36714 2020-12-26 02:34:26 Terrasse 1.20 -0.02 99.90
36713 2020-12-26 02:06:20 Terrasse 1.30 0.09 99.90
36712 2020-12-26 01:38:12 Terrasse 1.20 -0.02 99.90
36711 2020-12-26 01:09:56 Terrasse 1.10 -0.13 99.90
36710 2020-12-26 00:41:54 Terrasse 1.40 0.20 99.90
36709 2020-12-26 00:14:09 Terrasse 1.40 0.20 99.90
36708 2020-12-25 23:45:53 Terrasse 1.60 0.42 99.90
36707 2020-12-25 23:17:43 Terrasse 1.60 0.42 99.90
36706 2020-12-25 22:49:58 Terrasse 1.40 0.20 99.90
36705 2020-12-25 22:21:32 Terrasse 1.70 0.53 99.90
36704 2020-12-25 21:53:19 Terrasse 2.00 0.86 99.90
36703 2020-12-25 21:25:19 Terrasse 2.30 1.19 99.90
36702 2020-12-25 20:57:03 Terrasse 2.70 1.63 99.90
36701 2020-12-25 20:28:49 Terrasse 2.90 1.85 99.90
36700 2020-12-25 20:00:34 Terrasse 2.70 1.63 99.90
36699 2020-12-25 19:32:21 Terrasse 3.00 1.96 99.90
36698 2020-12-25 19:04:14 Terrasse 3.30 2.29 99.90
36697 2020-12-25 18:36:29 Terrasse 3.70 2.73 99.90
36696 2020-12-25 18:08:31 Terrasse 3.90 2.95 99.90
36695 2020-12-25 17:40:42 Terrasse 4.10 3.17 99.90
36694 2020-12-25 15:52:20 Terrasse 5.20 4.38 99.90
36693 2020-12-25 15:24:10 Terrasse 6.00 5.00 89.60
36692 2020-12-25 14:56:09 Terrasse 6.70 5.32 72.70
36691 2020-12-25 14:30:21 Terrasse 7.60 6.18 67.40
36690 2020-12-25 12:33:47 Terrasse 7.60 6.36 74.30
36689 2020-12-25 12:05:35 Terrasse 7.60 6.66 86.10
36688 2020-12-25 11:36:30 Terrasse 5.20 4.38 99.90
36687 2020-12-25 11:08:09 Terrasse 4.50 3.61 99.90
36686 2020-12-25 10:09:09 Terrasse 3.40 2.40 99.90
36685 2020-12-25 09:41:05 Terrasse 3.30 2.29 99.90
36684 2020-12-25 09:12:48 Terrasse 3.30 2.29 99.90
36683 2020-12-25 08:44:34 Terrasse 3.30 2.29 99.90
36682 2020-12-25 08:16:20 Terrasse 3.50 2.51 99.90
36681 2020-12-25 07:48:07 Terrasse 3.60 2.62 99.90
36680 2020-12-25 07:19:53 Terrasse 3.70 2.73 99.90
36679 2020-12-25 06:51:39 Terrasse 3.80 2.84 99.90
36678 2020-12-25 06:23:25 Terrasse 3.90 2.95 99.90
36677 2020-12-25 05:55:11 Terrasse 4.00 3.06 99.90
36676 2020-12-25 05:27:13 Terrasse 4.00 3.06 99.90
36675 2020-12-25 04:59:09 Terrasse 4.00 3.06 99.90
36674 2020-12-25 04:31:05 Terrasse 4.00 3.06 99.90
36673 2020-12-25 04:02:51 Terrasse 4.10 3.17 99.90
36672 2020-12-25 03:34:43 Terrasse 4.20 3.28 99.90
36671 2020-12-25 03:06:39 Terrasse 4.30 3.39 99.90
36670 2020-12-25 02:38:31 Terrasse 4.40 3.50 99.90
36669 2020-12-25 02:10:31 Terrasse 4.60 3.72 99.90
36668 2020-12-25 01:42:28 Terrasse 4.60 3.72 99.90
36667 2020-12-25 01:14:29 Terrasse 4.60 3.72 99.90
36666 2020-12-25 00:46:14 Terrasse 4.80 3.94 99.90
36665 2020-12-25 00:18:29 Terrasse 4.90 4.05 99.90
36664 2020-12-24 23:52:22 Terrasse 4.90 4.05 99.90
36663 2020-12-24 23:12:42 Terrasse 4.90 4.05 99.90
36662 2020-12-24 22:45:00 Terrasse 5.00 4.16 99.90
36661 2020-12-24 22:16:46 Terrasse 5.00 4.16 99.90
36660 2020-12-24 21:48:28 Terrasse 5.10 4.27 99.90
36659 2020-12-24 20:54:09 Terrasse 5.70 4.93 99.90
36658 2020-12-24 17:34:00 Terrasse 6.10 5.37 99.90
36657 2020-12-24 17:06:21 Terrasse 6.20 5.48 99.90
36656 2020-12-24 16:38:21 Terrasse 6.50 5.81 99.90
36655 2020-12-24 16:10:30 Terrasse 7.20 6.58 99.90
36654 2020-12-24 15:42:41 Terrasse 8.20 7.68 99.90
36653 2020-12-24 15:15:38 Terrasse 10.80 10.54 99.90
36652 2020-12-24 14:43:38 Terrasse 18.70 19.06 93.10
36651 2020-12-24 14:42:11 Terrasse 17.30 17.69 99.90
36650 2020-12-24 05:01:25 Terrasse 7.60 7.02 99.90
36649 2020-12-24 04:33:24 Terrasse 7.90 7.35 99.90
36648 2020-12-24 03:34:21 Terrasse 8.30 7.79 99.90
36647 2020-12-24 03:06:26 Terrasse 8.40 7.90 99.90
36646 2020-12-24 02:38:23 Terrasse 8.60 8.12 99.90
36645 2020-12-24 02:10:21 Terrasse 8.70 8.23 99.90
36644 2020-12-24 01:42:20 Terrasse 9.10 8.67 99.90
36643 2020-12-24 01:14:18 Terrasse 9.50 9.11 99.90
36642 2020-12-24 00:47:27 Terrasse 9.80 9.44 99.90
36641 2020-12-24 00:15:31 Terrasse 10.20 9.88 99.90
36640 2020-12-23 23:49:24 Terrasse 10.50 10.21 99.90
36639 2020-12-23 23:00:08 Terrasse 10.40 10.10 99.90
36638 2020-12-23 22:31:52 Terrasse 10.60 10.32 99.90
36637 2020-12-23 22:06:01 Terrasse 10.80 10.54 99.90
36636 2020-12-23 17:38:34 Terrasse 10.90 10.65 99.90
36635 2020-12-23 17:10:35 Terrasse 10.90 10.65 99.90
36634 2020-12-23 16:42:23 Terrasse 11.00 10.76 99.90
36633 2020-12-23 16:14:04 Terrasse 11.20 10.98 99.90
36632 2020-12-23 15:45:48 Terrasse 11.00 10.76 99.90
36631 2020-12-23 15:19:01 Terrasse 11.00 10.76 99.90
36630 2020-12-23 14:48:12 Terrasse 11.10 10.87 99.90
36629 2020-12-23 13:48:40 Terrasse 11.10 10.87 99.90
36628 2020-12-23 13:20:47 Terrasse 11.10 10.87 99.90
36627 2020-12-23 12:52:49 Terrasse 11.10 10.87 99.90
36626 2020-12-23 12:24:50 Terrasse 11.10 10.87 99.90
36625 2020-12-23 11:25:35 Terrasse 11.00 10.76 99.90
36624 2020-12-23 10:57:35 Terrasse 10.90 10.65 99.90
36623 2020-12-23 10:29:36 Terrasse 10.80 10.54 99.90
36622 2020-12-23 10:01:35 Terrasse 10.70 10.43 99.90
36621 2020-12-23 09:33:39 Terrasse 10.60 10.32 99.90
36620 2020-12-23 09:05:23 Terrasse 10.60 10.32 99.90
36619 2020-12-23 08:37:31 Terrasse 10.50 10.21 99.90
36618 2020-12-23 08:09:03 Terrasse 10.60 10.32 99.90
36617 2020-12-23 07:41:01 Terrasse 10.70 10.43 99.90
36616 2020-12-23 07:12:58 Terrasse 10.70 10.43 99.90
36615 2020-12-23 06:45:05 Terrasse 10.70 10.43 99.90
36614 2020-12-23 06:16:53 Terrasse 10.80 10.54 99.90
36613 2020-12-23 05:49:01 Terrasse 10.60 10.32 99.90
36612 2020-12-23 05:21:00 Terrasse 10.80 10.54 99.90
36611 2020-12-23 04:52:51 Terrasse 10.70 10.43 99.90
36610 2020-12-23 04:24:59 Terrasse 10.70 10.43 99.90
36609 2020-12-23 03:56:59 Terrasse 10.80 10.54 99.90
36608 2020-12-23 03:28:57 Terrasse 10.90 10.65 99.90
36607 2020-12-23 03:00:56 Terrasse 11.00 10.76 99.90
36606 2020-12-23 02:32:56 Terrasse 11.20 10.98 99.90
36605 2020-12-23 02:04:40 Terrasse 11.40 11.20 99.90
36604 2020-12-23 01:36:28 Terrasse 11.60 11.42 99.90
36603 2020-12-23 01:08:22 Terrasse 11.60 11.42 99.90
36602 2020-12-23 00:40:33 Terrasse 11.50 11.31 99.90
36601 2020-12-23 00:12:21 Terrasse 11.60 11.42 99.90
36600 2020-12-22 23:46:34 Terrasse 12.00 11.86 99.90
36599 2020-12-22 18:42:11 Terrasse 11.70 11.53 99.90
36598 2020-12-22 18:00:26 Terrasse 11.60 11.42 99.90
36597 2020-12-22 17:22:41 Terrasse 11.50 11.31 99.90
36596 2020-12-22 16:54:20 Terrasse 11.50 11.31 99.90
36595 2020-12-22 16:26:34 Terrasse 11.60 11.42 99.90
36594 2020-12-22 15:58:23 Terrasse 11.60 11.42 99.90
36593 2020-12-22 15:30:35 Terrasse 11.70 11.53 99.90
36592 2020-12-22 15:02:46 Terrasse 11.70 11.53 99.90
36591 2020-12-22 14:34:16 Terrasse 11.70 11.53 99.90
36590 2020-12-22 14:06:30 Terrasse 11.70 11.53 99.90
36589 2020-12-22 13:38:10 Terrasse 11.70 11.53 99.90
36588 2020-12-22 13:10:20 Terrasse 11.50 11.31 99.90
36587 2020-12-22 12:41:52 Terrasse 11.30 11.09 99.90
36586 2020-12-22 12:13:39 Terrasse 11.10 10.87 99.90
36585 2020-12-22 11:45:53 Terrasse 10.80 10.54 99.90
36584 2020-12-22 11:17:51 Terrasse 10.60 10.32 99.90
36583 2020-12-22 10:49:44 Terrasse 10.40 10.10 99.90
36582 2020-12-22 10:21:40 Terrasse 10.20 9.88 99.90
36581 2020-12-22 09:53:37 Terrasse 10.10 9.77 99.90
36580 2020-12-22 09:25:37 Terrasse 10.00 9.66 99.90
36579 2020-12-22 08:57:29 Terrasse 9.90 9.55 99.90
36578 2020-12-22 08:29:37 Terrasse 9.80 9.44 99.90
36577 2020-12-22 08:01:41 Terrasse 9.80 9.44 99.90
36576 2020-12-22 07:33:41 Terrasse 9.80 9.44 99.90
36575 2020-12-22 07:05:42 Terrasse 9.60 9.22 99.90
36574 2020-12-22 06:37:45 Terrasse 9.50 9.11 99.90
36573 2020-12-22 06:09:37 Terrasse 9.50 9.11 99.90
36572 2020-12-22 05:43:41 Terrasse 9.70 9.33 99.90
36571 2020-12-22 02:44:53 Terrasse 8.10 7.57 99.90
36570 2020-12-22 02:16:55 Terrasse 7.80 7.24 99.90
36569 2020-12-22 01:49:00 Terrasse 7.60 7.02 99.90
36568 2020-12-22 01:21:02 Terrasse 7.50 6.91 99.90
36567 2020-12-22 00:53:06 Terrasse 7.40 6.80 99.90
36566 2020-12-22 00:25:17 Terrasse 7.30 6.69 99.90
36565 2020-12-21 23:57:32 Terrasse 7.20 6.58 99.90
36564 2020-12-21 23:28:59 Terrasse 7.20 6.58 99.90
36563 2020-12-21 23:00:54 Terrasse 7.10 6.47 99.90
36562 2020-12-21 22:02:33 Terrasse 7.00 6.36 99.90
36561 2020-12-21 21:03:20 Terrasse 6.90 6.25 99.90
36560 2020-12-21 20:35:09 Terrasse 6.80 6.14 99.90
36559 2020-12-21 20:07:08 Terrasse 6.80 6.14 99.90
36558 2020-12-21 19:39:20 Terrasse 6.80 6.14 99.90
36557 2020-12-21 19:11:23 Terrasse 6.80 6.14 99.90
36556 2020-12-21 18:43:45 Terrasse 6.80 6.14 99.90
36555 2020-12-21 18:15:33 Terrasse 6.80 6.14 99.90
36554 2020-12-21 17:47:38 Terrasse 6.80 6.14 99.90
36553 2020-12-21 17:19:42 Terrasse 6.90 6.25 99.90
36552 2020-12-21 16:20:59 Terrasse 6.90 6.25 99.90
36551 2020-12-21 15:52:46 Terrasse 7.00 6.36 99.90
36550 2020-12-21 15:24:31 Terrasse 7.00 6.36 99.90
36549 2020-12-21 14:56:18 Terrasse 7.00 6.36 99.90
36548 2020-12-21 14:28:07 Terrasse 7.00 6.36 99.90
36547 2020-12-21 13:59:51 Terrasse 6.90 6.25 99.90
36546 2020-12-21 13:31:38 Terrasse 6.70 6.03 99.90
36545 2020-12-21 13:03:23 Terrasse 6.60 5.92 99.90
36544 2020-12-21 12:35:10 Terrasse 6.50 5.81 99.90
36543 2020-12-21 12:06:57 Terrasse 6.40 5.70 99.90
36542 2020-12-21 11:41:13 Terrasse 6.50 5.81 99.90
36541 2020-12-21 11:02:08 Terrasse 6.80 6.14 99.90
36540 2020-12-21 07:08:33 Terrasse 6.10 5.37 99.90
36539 2020-12-21 06:42:56 Terrasse 6.30 5.59 99.90
36538 2020-12-21 05:15:20 Terrasse 6.20 5.48 99.90
36537 2020-12-21 04:47:12 Terrasse 6.20 5.48 99.90
36536 2020-12-21 04:19:28 Terrasse 6.20 5.48 99.90
36535 2020-12-21 03:51:27 Terrasse 6.20 5.48 99.90
36534 2020-12-21 03:23:08 Terrasse 6.10 5.37 99.90
36533 2020-12-21 02:54:54 Terrasse 6.10 5.37 99.90
36532 2020-12-21 02:26:48 Terrasse 6.00 5.26 99.90
36531 2020-12-21 01:58:39 Terrasse 6.10 5.37 99.90
36530 2020-12-21 01:30:27 Terrasse 6.10 5.37 99.90
36529 2020-12-21 01:02:20 Terrasse 6.10 5.37 99.90
36528 2020-12-21 00:34:07 Terrasse 6.10 5.37 99.90
36527 2020-12-21 00:05:56 Terrasse 6.20 5.48 99.90
36526 2020-12-20 23:40:17 Terrasse 6.40 5.70 99.90
36525 2020-12-20 21:59:27 Terrasse 6.00 5.26 99.90
36524 2020-12-20 21:30:33 Terrasse 6.00 5.26 99.90
36523 2020-12-20 20:28:29 Terrasse 5.90 5.15 99.90
36522 2020-12-20 20:00:15 Terrasse 5.80 5.04 99.90
36521 2020-12-20 19:32:03 Terrasse 5.80 5.04 99.90
36520 2020-12-20 19:03:49 Terrasse 5.80 5.04 99.90
36519 2020-12-20 18:35:36 Terrasse 5.80 5.04 99.90
36518 2020-12-20 18:07:24 Terrasse 5.90 5.15 99.90
36517 2020-12-20 17:39:10 Terrasse 5.90 5.15 99.90
36516 2020-12-20 17:10:57 Terrasse 5.90 5.15 99.90
36515 2020-12-20 16:42:43 Terrasse 5.70 4.93 99.90
36514 2020-12-20 16:14:30 Terrasse 5.60 4.82 99.90
36513 2020-12-20 15:46:17 Terrasse 5.60 4.82 99.90
36512 2020-12-20 15:18:05 Terrasse 5.80 5.04 99.90
36511 2020-12-20 14:49:53 Terrasse 5.70 4.93 99.90
36510 2020-12-20 14:21:40 Terrasse 5.70 4.93 99.90
36509 2020-12-20 13:53:28 Terrasse 5.90 5.15 99.90
36508 2020-12-20 13:25:15 Terrasse 6.10 5.37 99.90
36507 2020-12-20 12:57:01 Terrasse 5.90 5.15 99.90
36506 2020-12-20 12:28:49 Terrasse 5.70 4.93 99.90
36505 2020-12-20 12:00:34 Terrasse 5.30 4.49 99.90
36504 2020-12-20 11:32:20 Terrasse 5.30 4.49 99.90
36503 2020-12-20 11:04:07 Terrasse 5.20 4.38 99.90
36502 2020-12-20 10:35:54 Terrasse 5.10 4.27 99.90
36501 2020-12-20 10:07:41 Terrasse 4.90 4.05 99.90
36500 2020-12-20 09:39:28 Terrasse 4.90 4.05 99.90
36499 2020-12-20 09:11:16 Terrasse 4.80 3.94 99.90
36498 2020-12-20 08:43:04 Terrasse 4.80 3.94 99.90
36497 2020-12-20 08:14:52 Terrasse 4.80 3.94 99.90
36496 2020-12-20 07:46:39 Terrasse 4.80 3.94 99.90
36495 2020-12-20 07:18:26 Terrasse 4.90 4.05 99.90
36494 2020-12-20 06:50:13 Terrasse 5.00 4.16 99.90
36493 2020-12-20 06:22:01 Terrasse 4.90 4.05 99.90
36492 2020-12-20 05:53:49 Terrasse 5.10 4.27 99.90
36491 2020-12-20 05:25:39 Terrasse 5.30 4.49 99.90
36490 2020-12-20 04:57:28 Terrasse 5.40 4.60 99.90
36489 2020-12-20 04:29:14 Terrasse 5.50 4.71 99.90
36488 2020-12-20 04:01:10 Terrasse 5.60 4.82 99.90
36487 2020-12-20 03:32:53 Terrasse 5.60 4.82 99.90
36486 2020-12-20 03:04:42 Terrasse 5.70 4.93 99.90
36485 2020-12-20 02:36:29 Terrasse 5.70 4.93 99.90
36484 2020-12-20 02:08:17 Terrasse 5.90 5.15 99.90
36483 2020-12-20 01:40:04 Terrasse 5.90 5.15 99.90
36482 2020-12-20 01:11:53 Terrasse 5.80 5.04 99.90
36481 2020-12-20 00:43:40 Terrasse 5.80 5.04 99.90
36480 2020-12-20 00:15:28 Terrasse 5.70 4.93 99.90
36479 2020-12-19 23:47:16 Terrasse 5.80 5.04 99.90
36478 2020-12-19 23:19:02 Terrasse 5.70 4.93 99.90
36477 2020-12-19 22:50:58 Terrasse 5.70 4.93 99.90
36476 2020-12-19 22:22:43 Terrasse 5.80 5.04 99.90
36475 2020-12-19 21:54:30 Terrasse 5.80 5.04 99.90
36474 2020-12-19 21:26:18 Terrasse 5.90 5.15 99.90
36473 2020-12-19 20:58:05 Terrasse 5.90 5.15 99.90
36472 2020-12-19 20:29:51 Terrasse 5.80 5.04 99.90
36471 2020-12-19 20:01:38 Terrasse 5.70 4.93 99.90
36470 2020-12-19 19:33:25 Terrasse 5.60 4.82 99.90
36469 2020-12-19 19:05:13 Terrasse 5.70 4.93 99.90
36468 2020-12-19 18:37:01 Terrasse 6.00 5.26 99.90
36467 2020-12-19 18:08:50 Terrasse 6.30 5.59 99.90
36466 2020-12-19 17:40:39 Terrasse 6.50 5.81 99.90
36465 2020-12-19 17:12:28 Terrasse 6.90 6.25 99.90
36464 2020-12-19 16:44:16 Terrasse 7.10 6.47 99.90
36463 2020-12-19 16:16:04 Terrasse 7.40 6.80 99.90
36462 2020-12-19 15:47:52 Terrasse 7.60 7.02 99.90
36461 2020-12-19 15:19:40 Terrasse 7.70 7.13 99.90
36460 2020-12-19 14:51:30 Terrasse 8.20 7.68 99.90
36459 2020-12-19 14:23:13 Terrasse 8.00 7.46 99.90
36458 2020-12-19 13:55:09 Terrasse 9.20 8.78 99.90
36457 2020-12-19 13:26:54 Terrasse 8.60 8.12 99.90
36456 2020-12-19 12:58:46 Terrasse 8.80 8.34 99.90
36455 2020-12-19 12:30:49 Terrasse 9.70 9.33 99.90
36454 2020-12-19 12:02:28 Terrasse 9.10 8.67 99.90
36453 2020-12-19 11:33:48 Terrasse 6.90 6.25 99.90
36452 2020-12-19 11:05:34 Terrasse 6.30 5.59 99.90
36451 2020-12-19 10:37:15 Terrasse 5.80 5.04 99.90
36450 2020-12-19 10:10:12 Terrasse 5.20 4.38 99.90
36449 2020-12-19 09:40:58 Terrasse 4.80 3.94 99.90
36448 2020-12-19 09:12:43 Terrasse 4.50 3.61 99.90
36447 2020-12-19 08:44:37 Terrasse 4.20 3.28 99.90
36446 2020-12-19 08:16:26 Terrasse 4.40 3.50 99.90
36445 2020-12-19 07:48:16 Terrasse 4.70 3.83 99.90
36444 2020-12-19 07:20:04 Terrasse 5.00 4.16 99.90
36443 2020-12-19 06:51:52 Terrasse 5.10 4.27 99.90
36442 2020-12-19 06:23:40 Terrasse 5.00 4.16 99.90
36441 2020-12-19 05:55:26 Terrasse 5.10 4.27 99.90
36440 2020-12-19 05:27:13 Terrasse 5.20 4.38 99.90
36439 2020-12-19 04:58:59 Terrasse 5.10 4.27 99.90
36438 2020-12-19 04:30:46 Terrasse 5.00 4.16 99.90
36437 2020-12-19 04:02:32 Terrasse 4.80 3.94 99.90
36436 2020-12-19 03:34:20 Terrasse 4.80 3.94 99.90
36435 2020-12-19 03:06:07 Terrasse 4.80 3.94 99.90
36434 2020-12-19 02:37:55 Terrasse 4.70 3.83 99.90
36433 2020-12-19 02:09:43 Terrasse 4.70 3.83 99.90
36432 2020-12-19 01:41:31 Terrasse 4.90 4.05 99.90
36431 2020-12-19 01:13:19 Terrasse 5.00 4.16 99.90
36430 2020-12-19 00:45:07 Terrasse 5.10 4.27 99.90
36429 2020-12-19 00:16:55 Terrasse 5.30 4.49 99.90
36428 2020-12-18 23:48:44 Terrasse 5.40 4.60 99.90
36427 2020-12-18 23:20:30 Terrasse 5.40 4.60 99.90
36426 2020-12-18 22:52:18 Terrasse 5.50 4.71 99.90
36425 2020-12-18 22:24:04 Terrasse 5.50 4.71 99.90
36424 2020-12-18 21:55:52 Terrasse 5.60 4.82 99.90
36423 2020-12-18 21:27:40 Terrasse 5.80 5.04 99.90
36422 2020-12-18 20:59:33 Terrasse 5.90 5.15 99.90
36421 2020-12-18 20:31:19 Terrasse 5.90 5.15 99.90
36420 2020-12-18 20:03:09 Terrasse 6.10 5.37 99.90
36419 2020-12-18 19:34:56 Terrasse 6.50 5.81 99.90
36418 2020-12-18 19:06:44 Terrasse 6.50 5.81 99.90
36417 2020-12-18 18:38:32 Terrasse 6.40 5.70 99.90
36416 2020-12-18 18:10:21 Terrasse 6.50 5.81 99.90
36415 2020-12-18 17:42:09 Terrasse 6.80 6.14 99.90
36414 2020-12-18 17:13:56 Terrasse 6.80 6.14 99.90
36413 2020-12-18 16:45:46 Terrasse 7.00 6.36 99.90
36412 2020-12-18 16:17:36 Terrasse 7.20 6.58 99.90
36411 2020-12-18 15:49:24 Terrasse 7.40 6.80 99.90
36410 2020-12-18 15:21:13 Terrasse 7.70 7.13 99.90
36409 2020-12-18 14:53:06 Terrasse 8.20 7.68 99.90
36408 2020-12-18 14:24:55 Terrasse 8.70 8.23 99.90
36407 2020-12-18 13:56:38 Terrasse 8.10 7.57 99.90
36406 2020-12-18 13:28:23 Terrasse 7.90 7.35 99.90
36405 2020-12-18 13:00:09 Terrasse 7.80 7.24 99.90
36404 2020-12-18 12:31:57 Terrasse 7.70 7.13 99.90
36403 2020-12-18 12:03:44 Terrasse 7.40 6.80 99.90
36402 2020-12-18 11:35:30 Terrasse 7.30 6.69 99.90
36401 2020-12-18 11:07:13 Terrasse 6.80 6.14 99.90
36400 2020-12-18 10:38:58 Terrasse 6.50 5.81 99.90
36399 2020-12-18 10:10:45 Terrasse 6.30 5.59 99.90
36398 2020-12-18 09:42:33 Terrasse 6.30 5.59 99.90
36397 2020-12-18 09:14:18 Terrasse 6.20 5.48 99.90
36396 2020-12-18 08:46:04 Terrasse 6.20 5.48 99.90
36395 2020-12-18 08:17:52 Terrasse 6.20 5.48 99.90
36394 2020-12-18 07:49:40 Terrasse 6.40 5.70 99.90
36393 2020-12-18 07:21:29 Terrasse 6.60 5.92 99.90
36392 2020-12-18 06:53:16 Terrasse 6.40 5.70 99.90
36391 2020-12-18 06:25:02 Terrasse 6.40 5.70 99.90
36390 2020-12-18 05:56:48 Terrasse 6.30 5.59 99.90
36389 2020-12-18 05:28:34 Terrasse 6.00 5.26 99.90
36388 2020-12-18 05:00:23 Terrasse 6.00 5.26 99.90
36387 2020-12-18 04:32:10 Terrasse 6.00 5.26 99.90
36386 2020-12-18 04:03:58 Terrasse 6.20 5.48 99.90
36385 2020-12-18 03:35:44 Terrasse 6.30 5.59 99.90
36384 2020-12-18 03:07:32 Terrasse 6.20 5.48 99.90
36383 2020-12-18 02:39:19 Terrasse 5.90 5.15 99.90
36382 2020-12-18 02:11:05 Terrasse 5.90 5.15 99.90
36381 2020-12-18 01:42:53 Terrasse 6.10 5.37 99.90
36380 2020-12-18 01:14:40 Terrasse 5.90 5.15 99.90
36379 2020-12-18 00:46:25 Terrasse 5.80 5.04 99.90
36378 2020-12-18 00:18:11 Terrasse 5.40 4.60 99.90
36377 2020-12-17 23:49:58 Terrasse 5.30 4.49 99.90
36376 2020-12-17 23:21:46 Terrasse 5.50 4.71 99.90
36375 2020-12-17 22:53:35 Terrasse 5.40 4.60 99.90
36374 2020-12-17 22:25:22 Terrasse 5.60 4.82 99.90
36373 2020-12-17 21:57:11 Terrasse 5.70 4.93 99.90
36372 2020-12-17 21:29:00 Terrasse 5.90 5.15 99.90
36371 2020-12-17 21:00:50 Terrasse 6.20 5.48 99.90
36370 2020-12-17 20:32:39 Terrasse 6.50 5.81 99.90
36369 2020-12-17 20:04:25 Terrasse 6.40 5.70 99.90
36368 2020-12-17 19:36:15 Terrasse 6.50 5.81 99.90
36367 2020-12-17 19:08:04 Terrasse 6.80 6.14 99.90
36366 2020-12-17 18:39:54 Terrasse 7.20 6.58 99.90
36365 2020-12-17 18:11:42 Terrasse 7.60 7.02 99.90
36364 2020-12-17 17:43:32 Terrasse 7.70 7.13 99.90
36363 2020-12-17 17:15:20 Terrasse 7.80 7.24 99.90
36362 2020-12-17 16:47:09 Terrasse 8.00 7.46 99.90
36361 2020-12-17 16:18:58 Terrasse 8.20 7.68 99.90
36360 2020-12-17 15:50:47 Terrasse 8.40 7.90 99.90
36359 2020-12-17 15:22:34 Terrasse 8.50 8.01 99.90
36358 2020-12-17 14:54:26 Terrasse 9.00 8.56 99.90
36357 2020-12-17 14:26:16 Terrasse 9.40 9.00 99.90
36356 2020-12-17 13:58:06 Terrasse 9.90 9.55 99.90
36355 2020-12-17 13:30:06 Terrasse 11.10 10.87 99.90
36354 2020-12-17 13:01:26 Terrasse 8.10 7.57 99.90
36353 2020-12-17 12:33:09 Terrasse 7.10 6.47 99.90
36352 2020-12-17 12:04:56 Terrasse 6.80 6.14 99.90
36351 2020-12-17 11:36:41 Terrasse 6.60 5.92 99.90
36350 2020-12-17 11:08:28 Terrasse 6.50 5.81 99.90
36349 2020-12-17 10:40:15 Terrasse 6.40 5.70 99.90
36348 2020-12-17 10:12:04 Terrasse 6.30 5.59 99.90
36347 2020-12-17 09:43:51 Terrasse 6.40 5.70 99.90
36346 2020-12-17 09:15:38 Terrasse 6.30 5.59 99.90
36345 2020-12-17 08:47:26 Terrasse 6.20 5.48 99.90
36344 2020-12-17 08:19:13 Terrasse 6.40 5.70 99.90
36343 2020-12-17 07:51:01 Terrasse 6.50 5.81 99.90
36342 2020-12-17 07:22:51 Terrasse 6.70 6.03 99.90
36341 2020-12-17 06:54:38 Terrasse 6.80 6.14 99.90
36340 2020-12-17 06:26:26 Terrasse 6.90 6.25 99.90
36339 2020-12-17 05:58:13 Terrasse 6.90 6.25 99.90
36338 2020-12-17 05:30:02 Terrasse 7.00 6.36 99.90
36337 2020-12-17 05:01:49 Terrasse 7.20 6.58 99.90
36336 2020-12-17 04:33:36 Terrasse 7.30 6.69 99.90
36335 2020-12-17 04:05:23 Terrasse 7.30 6.69 99.90
36334 2020-12-17 03:37:12 Terrasse 7.30 6.69 99.90
36333 2020-12-17 03:09:00 Terrasse 7.50 6.91 99.90
36332 2020-12-17 02:40:47 Terrasse 7.50 6.91 99.90
36331 2020-12-17 02:12:37 Terrasse 7.60 7.02 99.90
36330 2020-12-17 01:44:24 Terrasse 7.50 6.91 99.90
36329 2020-12-17 01:16:11 Terrasse 7.50 6.91 99.90
36328 2020-12-17 00:47:58 Terrasse 7.50 6.91 99.90
36327 2020-12-17 00:19:45 Terrasse 7.50 6.91 99.90
36326 2020-12-16 23:51:31 Terrasse 7.50 6.91 99.90
36325 2020-12-16 23:23:19 Terrasse 7.40 6.80 99.90
36324 2020-12-16 22:55:08 Terrasse 7.40 6.80 99.90
36323 2020-12-16 22:26:56 Terrasse 7.70 7.13 99.90
36322 2020-12-16 21:58:44 Terrasse 7.60 7.02 99.90
36321 2020-12-16 21:30:32 Terrasse 7.70 7.13 99.90
36320 2020-12-16 21:02:20 Terrasse 7.70 7.13 99.90
36319 2020-12-16 20:34:07 Terrasse 7.60 7.02 99.90
36318 2020-12-16 20:05:55 Terrasse 7.80 7.24 99.90
36317 2020-12-16 19:37:43 Terrasse 7.80 7.24 99.90
36316 2020-12-16 19:09:31 Terrasse 7.90 7.35 99.90
36315 2020-12-16 18:41:18 Terrasse 8.00 7.46 99.90
36314 2020-12-16 18:13:06 Terrasse 8.20 7.68 99.90
36313 2020-12-16 17:44:54 Terrasse 8.10 7.57 99.90
36312 2020-12-16 17:16:42 Terrasse 8.10 7.57 99.90
36311 2020-12-16 16:48:31 Terrasse 8.30 7.79 99.90
36310 2020-12-16 16:20:19 Terrasse 8.70 8.23 99.90
36309 2020-12-16 15:52:07 Terrasse 8.90 8.45 99.90
36308 2020-12-16 15:23:56 Terrasse 9.00 8.56 99.90
36307 2020-12-16 14:55:44 Terrasse 9.20 8.78 99.90
36306 2020-12-16 14:27:30 Terrasse 8.90 8.45 99.90
36305 2020-12-16 13:59:18 Terrasse 8.90 8.45 99.90
36304 2020-12-16 13:31:05 Terrasse 9.00 8.56 99.90
36303 2020-12-16 13:02:53 Terrasse 9.10 8.67 99.90
36302 2020-12-16 12:34:44 Terrasse 9.70 9.33 99.90
36301 2020-12-16 12:06:29 Terrasse 9.10 8.67 99.90
36300 2020-12-16 11:38:09 Terrasse 8.30 7.79 99.90
36299 2020-12-16 11:09:55 Terrasse 8.20 7.68 99.90
36298 2020-12-16 10:41:41 Terrasse 8.10 7.57 99.90
36297 2020-12-16 10:13:28 Terrasse 8.10 7.57 99.90
36296 2020-12-16 09:45:15 Terrasse 8.00 7.46 99.90
36295 2020-12-16 09:17:01 Terrasse 7.90 7.35 99.90
36294 2020-12-16 08:48:46 Terrasse 7.70 7.13 99.90
36293 2020-12-16 08:20:34 Terrasse 7.60 7.02 99.90
36292 2020-12-16 07:52:20 Terrasse 7.50 6.91 99.90
36291 2020-12-16 07:24:06 Terrasse 7.50 6.91 99.90
36290 2020-12-16 06:55:53 Terrasse 7.30 6.69 99.90
36289 2020-12-16 06:27:39 Terrasse 7.20 6.58 99.90
36288 2020-12-16 05:59:26 Terrasse 7.10 6.47 99.90
36287 2020-12-16 05:31:14 Terrasse 7.00 6.36 99.90
36286 2020-12-16 05:03:00 Terrasse 6.90 6.25 99.90
36285 2020-12-16 04:34:47 Terrasse 6.90 6.25 99.90
36284 2020-12-16 04:06:33 Terrasse 6.70 6.03 99.90
36283 2020-12-16 03:38:20 Terrasse 6.50 5.81 99.90
36282 2020-12-16 03:10:07 Terrasse 6.30 5.59 99.90
36281 2020-12-16 02:41:53 Terrasse 6.00 5.26 99.90
36280 2020-12-16 02:13:38 Terrasse 5.90 5.15 99.90
36279 2020-12-16 01:45:26 Terrasse 5.70 4.93 99.90
36278 2020-12-16 01:17:14 Terrasse 5.80 5.04 99.90
36277 2020-12-16 00:49:04 Terrasse 6.00 5.26 99.90
36276 2020-12-16 00:20:54 Terrasse 6.20 5.48 99.90
36275 2020-12-15 23:52:42 Terrasse 6.50 5.81 99.90
36274 2020-12-15 23:24:30 Terrasse 6.70 6.03 99.90
36273 2020-12-15 22:56:18 Terrasse 6.90 6.25 99.90
36272 2020-12-15 22:28:08 Terrasse 7.30 6.69 99.90
36271 2020-12-15 21:59:56 Terrasse 7.60 7.02 99.90
36270 2020-12-15 21:31:44 Terrasse 7.60 7.02 99.90
36269 2020-12-15 21:03:30 Terrasse 7.40 6.80 99.90
36268 2020-12-15 20:35:17 Terrasse 7.40 6.80 99.90
36267 2020-12-15 20:07:05 Terrasse 7.30 6.69 99.90
36266 2020-12-15 19:38:53 Terrasse 7.20 6.58 99.90
36265 2020-12-15 19:10:40 Terrasse 7.10 6.47 99.90
36264 2020-12-15 18:42:27 Terrasse 7.10 6.47 99.90
36263 2020-12-15 18:14:14 Terrasse 7.00 6.36 99.90
36262 2020-12-15 17:46:02 Terrasse 7.00 6.36 99.90
36261 2020-12-15 17:17:48 Terrasse 7.00 6.36 99.90
36260 2020-12-15 16:49:35 Terrasse 6.90 6.25 99.90
36259 2020-12-15 16:21:22 Terrasse 7.00 6.36 99.90
36258 2020-12-15 15:53:11 Terrasse 7.00 6.36 99.90
36257 2020-12-15 15:24:59 Terrasse 7.00 6.36 99.90
36256 2020-12-15 14:56:46 Terrasse 7.10 6.47 99.90
36255 2020-12-15 14:28:33 Terrasse 7.00 6.36 99.90
36254 2020-12-15 14:00:22 Terrasse 7.10 6.47 99.90
36253 2020-12-15 13:32:08 Terrasse 7.10 6.47 99.90
36252 2020-12-15 13:03:55 Terrasse 7.10 6.47 99.90
36251 2020-12-15 12:35:43 Terrasse 7.10 6.47 99.90
36250 2020-12-15 12:07:30 Terrasse 7.20 6.58 99.90
36249 2020-12-15 11:39:16 Terrasse 7.20 6.58 99.90
36248 2020-12-15 11:11:03 Terrasse 7.20 6.58 99.90
36247 2020-12-15 10:42:47 Terrasse 6.80 6.14 99.90
36246 2020-12-15 10:14:33 Terrasse 6.50 5.81 99.90
36245 2020-12-15 09:46:19 Terrasse 6.20 5.48 99.90
36244 2020-12-15 09:18:06 Terrasse 6.10 5.37 99.90
36243 2020-12-15 08:49:54 Terrasse 6.10 5.37 99.90
36242 2020-12-15 08:21:41 Terrasse 6.00 5.26 99.90
36241 2020-12-15 07:53:28 Terrasse 6.10 5.37 99.90
36240 2020-12-15 07:25:15 Terrasse 6.00 5.26 99.90
36239 2020-12-15 06:57:02 Terrasse 6.00 5.26 99.90
36238 2020-12-15 06:28:50 Terrasse 6.00 5.26 99.90
36237 2020-12-15 06:00:37 Terrasse 6.00 5.26 99.90
36236 2020-12-15 05:32:26 Terrasse 6.00 5.26 99.90
36235 2020-12-15 05:04:11 Terrasse 6.00 5.26 99.90
36234 2020-12-15 04:35:59 Terrasse 5.90 5.15 99.90
36233 2020-12-15 04:07:46 Terrasse 5.90 5.15 99.90
36232 2020-12-15 03:39:34 Terrasse 5.80 5.04 99.90
36231 2020-12-15 03:11:20 Terrasse 5.70 4.93 99.90
36230 2020-12-15 02:43:07 Terrasse 5.70 4.93 99.90
36229 2020-12-15 02:14:55 Terrasse 5.60 4.82 99.90
36228 2020-12-15 01:46:41 Terrasse 5.50 4.71 99.90
36227 2020-12-15 01:18:29 Terrasse 5.60 4.82 99.90
36226 2020-12-15 00:50:17 Terrasse 5.60 4.82 99.90
36225 2020-12-15 00:22:06 Terrasse 5.60 4.82 99.90
36224 2020-12-14 23:53:55 Terrasse 5.70 4.93 99.90
36223 2020-12-14 23:25:43 Terrasse 5.80 5.04 99.90
36222 2020-12-14 22:57:31 Terrasse 6.00 5.26 99.90
36221 2020-12-14 22:29:17 Terrasse 6.00 5.26 99.90
36220 2020-12-14 22:01:05 Terrasse 6.00 5.26 99.90
36219 2020-12-14 21:32:53 Terrasse 6.20 5.48 99.90
36218 2020-12-14 21:04:40 Terrasse 6.20 5.48 99.90
36217 2020-12-14 20:36:27 Terrasse 6.10 5.37 99.90
36216 2020-12-14 20:08:17 Terrasse 6.10 5.37 99.90
36215 2020-12-14 19:40:05 Terrasse 6.20 5.48 99.90
36214 2020-12-14 19:11:52 Terrasse 6.20 5.48 99.90
36213 2020-12-14 18:43:41 Terrasse 6.50 5.81 99.90
36212 2020-12-14 18:15:28 Terrasse 6.60 5.92 99.90
36211 2020-12-14 17:47:17 Terrasse 6.60 5.92 99.90
36210 2020-12-14 17:19:03 Terrasse 6.80 6.14 99.90
36209 2020-12-14 16:50:52 Terrasse 6.80 6.14 99.90
36208 2020-12-14 16:22:41 Terrasse 7.30 6.69 99.90
36207 2020-12-14 15:54:33 Terrasse 7.90 7.35 99.90
36206 2020-12-14 15:26:24 Terrasse 8.70 8.23 99.90
36205 2020-12-14 14:58:15 Terrasse 9.20 8.78 99.90
36204 2020-12-14 14:30:11 Terrasse 10.40 10.10 99.90
36203 2020-12-14 14:02:00 Terrasse 11.80 11.42 91.50
36202 2020-12-14 13:33:28 Terrasse 9.40 9.00 99.90
36201 2020-12-14 13:05:11 Terrasse 8.20 7.68 99.90
36200 2020-12-14 12:36:56 Terrasse 7.60 7.02 99.90
36199 2020-12-14 12:08:46 Terrasse 7.70 7.13 99.90
36198 2020-12-14 11:40:39 Terrasse 8.30 7.79 99.90
36197 2020-12-14 11:12:16 Terrasse 7.40 6.80 99.90
36196 2020-12-14 10:44:01 Terrasse 6.70 6.03 99.90
36195 2020-12-14 10:15:43 Terrasse 6.00 5.26 99.90
36194 2020-12-14 09:47:27 Terrasse 5.60 4.82 99.90
36193 2020-12-14 09:19:13 Terrasse 5.10 4.27 99.90
36192 2020-12-14 08:50:59 Terrasse 4.90 4.05 99.90
36191 2020-12-14 08:22:47 Terrasse 4.80 3.94 99.90
36190 2020-12-14 07:54:34 Terrasse 4.70 3.83 99.90
36189 2020-12-14 07:26:22 Terrasse 4.60 3.72 99.90
36188 2020-12-14 06:58:08 Terrasse 4.60 3.72 99.90
36187 2020-12-14 06:30:08 Terrasse 4.50 3.61 99.90
36186 2020-12-14 06:01:53 Terrasse 4.50 3.61 99.90
36185 2020-12-14 05:33:40 Terrasse 4.50 3.61 99.90
36184 2020-12-14 05:05:28 Terrasse 4.40 3.50 99.90
36183 2020-12-14 04:37:15 Terrasse 4.40 3.50 99.90
36182 2020-12-14 04:09:03 Terrasse 4.50 3.61 99.90
36181 2020-12-14 03:40:52 Terrasse 4.50 3.61 99.90
36180 2020-12-14 03:12:39 Terrasse 4.60 3.72 99.90
36179 2020-12-14 02:44:28 Terrasse 4.60 3.72 99.90
36178 2020-12-14 02:16:16 Terrasse 4.70 3.83 99.90
36177 2020-12-14 01:48:04 Terrasse 4.60 3.72 99.90
36176 2020-12-14 01:19:50 Terrasse 4.30 3.39 99.90
36175 2020-12-14 00:51:40 Terrasse 4.50 3.61 99.90
36174 2020-12-14 00:23:29 Terrasse 4.80 3.94 99.90
36173 2020-12-13 23:55:19 Terrasse 5.00 4.16 99.90
36172 2020-12-13 23:27:07 Terrasse 5.10 4.27 99.90
36171 2020-12-13 22:58:54 Terrasse 5.10 4.27 99.90
36170 2020-12-13 22:30:42 Terrasse 5.10 4.27 99.90
36169 2020-12-13 22:02:29 Terrasse 5.10 4.27 99.90
36168 2020-12-13 21:34:17 Terrasse 5.00 4.16 99.90
36167 2020-12-13 21:06:06 Terrasse 5.00 4.16 99.90
36166 2020-12-13 20:37:55 Terrasse 5.10 4.27 99.90
36165 2020-12-13 20:09:42 Terrasse 5.10 4.27 99.90
36164 2020-12-13 19:41:29 Terrasse 5.00 4.16 99.90
36163 2020-12-13 19:13:16 Terrasse 4.90 4.05 99.90
36162 2020-12-13 18:45:06 Terrasse 5.20 4.38 99.90
36161 2020-12-13 18:16:55 Terrasse 5.40 4.60 99.90
36160 2020-12-13 17:48:44 Terrasse 5.80 5.04 99.90
36159 2020-12-13 17:20:35 Terrasse 6.40 5.70 99.90
36158 2020-12-13 16:52:26 Terrasse 6.90 6.25 99.90
36157 2020-12-13 16:24:16 Terrasse 7.30 6.69 99.90
36156 2020-12-13 15:56:04 Terrasse 7.60 7.02 99.90
36155 2020-12-13 15:27:54 Terrasse 8.00 7.46 99.90
36154 2020-12-13 14:59:48 Terrasse 9.10 8.67 99.90
36153 2020-12-13 14:31:18 Terrasse 8.10 7.57 99.90
36152 2020-12-13 14:03:04 Terrasse 7.60 7.02 99.90
36151 2020-12-13 13:34:52 Terrasse 7.70 7.13 99.90
36150 2020-12-13 13:06:39 Terrasse 7.80 7.24 99.90
36149 2020-12-13 12:38:28 Terrasse 8.00 7.46 99.90
36148 2020-12-13 12:10:10 Terrasse 7.60 7.02 99.90
36147 2020-12-13 11:41:58 Terrasse 7.50 6.91 99.90
36146 2020-12-13 11:13:42 Terrasse 7.10 6.47 99.90
36145 2020-12-13 10:45:30 Terrasse 7.00 6.36 99.90
36144 2020-12-13 10:17:16 Terrasse 6.90 6.25 99.90
36143 2020-12-13 09:49:03 Terrasse 6.70 6.03 99.90
36142 2020-12-13 09:20:48 Terrasse 6.40 5.70 99.90
36141 2020-12-13 08:52:33 Terrasse 6.10 5.37 99.90
36140 2020-12-13 08:24:20 Terrasse 5.80 5.04 99.90
36139 2020-12-13 07:56:07 Terrasse 5.80 5.04 99.90
36138 2020-12-13 07:27:54 Terrasse 5.70 4.93 99.90
36137 2020-12-13 06:59:42 Terrasse 5.80 5.04 99.90
36136 2020-12-13 06:31:29 Terrasse 5.60 4.82 99.90
36135 2020-12-13 06:03:17 Terrasse 5.50 4.71 99.90
36134 2020-12-13 05:35:05 Terrasse 5.40 4.60 99.90
36133 2020-12-13 05:06:52 Terrasse 5.30 4.49 99.90
36132 2020-12-13 04:38:39 Terrasse 5.30 4.49 99.90
36131 2020-12-13 04:10:27 Terrasse 5.30 4.49 99.90
36130 2020-12-13 03:42:15 Terrasse 5.50 4.71 99.90
36129 2020-12-13 03:14:02 Terrasse 5.60 4.82 99.90
36128 2020-12-13 02:45:49 Terrasse 5.40 4.60 99.90
36127 2020-12-13 02:17:37 Terrasse 5.30 4.49 99.90
36126 2020-12-13 01:49:24 Terrasse 5.30 4.49 99.90
36125 2020-12-13 01:21:11 Terrasse 5.20 4.38 99.90
36124 2020-12-13 00:52:59 Terrasse 5.20 4.38 99.90
36123 2020-12-13 00:24:46 Terrasse 5.30 4.49 99.90
36122 2020-12-12 23:56:35 Terrasse 5.30 4.49 99.90
36121 2020-12-12 23:28:22 Terrasse 5.20 4.38 99.90
36120 2020-12-12 23:00:08 Terrasse 5.20 4.38 99.90
36119 2020-12-12 22:31:57 Terrasse 5.20 4.38 99.90
36118 2020-12-12 22:03:45 Terrasse 5.20 4.38 99.90
36117 2020-12-12 21:35:32 Terrasse 5.20 4.38 99.90
36116 2020-12-12 21:07:22 Terrasse 5.30 4.49 99.90
36115 2020-12-12 20:39:09 Terrasse 5.20 4.38 99.90
36114 2020-12-12 20:10:59 Terrasse 5.20 4.38 99.90
36113 2020-12-12 19:42:48 Terrasse 5.40 4.60 99.90
36112 2020-12-12 19:14:36 Terrasse 5.40 4.60 99.90
36111 2020-12-12 18:46:23 Terrasse 5.40 4.60 99.90
36110 2020-12-12 18:18:11 Terrasse 5.40 4.60 99.90
36109 2020-12-12 17:50:00 Terrasse 5.40 4.60 99.90
36108 2020-12-12 17:21:49 Terrasse 5.50 4.71 99.90
36107 2020-12-12 16:53:39 Terrasse 5.70 4.93 99.90
36106 2020-12-12 16:25:24 Terrasse 5.50 4.71 99.90
36105 2020-12-12 15:57:12 Terrasse 5.40 4.60 99.90
36104 2020-12-12 15:29:00 Terrasse 5.50 4.71 99.90
36103 2020-12-12 15:00:51 Terrasse 5.60 4.82 99.90
36102 2020-12-12 14:32:38 Terrasse 5.60 4.82 99.90
36101 2020-12-12 14:04:23 Terrasse 5.50 4.71 99.90
36100 2020-12-12 13:36:12 Terrasse 5.40 4.60 99.90
36099 2020-12-12 13:07:59 Terrasse 5.20 4.38 99.90
36098 2020-12-12 12:39:47 Terrasse 5.20 4.38 99.90
36097 2020-12-12 12:11:34 Terrasse 5.20 4.38 99.90
36096 2020-12-12 11:43:22 Terrasse 5.10 4.27 99.90
36095 2020-12-12 11:15:08 Terrasse 5.00 4.16 99.90
36094 2020-12-12 10:46:54 Terrasse 4.80 3.94 99.90
36093 2020-12-12 10:18:40 Terrasse 4.60 3.72 99.90
36092 2020-12-12 09:50:26 Terrasse 4.50 3.61 99.90
36091 2020-12-12 09:22:14 Terrasse 4.40 3.50 99.90
36090 2020-12-12 08:54:03 Terrasse 4.40 3.50 99.90
36089 2020-12-12 08:25:51 Terrasse 4.30 3.39 99.90
36088 2020-12-12 07:57:50 Terrasse 4.30 3.39 99.90
36087 2020-12-12 07:29:34 Terrasse 4.30 3.39 99.90
36086 2020-12-12 07:01:22 Terrasse 4.30 3.39 99.90
36085 2020-12-12 06:33:22 Terrasse 4.30 3.39 99.90
36084 2020-12-12 06:05:07 Terrasse 4.20 3.28 99.90
36083 2020-12-12 05:36:55 Terrasse 4.20 3.28 99.90
36082 2020-12-12 05:08:42 Terrasse 4.10 3.17 99.90
36081 2020-12-12 04:40:30 Terrasse 4.10 3.17 99.90
36080 2020-12-12 04:12:18 Terrasse 4.10 3.17 99.90
36079 2020-12-12 03:44:06 Terrasse 4.20 3.28 99.90
36078 2020-12-12 03:15:55 Terrasse 4.20 3.28 99.90
36077 2020-12-12 02:47:43 Terrasse 4.10 3.17 99.90
36076 2020-12-12 02:19:32 Terrasse 4.10 3.17 99.90
36075 2020-12-12 01:51:20 Terrasse 4.10 3.17 99.90
36074 2020-12-12 01:23:07 Terrasse 3.90 2.95 99.90
36073 2020-12-12 00:54:54 Terrasse 3.90 2.95 99.90
36072 2020-12-12 00:26:43 Terrasse 3.90 2.95 99.90
36071 2020-12-11 23:58:29 Terrasse 3.90 2.95 99.90
36070 2020-12-11 23:30:18 Terrasse 3.90 2.95 99.90
36069 2020-12-11 23:02:06 Terrasse 3.90 2.95 99.90
36068 2020-12-11 22:33:52 Terrasse 3.70 2.73 99.90
36067 2020-12-11 22:05:41 Terrasse 3.60 2.62 99.90
36066 2020-12-11 21:37:30 Terrasse 3.50 2.51 99.90
36065 2020-12-11 21:09:17 Terrasse 3.50 2.51 99.90
36064 2020-12-11 20:41:05 Terrasse 3.40 2.40 99.90
36063 2020-12-11 20:12:53 Terrasse 3.40 2.40 99.90
36062 2020-12-11 19:44:40 Terrasse 3.30 2.29 99.90
36061 2020-12-11 19:16:27 Terrasse 3.20 2.18 99.90
36060 2020-12-11 18:48:15 Terrasse 3.20 2.18 99.90
36059 2020-12-11 18:20:03 Terrasse 3.20 2.18 99.90
36058 2020-12-11 17:51:50 Terrasse 3.10 2.07 99.90
36057 2020-12-11 17:23:42 Terrasse 3.30 2.29 99.90
36056 2020-12-11 16:55:31 Terrasse 3.30 2.29 99.90
36055 2020-12-11 16:27:20 Terrasse 3.40 2.40 99.90
36054 2020-12-11 15:59:21 Terrasse 3.50 2.51 99.90
36053 2020-12-11 15:31:07 Terrasse 3.70 2.73 99.90
36052 2020-12-11 15:02:57 Terrasse 3.80 2.84 99.90
36051 2020-12-11 14:34:46 Terrasse 4.10 3.17 99.90
36050 2020-12-11 14:06:37 Terrasse 4.40 3.50 99.90
36049 2020-12-11 13:38:17 Terrasse 4.00 3.06 99.90
36048 2020-12-11 13:10:03 Terrasse 3.40 2.40 99.90
36047 2020-12-11 12:41:48 Terrasse 3.20 2.18 99.90
36046 2020-12-11 12:13:37 Terrasse 3.10 2.07 99.90
36045 2020-12-11 11:45:25 Terrasse 3.20 2.18 99.90
36044 2020-12-11 11:17:12 Terrasse 3.10 2.07 99.90
36043 2020-12-11 10:49:00 Terrasse 3.00 1.96 99.90
36042 2020-12-11 10:20:47 Terrasse 2.90 1.85 99.90
36041 2020-12-11 09:52:34 Terrasse 2.60 1.52 99.90
36040 2020-12-11 09:24:22 Terrasse 2.50 1.41 99.90
36039 2020-12-11 08:56:10 Terrasse 2.30 1.19 99.90
36038 2020-12-11 08:27:57 Terrasse 2.20 1.08 99.90
36037 2020-12-11 07:59:44 Terrasse 2.10 0.97 99.90
36036 2020-12-11 07:31:32 Terrasse 2.00 0.86 99.90
36035 2020-12-11 07:03:22 Terrasse 2.00 0.86 99.90
36034 2020-12-11 06:35:16 Terrasse 2.20 1.08 99.90
36033 2020-12-11 06:07:03 Terrasse 2.10 0.97 99.90
36032 2020-12-11 05:38:51 Terrasse 2.10 0.97 99.90
36031 2020-12-11 05:10:40 Terrasse 2.20 1.08 99.90
36030 2020-12-11 04:42:28 Terrasse 2.10 0.97 99.90
36029 2020-12-11 04:14:28 Terrasse 2.20 1.08 99.90
36028 2020-12-11 03:46:12 Terrasse 2.10 0.97 99.90
36027 2020-12-11 03:18:00 Terrasse 2.10 0.97 99.90
36026 2020-12-11 02:49:49 Terrasse 2.10 0.97 99.90
36025 2020-12-11 02:21:38 Terrasse 2.10 0.97 99.90
36024 2020-12-11 01:53:25 Terrasse 2.10 0.97 99.90
36023 2020-12-11 01:25:14 Terrasse 2.00 0.86 99.90
36022 2020-12-11 00:57:03 Terrasse 2.10 0.97 99.90
36021 2020-12-11 00:28:51 Terrasse 2.10 0.97 99.90
36020 2020-12-11 00:00:40 Terrasse 2.10 0.97 99.90
36019 2020-12-10 23:32:39 Terrasse 2.10 0.97 99.90
36018 2020-12-10 23:04:23 Terrasse 2.10 0.97 99.90
36017 2020-12-10 22:36:11 Terrasse 2.10 0.97 99.90
36016 2020-12-10 22:10:00 Terrasse 2.00 0.86 99.90
36015 2020-12-10 21:39:22 Terrasse 2.10 0.97 99.90
36014 2020-12-10 20:57:00 Terrasse 2.10 0.97 99.90
36013 2020-12-10 19:42:05 Terrasse 1.60 0.42 99.90
36012 2020-12-10 19:10:08 Terrasse 1.50 0.31 99.90
36011 2020-12-10 18:38:03 Terrasse 1.40 0.20 99.90
36010 2020-12-10 18:09:31 Terrasse 1.40 0.20 99.90
36009 2020-12-10 17:41:20 Terrasse 1.50 0.31 99.90
36008 2020-12-10 17:13:20 Terrasse 1.50 0.31 99.90
36007 2020-12-10 16:45:08 Terrasse 1.70 0.53 99.90
36006 2020-12-10 16:18:46 Terrasse 1.70 0.53 99.90
36005 2020-12-10 15:44:28 Terrasse 1.80 0.64 99.90
36004 2020-12-10 15:16:17 Terrasse 2.10 0.97 99.90
36003 2020-12-10 14:48:06 Terrasse 2.20 1.08 99.90
36002 2020-12-10 14:19:55 Terrasse 2.30 1.19 99.90
36001 2020-12-10 13:51:44 Terrasse 2.30 1.19 99.90
36000 2020-12-10 13:23:34 Terrasse 2.50 1.41 99.90
35999 2020-12-10 12:55:24 Terrasse 2.20 1.08 99.90
35998 2020-12-10 12:27:13 Terrasse 2.20 1.08 99.90
35997 2020-12-10 11:59:02 Terrasse 2.20 1.08 99.90
35996 2020-12-10 11:30:50 Terrasse 2.00 0.86 99.90
35995 2020-12-10 11:02:40 Terrasse 2.00 0.86 99.90
35994 2020-12-10 10:34:28 Terrasse 1.80 0.64 99.90
35993 2020-12-10 10:06:16 Terrasse 1.70 0.53 99.90
35992 2020-12-10 09:38:05 Terrasse 1.50 0.31 99.90
35991 2020-12-10 09:09:53 Terrasse 1.70 0.53 99.90
35990 2020-12-10 08:41:41 Terrasse 1.60 0.42 99.90
35989 2020-12-10 08:13:31 Terrasse 1.70 0.53 99.90
35988 2020-12-10 07:45:21 Terrasse 1.70 0.53 99.90
35987 2020-12-10 07:17:08 Terrasse 1.60 0.42 99.90
35986 2020-12-10 06:48:58 Terrasse 1.60 0.42 99.90
35985 2020-12-10 06:20:47 Terrasse 1.60 0.42 99.90
35984 2020-12-10 05:52:36 Terrasse 1.70 0.53 99.90
35983 2020-12-10 05:24:25 Terrasse 1.60 0.42 99.90
35982 2020-12-10 04:56:14 Terrasse 1.70 0.53 99.90
35981 2020-12-10 04:28:04 Terrasse 1.80 0.64 99.90
35980 2020-12-10 03:59:52 Terrasse 2.10 0.97 99.90
35979 2020-12-10 03:31:42 Terrasse 2.30 1.19 99.90
35978 2020-12-10 03:03:33 Terrasse 2.50 1.41 99.90
35977 2020-12-10 02:35:23 Terrasse 2.80 1.74 99.90
35976 2020-12-10 02:07:13 Terrasse 2.80 1.74 99.90
35975 2020-12-10 01:39:02 Terrasse 2.80 1.74 99.90
35974 2020-12-10 01:10:50 Terrasse 2.80 1.74 99.90
35973 2020-12-10 00:42:39 Terrasse 2.90 1.85 99.90
35972 2020-12-10 00:14:28 Terrasse 2.90 1.85 99.90
35971 2020-12-09 23:46:17 Terrasse 3.20 2.18 99.90
35970 2020-12-09 23:18:07 Terrasse 3.30 2.29 99.90
35969 2020-12-09 22:49:55 Terrasse 3.40 2.40 99.90
35968 2020-12-09 22:21:43 Terrasse 3.30 2.29 99.90
35967 2020-12-09 21:53:30 Terrasse 3.30 2.29 99.90
35966 2020-12-09 21:25:18 Terrasse 3.40 2.40 99.90
35965 2020-12-09 20:57:06 Terrasse 3.40 2.40 99.90
35964 2020-12-09 20:28:53 Terrasse 3.40 2.40 99.90
35963 2020-12-09 20:00:43 Terrasse 3.50 2.51 99.90
35962 2020-12-09 19:32:36 Terrasse 3.50 2.51 99.90
35961 2020-12-09 19:04:23 Terrasse 3.60 2.62 99.90
35960 2020-12-09 18:36:12 Terrasse 3.60 2.62 99.90
35959 2020-12-09 18:08:01 Terrasse 3.60 2.62 99.90
35958 2020-12-09 17:39:51 Terrasse 3.70 2.73 99.90
35957 2020-12-09 17:11:39 Terrasse 3.70 2.73 99.90
35956 2020-12-09 16:43:29 Terrasse 3.80 2.84 99.90
35955 2020-12-09 16:15:17 Terrasse 3.90 2.95 99.90
35954 2020-12-09 15:47:05 Terrasse 4.00 3.06 99.90
35953 2020-12-09 15:18:54 Terrasse 4.10 3.17 99.90
35952 2020-12-09 14:50:43 Terrasse 4.20 3.28 99.90
35951 2020-12-09 14:22:32 Terrasse 4.20 3.28 99.90
35950 2020-12-09 13:54:21 Terrasse 4.30 3.39 99.90
35949 2020-12-09 13:26:11 Terrasse 4.40 3.50 99.90
35948 2020-12-09 12:58:00 Terrasse 4.50 3.61 99.90
35947 2020-12-09 12:29:49 Terrasse 4.50 3.61 99.90
35946 2020-12-09 12:01:38 Terrasse 4.70 3.83 99.90
35945 2020-12-09 11:33:24 Terrasse 4.60 3.72 99.90
35944 2020-12-09 11:05:14 Terrasse 4.80 3.94 99.90
35943 2020-12-09 10:37:06 Terrasse 5.40 4.60 99.90
35942 2020-12-09 10:08:48 Terrasse 4.30 3.39 99.90
35941 2020-12-09 09:40:31 Terrasse 3.50 2.51 99.90
35940 2020-12-09 09:12:17 Terrasse 3.00 1.96 99.90
35939 2020-12-09 08:44:04 Terrasse 2.70 1.63 99.90
35938 2020-12-09 08:15:51 Terrasse 2.70 1.63 99.90
35937 2020-12-09 07:47:40 Terrasse 2.90 1.85 99.90
35936 2020-12-09 07:19:30 Terrasse 3.00 1.96 99.90
35935 2020-12-09 06:51:20 Terrasse 3.00 1.96 99.90
35934 2020-12-09 06:23:09 Terrasse 3.00 1.96 99.90
35933 2020-12-09 05:54:58 Terrasse 3.10 2.07 99.90
35932 2020-12-09 05:26:48 Terrasse 3.20 2.18 99.90
35931 2020-12-09 04:58:46 Terrasse 3.10 2.07 99.90
35930 2020-12-09 04:30:31 Terrasse 3.20 2.18 99.90
35929 2020-12-09 04:02:20 Terrasse 3.20 2.18 99.90
35928 2020-12-09 03:34:09 Terrasse 3.10 2.07 99.90
35927 2020-12-09 03:05:57 Terrasse 3.10 2.07 99.90
35926 2020-12-09 02:37:45 Terrasse 3.00 1.96 99.90
35925 2020-12-09 02:09:33 Terrasse 2.90 1.85 99.90
35924 2020-12-09 01:41:21 Terrasse 2.80 1.74 99.90
35923 2020-12-09 01:13:08 Terrasse 2.80 1.74 99.90
35922 2020-12-09 00:44:58 Terrasse 2.80 1.74 99.90
35921 2020-12-09 00:16:46 Terrasse 2.90 1.85 99.90
35920 2020-12-08 23:48:35 Terrasse 2.90 1.85 99.90
35919 2020-12-08 23:20:23 Terrasse 3.00 1.96 99.90
35918 2020-12-08 22:52:11 Terrasse 3.10 2.07 99.90
35917 2020-12-08 22:24:04 Terrasse 3.10 2.07 99.90
35916 2020-12-08 21:55:52 Terrasse 3.20 2.18 99.90
35915 2020-12-08 21:27:42 Terrasse 3.30 2.29 99.90
35914 2020-12-08 20:59:32 Terrasse 3.50 2.51 99.90
35913 2020-12-08 20:31:22 Terrasse 3.70 2.73 99.90
35912 2020-12-08 20:03:11 Terrasse 3.80 2.84 99.90
35911 2020-12-08 19:35:01 Terrasse 4.00 3.06 99.90
35910 2020-12-08 19:06:52 Terrasse 4.30 3.39 99.90
35909 2020-12-08 18:38:41 Terrasse 4.50 3.61 99.90
35908 2020-12-08 18:10:31 Terrasse 4.80 3.94 99.90
35907 2020-12-08 17:42:18 Terrasse 4.90 4.05 99.90
35906 2020-12-08 17:14:07 Terrasse 4.90 4.05 99.90
35905 2020-12-08 16:45:57 Terrasse 5.10 4.27 99.90
35904 2020-12-08 16:17:48 Terrasse 5.40 4.60 99.90
35903 2020-12-08 15:49:40 Terrasse 6.00 5.26 99.90
35902 2020-12-08 15:21:33 Terrasse 6.70 6.03 99.90
35901 2020-12-08 14:53:32 Terrasse 8.00 7.46 99.90
35900 2020-12-08 14:25:35 Terrasse 9.90 9.29 89.70
35899 2020-12-08 13:57:51 Terrasse 11.50 10.50 68.80
35898 2020-12-08 13:29:05 Terrasse 11.00 10.43 87.30
35897 2020-12-08 13:00:56 Terrasse 11.50 10.72 77.20
35896 2020-12-08 12:32:36 Terrasse 6.80 6.14 99.90
35895 2020-12-08 12:04:20 Terrasse 6.00 5.26 99.90
35894 2020-12-08 11:36:09 Terrasse 6.10 5.37 99.90
35893 2020-12-08 11:07:54 Terrasse 5.40 4.60 99.90
35892 2020-12-08 10:39:40 Terrasse 5.10 4.27 99.90
35891 2020-12-08 10:11:25 Terrasse 4.40 3.50 99.90
35890 2020-12-08 09:43:10 Terrasse 4.10 3.17 99.90
35889 2020-12-08 09:14:55 Terrasse 3.50 2.51 99.90
35888 2020-12-08 08:46:42 Terrasse 3.30 2.29 99.90
35887 2020-12-08 08:18:32 Terrasse 3.20 2.18 99.90
35886 2020-12-08 07:50:21 Terrasse 3.20 2.18 99.90
35885 2020-12-08 07:22:12 Terrasse 3.20 2.18 99.90
35884 2020-12-08 06:54:00 Terrasse 3.20 2.18 99.90
35883 2020-12-08 06:25:50 Terrasse 3.10 2.07 99.90
35882 2020-12-08 05:57:39 Terrasse 3.10 2.07 99.90
35881 2020-12-08 05:29:27 Terrasse 3.10 2.07 99.90
35880 2020-12-08 05:01:16 Terrasse 3.20 2.18 99.90
35879 2020-12-08 04:33:05 Terrasse 3.10 2.07 99.90
35878 2020-12-08 04:04:54 Terrasse 3.10 2.07 99.90
35877 2020-12-08 03:36:43 Terrasse 3.10 2.07 99.90
35876 2020-12-08 03:08:31 Terrasse 3.20 2.18 99.90
35875 2020-12-08 02:40:20 Terrasse 3.40 2.40 99.90
35874 2020-12-08 02:12:09 Terrasse 3.60 2.62 99.90
35873 2020-12-08 01:43:59 Terrasse 3.90 2.95 99.90
35872 2020-12-08 01:15:49 Terrasse 3.90 2.95 99.90
35871 2020-12-08 00:47:38 Terrasse 4.00 3.06 99.90
35870 2020-12-08 00:19:28 Terrasse 4.40 3.50 99.90
35869 2020-12-07 23:51:17 Terrasse 4.50 3.61 99.90
35868 2020-12-07 23:23:06 Terrasse 4.50 3.61 99.90
35867 2020-12-07 22:54:54 Terrasse 4.50 3.61 99.90
35866 2020-12-07 22:26:42 Terrasse 4.60 3.72 99.90
35865 2020-12-07 21:58:31 Terrasse 4.60 3.72 99.90
35864 2020-12-07 21:30:20 Terrasse 4.60 3.72 99.90
35863 2020-12-07 21:02:09 Terrasse 4.60 3.72 99.90
35862 2020-12-07 20:33:57 Terrasse 4.60 3.72 99.90
35861 2020-12-07 20:05:45 Terrasse 4.60 3.72 99.90
35860 2020-12-07 19:37:35 Terrasse 4.50 3.61 99.90
35859 2020-12-07 19:09:23 Terrasse 4.50 3.61 99.90
35858 2020-12-07 18:41:11 Terrasse 4.40 3.50 99.90
35857 2020-12-07 18:13:00 Terrasse 4.50 3.61 99.90
35856 2020-12-07 17:44:53 Terrasse 4.50 3.61 99.90
35855 2020-12-07 17:16:50 Terrasse 4.50 3.61 99.90
35854 2020-12-07 16:48:34 Terrasse 4.50 3.61 99.90
35853 2020-12-07 16:20:24 Terrasse 4.60 3.72 99.90
35852 2020-12-07 15:52:14 Terrasse 4.70 3.83 99.90
35851 2020-12-07 15:24:05 Terrasse 4.90 4.05 99.90
35850 2020-12-07 14:55:54 Terrasse 5.10 4.27 99.90
35849 2020-12-07 14:27:41 Terrasse 5.20 4.38 99.90
35848 2020-12-07 13:59:29 Terrasse 4.80 3.94 99.90
35847 2020-12-07 13:31:19 Terrasse 4.90 4.05 99.90
35846 2020-12-07 13:03:07 Terrasse 4.90 4.05 99.90
35845 2020-12-07 12:34:55 Terrasse 4.90 4.05 99.90
35844 2020-12-07 12:06:42 Terrasse 4.80 3.94 99.90
35843 2020-12-07 11:38:27 Terrasse 4.60 3.72 99.90
35842 2020-12-07 11:10:15 Terrasse 4.40 3.50 99.90
35841 2020-12-07 10:42:03 Terrasse 4.30 3.39 99.90
35840 2020-12-07 10:13:52 Terrasse 4.30 3.39 99.90
35839 2020-12-07 09:45:40 Terrasse 4.20 3.28 99.90
35838 2020-12-07 09:17:29 Terrasse 4.10 3.17 99.90
35837 2020-12-07 08:49:16 Terrasse 4.00 3.06 99.90
35836 2020-12-07 08:21:04 Terrasse 3.90 2.95 99.90
35835 2020-12-07 07:52:54 Terrasse 3.90 2.95 99.90
35834 2020-12-07 07:24:42 Terrasse 3.90 2.95 99.90
35833 2020-12-07 06:56:32 Terrasse 3.90 2.95 99.90
35832 2020-12-07 06:28:20 Terrasse 3.80 2.84 99.90
35831 2020-12-07 06:00:09 Terrasse 3.80 2.84 99.90
35830 2020-12-07 05:31:57 Terrasse 3.70 2.73 99.90
35829 2020-12-07 05:03:46 Terrasse 3.70 2.73 99.90
35828 2020-12-07 04:35:35 Terrasse 3.70 2.73 99.90
35827 2020-12-07 04:07:23 Terrasse 3.70 2.73 99.90
35826 2020-12-07 03:39:12 Terrasse 3.60 2.62 99.90
35825 2020-12-07 03:11:01 Terrasse 3.60 2.62 99.90
35824 2020-12-07 02:42:49 Terrasse 3.70 2.73 99.90
35823 2020-12-07 02:14:37 Terrasse 3.70 2.73 99.90
35822 2020-12-07 01:46:26 Terrasse 3.70 2.73 99.90
35821 2020-12-07 01:18:15 Terrasse 3.90 2.95 99.90
35820 2020-12-07 00:50:12 Terrasse 3.90 2.95 99.90
35819 2020-12-07 00:21:57 Terrasse 4.00 3.06 99.90
35818 2020-12-06 23:53:47 Terrasse 4.10 3.17 99.90
35817 2020-12-06 23:25:37 Terrasse 4.10 3.17 99.90
35816 2020-12-06 22:57:27 Terrasse 4.10 3.17 99.90
35815 2020-12-06 22:29:14 Terrasse 4.20 3.28 99.90
35814 2020-12-06 22:01:05 Terrasse 4.30 3.39 99.90
35813 2020-12-06 21:32:54 Terrasse 4.40 3.50 99.90
35812 2020-12-06 21:04:46 Terrasse 4.40 3.50 99.90
35811 2020-12-06 20:36:34 Terrasse 4.40 3.50 99.90
35810 2020-12-06 20:08:22 Terrasse 4.30 3.39 99.90
35809 2020-12-06 19:40:11 Terrasse 4.30 3.39 99.90
35808 2020-12-06 19:11:59 Terrasse 4.20 3.28 99.90
35807 2020-12-06 18:43:49 Terrasse 4.30 3.39 99.90
35806 2020-12-06 18:15:39 Terrasse 4.40 3.50 99.90
35805 2020-12-06 17:47:29 Terrasse 4.40 3.50 99.90
35804 2020-12-06 17:19:18 Terrasse 4.50 3.61 99.90
35803 2020-12-06 16:51:07 Terrasse 4.50 3.61 99.90
35802 2020-12-06 16:22:55 Terrasse 4.50 3.61 99.90
35801 2020-12-06 15:54:44 Terrasse 4.40 3.50 99.90
35800 2020-12-06 15:26:36 Terrasse 4.40 3.50 99.90
35799 2020-12-06 14:58:25 Terrasse 4.40 3.50 99.90
35798 2020-12-06 14:30:13 Terrasse 4.40 3.50 99.90
35797 2020-12-06 14:02:02 Terrasse 4.40 3.50 99.90
35796 2020-12-06 13:33:50 Terrasse 4.40 3.50 99.90
35795 2020-12-06 13:05:38 Terrasse 4.40 3.50 99.90
35794 2020-12-06 12:37:25 Terrasse 4.30 3.39 99.90
35793 2020-12-06 12:09:14 Terrasse 4.30 3.39 99.90
35792 2020-12-06 11:41:03 Terrasse 4.20 3.28 99.90
35791 2020-12-06 11:12:51 Terrasse 4.00 3.06 99.90
35790 2020-12-06 10:44:39 Terrasse 4.00 3.06 99.90
35789 2020-12-06 10:16:27 Terrasse 4.00 3.06 99.90
35788 2020-12-06 09:48:14 Terrasse 4.00 3.06 99.90
35787 2020-12-06 09:20:04 Terrasse 4.00 3.06 99.90
35786 2020-12-06 08:51:52 Terrasse 3.90 2.95 99.90
35785 2020-12-06 08:23:41 Terrasse 4.00 3.06 99.90
35784 2020-12-06 07:55:32 Terrasse 3.90 2.95 99.90
35783 2020-12-06 07:27:20 Terrasse 3.90 2.95 99.90
35782 2020-12-06 06:59:09 Terrasse 3.90 2.95 99.90
35781 2020-12-06 06:30:58 Terrasse 3.90 2.95 99.90
35780 2020-12-06 06:02:47 Terrasse 3.90 2.95 99.90
35779 2020-12-06 05:34:35 Terrasse 3.90 2.95 99.90
35778 2020-12-06 05:06:24 Terrasse 4.10 3.17 99.90
35777 2020-12-06 04:38:14 Terrasse 4.10 3.17 99.90
35776 2020-12-06 04:10:03 Terrasse 4.20 3.28 99.90
35775 2020-12-06 03:41:51 Terrasse 4.10 3.17 99.90
35774 2020-12-06 03:13:39 Terrasse 3.90 2.95 99.90
35773 2020-12-06 02:45:26 Terrasse 3.90 2.95 99.90
35772 2020-12-06 02:17:15 Terrasse 3.90 2.95 99.90
35771 2020-12-06 01:49:04 Terrasse 4.00 3.06 99.90
35770 2020-12-06 01:20:52 Terrasse 3.90 2.95 99.90
35769 2020-12-06 00:52:40 Terrasse 3.80 2.84 99.90
35768 2020-12-06 00:24:29 Terrasse 3.60 2.62 99.90
35767 2020-12-05 23:56:18 Terrasse 3.50 2.51 99.90
35766 2020-12-05 23:28:07 Terrasse 3.50 2.51 99.90
35765 2020-12-05 22:59:56 Terrasse 3.20 2.18 99.90
35764 2020-12-05 22:31:47 Terrasse 3.30 2.29 99.90
35763 2020-12-05 22:03:36 Terrasse 3.40 2.40 99.90
35762 2020-12-05 21:35:26 Terrasse 3.40 2.40 99.90
35761 2020-12-05 21:07:15 Terrasse 3.40 2.40 99.90
35760 2020-12-05 20:39:03 Terrasse 3.50 2.51 99.90
35759 2020-12-05 20:10:52 Terrasse 3.60 2.62 99.90
35758 2020-12-05 19:42:42 Terrasse 3.60 2.62 99.90
35757 2020-12-05 19:14:31 Terrasse 3.70 2.73 99.90
35756 2020-12-05 18:46:22 Terrasse 3.80 2.84 99.90
35755 2020-12-05 18:18:00 Terrasse 3.80 2.84 99.90
35754 2020-12-05 17:49:35 Terrasse 3.90 2.95 99.90
35753 2020-12-05 17:21:24 Terrasse 4.10 3.17 99.90
35752 2020-12-05 16:53:13 Terrasse 4.10 3.17 99.90
35751 2020-12-05 16:25:02 Terrasse 4.20 3.28 99.90
35750 2020-12-05 15:56:51 Terrasse 4.30 3.39 99.90
35749 2020-12-05 15:28:40 Terrasse 4.50 3.61 99.90
35748 2020-12-05 15:00:32 Terrasse 4.80 3.94 99.90
35747 2020-12-05 14:32:18 Terrasse 4.60 3.72 99.90
35746 2020-12-05 14:04:09 Terrasse 4.60 3.72 99.90
35745 2020-12-05 13:35:55 Terrasse 4.40 3.50 99.90
35744 2020-12-05 13:07:42 Terrasse 4.40 3.50 99.90
35743 2020-12-05 12:39:30 Terrasse 4.00 3.06 99.90
35742 2020-12-05 12:11:18 Terrasse 3.70 2.73 99.90
35741 2020-12-05 11:43:06 Terrasse 3.50 2.51 99.90
35740 2020-12-05 11:14:54 Terrasse 3.30 2.29 99.90
35739 2020-12-05 10:46:43 Terrasse 3.20 2.18 99.90
35738 2020-12-05 10:18:31 Terrasse 3.00 1.96 99.90
35737 2020-12-05 09:50:28 Terrasse 2.70 1.63 99.90
35736 2020-12-05 09:22:13 Terrasse 2.60 1.52 99.90
35735 2020-12-05 08:54:02 Terrasse 2.60 1.52 99.90
35734 2020-12-05 08:25:51 Terrasse 2.50 1.41 99.90
35733 2020-12-05 07:57:42 Terrasse 2.50 1.41 99.90
35732 2020-12-05 07:29:31 Terrasse 2.40 1.30 99.90
35731 2020-12-05 07:01:22 Terrasse 2.30 1.19 99.90
35730 2020-12-05 06:33:12 Terrasse 2.40 1.30 99.90
35729 2020-12-05 06:05:03 Terrasse 2.50 1.41 99.90
35728 2020-12-05 05:36:52 Terrasse 2.40 1.30 99.90
35727 2020-12-05 05:08:40 Terrasse 2.40 1.30 99.90
35726 2020-12-05 04:40:31 Terrasse 2.50 1.41 99.90
35725 2020-12-05 04:12:21 Terrasse 2.50 1.41 99.90
35724 2020-12-05 03:44:12 Terrasse 2.60 1.52 99.90
35723 2020-12-05 03:16:02 Terrasse 2.90 1.85 99.90
35722 2020-12-05 02:47:50 Terrasse 3.00 1.96 99.90
35721 2020-12-05 02:19:39 Terrasse 3.10 2.07 99.90
35720 2020-12-05 01:51:29 Terrasse 3.20 2.18 99.90
35719 2020-12-05 01:23:18 Terrasse 3.20 2.18 99.90
35718 2020-12-05 00:55:06 Terrasse 3.30 2.29 99.90
35717 2020-12-05 00:26:58 Terrasse 3.30 2.29 99.90
35716 2020-12-04 23:58:48 Terrasse 3.40 2.40 99.90
35715 2020-12-04 23:30:38 Terrasse 3.40 2.40 99.90
35714 2020-12-04 23:02:28 Terrasse 3.40 2.40 99.90
35713 2020-12-04 22:34:19 Terrasse 3.40 2.40 99.90
35712 2020-12-04 22:06:09 Terrasse 3.40 2.40 99.90
35711 2020-12-04 21:37:57 Terrasse 3.30 2.29 99.90
35710 2020-12-04 21:09:47 Terrasse 3.20 2.18 99.90
35709 2020-12-04 20:41:35 Terrasse 3.20 2.18 99.90
35708 2020-12-04 20:13:26 Terrasse 3.30 2.29 99.90
35707 2020-12-04 19:45:15 Terrasse 3.30 2.29 99.90
35706 2020-12-04 19:17:05 Terrasse 3.40 2.40 99.90
35705 2020-12-04 18:48:55 Terrasse 3.60 2.62 99.90
35704 2020-12-04 18:20:44 Terrasse 3.80 2.84 99.90
35703 2020-12-04 17:52:34 Terrasse 4.00 3.06 99.90
35702 2020-12-04 17:24:27 Terrasse 4.40 3.50 99.90
35701 2020-12-04 16:56:14 Terrasse 4.50 3.61 99.90
35700 2020-12-04 16:28:04 Terrasse 4.70 3.83 99.90
35699 2020-12-04 15:59:51 Terrasse 4.80 3.94 99.90
35698 2020-12-04 15:31:39 Terrasse 4.90 4.05 99.90
35697 2020-12-04 15:03:29 Terrasse 5.00 4.16 99.90
35696 2020-12-04 14:35:17 Terrasse 5.00 4.16 99.90
35695 2020-12-04 14:07:05 Terrasse 4.90 4.05 99.90
35694 2020-12-04 13:38:53 Terrasse 4.80 3.94 99.90
35693 2020-12-04 13:10:41 Terrasse 4.60 3.72 99.90
35692 2020-12-04 12:42:31 Terrasse 4.50 3.61 99.90
35691 2020-12-04 12:14:19 Terrasse 4.40 3.50 99.90
35690 2020-12-04 11:46:09 Terrasse 4.20 3.28 99.90
35689 2020-12-04 11:18:02 Terrasse 4.10 3.17 99.90
35688 2020-12-04 10:49:49 Terrasse 3.90 2.95 99.90
35687 2020-12-04 10:21:36 Terrasse 3.70 2.73 99.90
35686 2020-12-04 09:53:23 Terrasse 3.60 2.62 99.90
35685 2020-12-04 09:25:14 Terrasse 3.50 2.51 99.90
35684 2020-12-04 08:57:04 Terrasse 3.50 2.51 99.90
35683 2020-12-04 08:28:53 Terrasse 3.40 2.40 99.90
35682 2020-12-04 08:00:42 Terrasse 3.40 2.40 99.90
35681 2020-12-04 07:32:31 Terrasse 3.20 2.18 99.90
35680 2020-12-04 07:04:20 Terrasse 3.00 1.96 99.90
35679 2020-12-04 06:36:08 Terrasse 2.90 1.85 99.90
35678 2020-12-04 06:07:59 Terrasse 2.70 1.63 99.90
35677 2020-12-04 05:39:48 Terrasse 2.70 1.63 99.90
35676 2020-12-04 05:11:35 Terrasse 2.60 1.52 99.90
35675 2020-12-04 04:43:23 Terrasse 2.30 1.19 99.90
35674 2020-12-04 04:15:13 Terrasse 2.20 1.08 99.90
35673 2020-12-04 03:47:02 Terrasse 2.20 1.08 99.90
35672 2020-12-04 03:18:52 Terrasse 2.20 1.08 99.90
35671 2020-12-04 02:50:41 Terrasse 2.20 1.08 99.90
35670 2020-12-04 02:22:32 Terrasse 2.20 1.08 99.90
35669 2020-12-04 01:54:22 Terrasse 2.30 1.19 99.90
35668 2020-12-04 01:26:11 Terrasse 2.40 1.30 99.90
35667 2020-12-04 00:57:59 Terrasse 2.40 1.30 99.90
35666 2020-12-04 00:29:49 Terrasse 2.40 1.30 99.90
35665 2020-12-04 00:01:40 Terrasse 2.40 1.30 99.90
35664 2020-12-03 23:33:31 Terrasse 2.40 1.30 99.90
35663 2020-12-03 23:05:21 Terrasse 2.40 1.30 99.90
35662 2020-12-03 22:37:11 Terrasse 2.50 1.41 99.90
35661 2020-12-03 22:09:04 Terrasse 2.40 1.30 99.90
35660 2020-12-03 21:40:53 Terrasse 2.40 1.30 99.90
35659 2020-12-03 21:12:45 Terrasse 2.50 1.41 99.90
35658 2020-12-03 20:44:35 Terrasse 2.40 1.30 99.90
35657 2020-12-03 20:16:24 Terrasse 2.40 1.30 99.90
35656 2020-12-03 19:48:14 Terrasse 2.40 1.30 99.90
35655 2020-12-03 19:20:04 Terrasse 2.40 1.30 99.90
35654 2020-12-03 18:51:55 Terrasse 2.40 1.30 99.90
35653 2020-12-03 17:27:58 Terrasse 2.60 1.52 99.90
35652 2020-12-03 17:00:27 Terrasse 2.50 1.41 99.90
35651 2020-12-03 16:32:24 Terrasse 2.50 1.41 99.90
35650 2020-12-03 16:04:46 Terrasse 2.50 1.41 99.90
35649 2020-12-03 15:36:52 Terrasse 2.50 1.41 99.90
35648 2020-12-03 15:08:17 Terrasse 2.40 1.30 99.90
35647 2020-12-03 14:40:51 Terrasse 2.40 1.30 99.90
35646 2020-12-03 14:13:08 Terrasse 2.20 1.08 99.90
35645 2020-12-03 13:45:14 Terrasse 2.10 0.97 99.90
35644 2020-12-03 12:47:36 Terrasse 1.80 0.64 99.90
35643 2020-12-03 12:19:27 Terrasse 1.80 0.64 99.90
35642 2020-12-03 11:51:25 Terrasse 1.60 0.42 99.90
35641 2020-12-03 11:23:19 Terrasse 1.50 0.31 99.90
35640 2020-12-03 10:55:31 Terrasse 1.50 0.31 99.90
35639 2020-12-03 10:26:03 Terrasse 1.40 0.20 99.90
35638 2020-12-03 09:57:56 Terrasse 1.40 0.20 99.90
35637 2020-12-03 09:30:24 Terrasse 1.40 0.20 99.90
35636 2020-12-03 08:29:49 Terrasse 1.30 0.09 99.90
35635 2020-12-03 07:26:53 Terrasse 1.20 -0.02 99.90
35634 2020-12-03 06:58:43 Terrasse 1.30 0.09 99.90
35633 2020-12-03 06:30:26 Terrasse 1.30 0.09 99.90
35632 2020-12-03 01:17:59 Terrasse 1.40 0.20 99.90
35631 2020-12-03 00:49:11 Terrasse 1.50 0.31 99.90
35630 2020-12-03 00:21:09 Terrasse 1.60 0.42 99.90
35629 2020-12-02 23:53:00 Terrasse 1.60 0.42 99.90
35628 2020-12-02 23:24:54 Terrasse 1.70 0.53 99.90
35627 2020-12-02 22:56:45 Terrasse 1.70 0.53 99.90
35626 2020-12-02 22:28:38 Terrasse 1.90 0.75 99.90
35625 2020-12-02 22:00:29 Terrasse 1.90 0.75 99.90
35624 2020-12-02 21:32:20 Terrasse 2.00 0.86 99.90
35623 2020-12-02 21:04:10 Terrasse 1.90 0.75 99.90
35622 2020-12-02 20:36:01 Terrasse 1.90 0.75 99.90
35621 2020-12-02 20:07:54 Terrasse 2.00 0.86 99.90
35620 2020-12-02 19:39:46 Terrasse 2.10 0.97 99.90
35619 2020-12-02 19:11:38 Terrasse 2.10 0.97 99.90
35618 2020-12-02 18:43:21 Terrasse 2.10 0.97 99.90
35617 2020-12-02 18:15:00 Terrasse 2.20 1.08 99.90
35616 2020-12-02 17:46:51 Terrasse 2.30 1.19 99.90
35615 2020-12-02 17:18:42 Terrasse 2.20 1.08 99.90
35614 2020-12-02 16:50:33 Terrasse 2.40 1.30 99.90
35613 2020-12-02 16:22:26 Terrasse 2.50 1.41 99.90
35612 2020-12-02 15:54:16 Terrasse 2.50 1.41 99.90
35611 2020-12-02 15:26:07 Terrasse 2.60 1.52 99.90
35610 2020-12-02 14:57:58 Terrasse 2.60 1.52 99.90
35609 2020-12-02 14:29:49 Terrasse 2.70 1.63 99.90
35608 2020-12-02 14:01:40 Terrasse 2.70 1.63 99.90
35607 2020-12-02 13:33:30 Terrasse 2.90 1.85 99.90
35606 2020-12-02 13:05:21 Terrasse 2.80 1.74 99.90
35605 2020-12-02 12:37:12 Terrasse 2.80 1.74 99.90
35604 2020-12-02 12:09:02 Terrasse 2.80 1.74 99.90
35603 2020-12-02 11:40:52 Terrasse 2.80 1.74 99.90
35602 2020-12-02 11:12:41 Terrasse 2.60 1.52 99.90
35601 2020-12-02 10:44:30 Terrasse 2.50 1.41 99.90
35600 2020-12-02 10:16:20 Terrasse 2.30 1.19 99.90
35599 2020-12-02 09:48:10 Terrasse 2.30 1.19 99.90
35598 2020-12-02 09:20:00 Terrasse 2.30 1.19 99.90
35597 2020-12-02 08:51:51 Terrasse 2.20 1.08 99.90
35596 2020-12-02 08:23:43 Terrasse 2.30 1.19 99.90
35595 2020-12-02 07:55:36 Terrasse 2.30 1.19 99.90
35594 2020-12-02 07:27:29 Terrasse 2.50 1.41 99.90
35593 2020-12-02 06:31:19 Terrasse 2.50 1.41 99.90
35592 2020-12-02 06:03:08 Terrasse 2.50 1.41 99.90
35591 2020-12-02 05:34:59 Terrasse 2.60 1.52 99.90
35590 2020-12-02 05:06:51 Terrasse 2.60 1.52 99.90
35589 2020-12-02 04:38:41 Terrasse 2.60 1.52 99.90
35588 2020-12-02 04:10:34 Terrasse 2.60 1.52 99.90
35587 2020-12-02 03:42:24 Terrasse 2.60 1.52 99.90
35586 2020-12-02 03:14:15 Terrasse 2.60 1.52 99.90
35585 2020-12-02 02:46:05 Terrasse 2.50 1.41 99.90
35584 2020-12-02 02:17:55 Terrasse 2.50 1.41 99.90
35583 2020-12-02 01:49:52 Terrasse 2.40 1.30 99.90
35582 2020-12-02 01:21:14 Terrasse 2.50 1.41 99.90
35581 2020-12-02 00:53:04 Terrasse 2.50 1.41 99.90
35580 2020-12-02 00:24:54 Terrasse 2.60 1.52 99.90
35579 2020-12-01 23:57:14 Terrasse 2.50 1.41 99.90
35578 2020-12-01 23:29:26 Terrasse 2.50 1.41 99.90
35577 2020-12-01 23:01:33 Terrasse 2.60 1.52 99.90
35576 2020-12-01 22:34:03 Terrasse 2.50 1.41 99.90
35575 2020-12-01 22:06:11 Terrasse 2.50 1.41 99.90
35574 2020-12-01 20:42:15 Terrasse 2.40 1.30 99.90
35573 2020-12-01 19:46:04 Terrasse 2.40 1.30 99.90
35572 2020-12-01 19:18:06 Terrasse 2.40 1.30 99.90
35571 2020-12-01 18:48:57 Terrasse 2.40 1.30 99.90
35570 2020-12-01 18:21:25 Terrasse 2.40 1.30 99.90
35569 2020-12-01 17:53:17 Terrasse 2.30 1.19 99.90
35568 2020-12-01 17:25:46 Terrasse 2.40 1.30 99.90
35567 2020-12-01 15:58:48 Terrasse 2.40 1.30 99.90
35566 2020-12-01 15:02:31 Terrasse 2.50 1.41 99.90
35565 2020-12-01 14:34:28 Terrasse 2.50 1.41 99.90
35564 2020-12-01 12:08:32 Terrasse 2.40 1.30 99.90
35563 2020-12-01 09:22:54 Terrasse 1.50 0.31 99.90
35562 2020-12-01 06:51:10 Terrasse 1.10 -0.13 99.90
35561 2020-12-01 06:23:00 Terrasse 1.10 -0.13 99.90
35560 2020-12-01 05:55:31 Terrasse 1.10 -0.13 99.90
35559 2020-12-01 05:27:01 Terrasse 1.00 -0.24 99.90
35558 2020-12-01 04:59:02 Terrasse 1.20 -0.02 99.90
35557 2020-12-01 03:59:31 Terrasse 1.00 -0.24 99.90
35556 2020-12-01 03:31:13 Terrasse 0.90 -0.35 99.90
35555 2020-12-01 03:02:40 Terrasse 0.90 -0.35 99.90
35554 2020-12-01 02:35:24 Terrasse 0.90 -0.35 99.90
35553 2020-12-01 02:07:04 Terrasse 0.80 -0.46 99.90
35552 2020-12-01 01:38:34 Terrasse 0.90 -0.35 99.90
35551 2020-12-01 01:10:26 Terrasse 1.00 -0.24 99.90
35550 2020-12-01 00:42:25 Terrasse 0.90 -0.35 99.90
35549 2020-12-01 00:14:25 Terrasse 1.00 -0.24 99.90
35548 2020-11-30 23:45:54 Terrasse 0.90 -0.35 99.90
35547 2020-11-30 23:17:44 Terrasse 1.00 -0.24 99.90
35546 2020-11-30 22:49:35 Terrasse 1.10 -0.13 99.90
35545 2020-11-30 22:21:25 Terrasse 1.20 -0.02 99.90
35544 2020-11-30 21:53:21 Terrasse 1.20 -0.02 99.90
35543 2020-11-30 21:25:13 Terrasse 1.50 0.31 99.90
35542 2020-11-30 20:57:04 Terrasse 1.70 0.53 99.90
35541 2020-11-30 20:28:55 Terrasse 1.70 0.53 99.90
35540 2020-11-30 20:00:46 Terrasse 1.90 0.75 99.90
35539 2020-11-30 19:32:36 Terrasse 1.90 0.75 99.90
35538 2020-11-30 19:04:28 Terrasse 2.00 0.86 99.90
35537 2020-11-30 18:36:18 Terrasse 2.10 0.97 99.90
35536 2020-11-30 18:08:10 Terrasse 2.10 0.97 99.90
35535 2020-11-30 17:40:01 Terrasse 2.20 1.08 99.90
35534 2020-11-30 17:11:58 Terrasse 2.40 1.30 99.90
35533 2020-11-30 16:43:41 Terrasse 2.80 1.74 99.90
35532 2020-11-30 16:15:46 Terrasse 3.30 2.29 99.90
35531 2020-11-30 15:47:47 Terrasse 4.10 2.95 91.40
35530 2020-11-30 15:19:44 Terrasse 5.00 3.25 64.90
35529 2020-11-30 14:51:40 Terrasse 7.10 5.41 59.00
35528 2020-11-30 14:24:03 Terrasse 10.10 8.52 52.00
35527 2020-11-30 13:56:01 Terrasse 13.50 12.17 48.30
35526 2020-11-30 12:57:30 Terrasse 5.80 4.45 77.20
35525 2020-11-30 12:29:38 Terrasse 4.00 3.02 98.40
35524 2020-11-30 12:01:29 Terrasse 3.30 2.29 99.90
35523 2020-11-30 11:33:19 Terrasse 2.90 1.85 99.90
35522 2020-11-30 11:04:49 Terrasse 2.30 1.19 99.90
35521 2020-11-30 10:36:31 Terrasse 1.30 0.09 99.90
35520 2020-11-30 10:08:19 Terrasse 0.40 -0.90 99.90
35519 2020-11-30 09:40:06 Terrasse -0.20 -1.56 99.90
35518 2020-11-30 09:11:51 Terrasse -0.80 -2.22 99.90
35517 2020-11-30 08:43:42 Terrasse -0.90 -2.33 99.90
35516 2020-11-30 08:15:34 Terrasse -1.10 -2.55 99.90
35515 2020-11-30 07:47:26 Terrasse -1.00 -2.44 99.90
35514 2020-11-30 07:19:20 Terrasse -0.90 -2.33 99.90
35513 2020-11-30 06:51:11 Terrasse -0.90 -2.33 99.90
35512 2020-11-30 06:23:04 Terrasse -0.80 -2.22 99.90
35511 2020-11-30 05:54:57 Terrasse -0.80 -2.22 99.90
35510 2020-11-30 05:26:50 Terrasse -0.60 -2.00 99.90
35509 2020-11-30 04:58:40 Terrasse -0.40 -1.78 99.90
35508 2020-11-30 04:30:44 Terrasse -0.40 -1.78 99.90
35507 2020-11-30 04:02:33 Terrasse -0.30 -1.67 99.90
35506 2020-11-30 03:34:24 Terrasse -0.20 -1.56 99.90
35505 2020-11-30 03:06:15 Terrasse -0.20 -1.56 99.90
35504 2020-11-30 02:38:07 Terrasse -0.20 -1.56 99.90
35503 2020-11-30 02:09:59 Terrasse 0.00 -1.34 99.90
35502 2020-11-30 01:41:50 Terrasse 0.30 -1.01 99.90
35501 2020-11-30 01:13:39 Terrasse 0.30 -1.01 99.90
35500 2020-11-30 00:45:32 Terrasse 0.30 -1.01 99.90
35499 2020-11-30 00:17:25 Terrasse 0.50 -0.79 99.90
35498 2020-11-29 23:49:16 Terrasse 0.50 -0.79 99.90
35497 2020-11-29 23:21:08 Terrasse 0.60 -0.68 99.90
35496 2020-11-29 22:53:11 Terrasse 0.80 -0.46 99.90
35495 2020-11-29 22:25:00 Terrasse 1.00 -0.24 99.90
35494 2020-11-29 21:56:51 Terrasse 1.00 -0.24 99.90
35493 2020-11-29 21:28:43 Terrasse 1.10 -0.13 99.90
35492 2020-11-29 21:00:36 Terrasse 1.30 0.09 99.90
35491 2020-11-29 20:32:27 Terrasse 1.50 0.31 99.90
35490 2020-11-29 20:04:19 Terrasse 1.40 0.20 99.90
35489 2020-11-29 19:36:10 Terrasse 1.40 0.20 99.90
35488 2020-11-29 19:08:02 Terrasse 1.60 0.42 99.90
35487 2020-11-29 18:39:54 Terrasse 1.70 0.53 99.90
35486 2020-11-29 18:11:47 Terrasse 1.90 0.75 99.90
35485 2020-11-29 17:43:39 Terrasse 2.10 0.97 99.90
35484 2020-11-29 17:15:33 Terrasse 2.50 1.29 95.10
35483 2020-11-29 16:47:31 Terrasse 3.10 1.41 74.40
35482 2020-11-29 16:19:28 Terrasse 4.10 2.26 64.90
35481 2020-11-29 15:51:31 Terrasse 5.50 3.68 60.30
35480 2020-11-29 15:23:59 Terrasse 11.50 9.98 49.00
35479 2020-11-29 14:55:11 Terrasse 8.00 6.34 57.00
35478 2020-11-29 14:27:08 Terrasse 7.00 5.28 58.20
35477 2020-11-29 13:59:12 Terrasse 10.10 8.54 52.70
35476 2020-11-29 13:30:34 Terrasse 6.90 5.28 62.60
35475 2020-11-29 13:02:06 Terrasse 3.10 1.82 90.10
35474 2020-11-29 12:33:58 Terrasse 3.00 1.79 93.10
35473 2020-11-29 12:05:49 Terrasse 2.80 1.55 92.60
35472 2020-11-29 11:37:39 Terrasse 2.70 1.58 98.00
35471 2020-11-29 11:09:28 Terrasse 2.40 1.28 98.90
35470 2020-11-29 10:41:19 Terrasse 2.20 1.04 98.40
35469 2020-11-29 10:13:12 Terrasse 2.20 1.08 99.90
35468 2020-11-29 09:45:03 Terrasse 2.20 1.08 99.90
35467 2020-11-29 09:16:54 Terrasse 2.10 0.97 99.90
35466 2020-11-29 08:48:46 Terrasse 2.00 0.86 99.90
35465 2020-11-29 08:20:38 Terrasse 2.00 0.86 99.90
35464 2020-11-29 07:52:30 Terrasse 1.90 0.75 99.90
35463 2020-11-29 07:24:22 Terrasse 1.90 0.75 99.90
35462 2020-11-29 06:56:15 Terrasse 1.90 0.75 99.90
35461 2020-11-29 06:28:06 Terrasse 2.10 0.97 99.90
35460 2020-11-29 05:59:46 Terrasse 2.20 1.08 99.90
35459 2020-11-29 05:31:38 Terrasse 2.30 1.19 99.90
35458 2020-11-29 05:03:30 Terrasse 2.40 1.30 99.90
35457 2020-11-29 04:35:21 Terrasse 2.50 1.41 99.90
35456 2020-11-29 04:07:13 Terrasse 2.60 1.52 99.90
35455 2020-11-29 03:39:05 Terrasse 2.70 1.63 99.90
35454 2020-11-29 03:10:59 Terrasse 2.80 1.74 99.90
35453 2020-11-29 02:42:51 Terrasse 2.90 1.85 99.90
35452 2020-11-29 02:14:41 Terrasse 3.00 1.96 99.90
35451 2020-11-29 01:46:34 Terrasse 3.20 2.18 99.90
35450 2020-11-29 01:18:26 Terrasse 3.30 2.29 99.90
35449 2020-11-29 00:50:18 Terrasse 3.50 2.51 99.90
35448 2020-11-29 00:22:11 Terrasse 3.50 2.51 99.90
35447 2020-11-28 23:54:02 Terrasse 3.70 2.73 99.90
35446 2020-11-28 23:25:52 Terrasse 3.60 2.62 99.90
35445 2020-11-28 22:57:45 Terrasse 3.60 2.62 99.90
35444 2020-11-28 22:29:37 Terrasse 3.60 2.62 99.90
35443 2020-11-28 22:01:29 Terrasse 3.50 2.51 99.90
35442 2020-11-28 21:33:23 Terrasse 3.10 2.07 99.90
35441 2020-11-28 21:05:17 Terrasse 3.90 2.95 99.90
35440 2020-11-28 20:37:12 Terrasse 3.90 2.95 99.90
35439 2020-11-28 20:09:08 Terrasse 4.60 3.72 99.90
35438 2020-11-28 19:41:01 Terrasse 5.30 4.49 99.90
35437 2020-11-28 19:12:54 Terrasse 5.30 4.49 99.90
35436 2020-11-28 18:44:48 Terrasse 5.60 4.82 99.90
35435 2020-11-28 18:16:34 Terrasse 4.90 4.05 99.90
35434 2020-11-28 17:48:28 Terrasse 5.40 4.60 99.90
35433 2020-11-28 17:20:23 Terrasse 6.10 5.37 99.90
35432 2020-11-28 16:52:19 Terrasse 6.90 6.25 99.90
35431 2020-11-28 16:24:16 Terrasse 7.90 7.01 86.70
35430 2020-11-28 15:56:11 Terrasse 9.00 7.68 66.20
35429 2020-11-28 15:28:11 Terrasse 11.00 9.68 58.40
35428 2020-11-28 15:00:09 Terrasse 14.70 13.60 52.50
35427 2020-11-28 14:32:01 Terrasse 16.60 15.63 50.30
35426 2020-11-28 14:03:52 Terrasse 17.90 17.05 49.90
35425 2020-11-28 13:35:35 Terrasse 13.40 12.27 56.30
35424 2020-11-28 13:07:52 Terrasse 19.80 19.03 45.90
35423 2020-11-28 12:39:47 Terrasse 20.50 19.85 47.60
35422 2020-11-28 12:11:12 Terrasse 17.30 16.44 51.80
35421 2020-11-28 11:42:45 Terrasse 11.00 9.79 62.50
35420 2020-11-28 11:14:50 Terrasse 16.90 16.06 54.10
35419 2020-11-28 10:45:52 Terrasse 10.20 9.37 80.10
35418 2020-11-28 10:17:43 Terrasse 8.60 7.83 88.80
35417 2020-11-28 09:49:16 Terrasse 4.00 3.06 99.90
35416 2020-11-28 09:21:02 Terrasse 2.70 1.63 99.90
35415 2020-11-28 08:52:51 Terrasse 2.10 0.97 99.90
35414 2020-11-28 08:24:42 Terrasse 1.60 0.42 99.90
35413 2020-11-28 07:56:35 Terrasse 1.80 0.64 99.90
35412 2020-11-28 07:28:28 Terrasse 1.90 0.75 99.90
35411 2020-11-28 07:00:20 Terrasse 1.90 0.75 99.90
35410 2020-11-28 06:32:12 Terrasse 2.10 0.97 99.90
35409 2020-11-28 06:04:03 Terrasse 2.10 0.97 99.90
35408 2020-11-28 05:35:55 Terrasse 2.30 1.19 99.90
35407 2020-11-28 05:07:48 Terrasse 2.30 1.19 99.90
35406 2020-11-28 04:39:37 Terrasse 2.30 1.19 99.90
35405 2020-11-28 04:11:27 Terrasse 2.40 1.30 99.90
35404 2020-11-28 03:43:19 Terrasse 2.70 1.63 99.90
35403 2020-11-28 03:15:11 Terrasse 2.80 1.74 99.90
35402 2020-11-28 02:47:02 Terrasse 2.80 1.74 99.90
35401 2020-11-28 02:18:54 Terrasse 2.90 1.85 99.90
35400 2020-11-28 01:50:44 Terrasse 2.90 1.85 99.90
35399 2020-11-28 01:22:33 Terrasse 2.90 1.85 99.90
35398 2020-11-28 00:54:25 Terrasse 3.20 2.18 99.90
35397 2020-11-28 00:26:18 Terrasse 3.70 2.73 99.90
35396 2020-11-27 23:58:10 Terrasse 4.20 3.28 99.90
35395 2020-11-27 23:30:02 Terrasse 4.20 3.28 99.90
35394 2020-11-27 23:01:52 Terrasse 4.30 3.39 99.90
35393 2020-11-27 22:33:42 Terrasse 4.30 3.39 99.90
35392 2020-11-27 22:05:32 Terrasse 4.30 3.39 99.90
35391 2020-11-27 21:37:22 Terrasse 4.40 3.50 99.90
35390 2020-11-27 21:09:13 Terrasse 4.30 3.39 99.90
35389 2020-11-27 20:41:06 Terrasse 4.60 3.72 99.90
35388 2020-11-27 20:12:55 Terrasse 4.50 3.61 99.90
35387 2020-11-27 19:44:45 Terrasse 4.10 3.17 99.90
35386 2020-11-27 19:16:35 Terrasse 4.20 3.28 99.90
35385 2020-11-27 18:48:24 Terrasse 4.30 3.39 99.90
35384 2020-11-27 18:20:16 Terrasse 4.40 3.50 99.90
35383 2020-11-27 17:52:08 Terrasse 4.70 3.83 99.90
35382 2020-11-27 17:24:00 Terrasse 5.00 4.16 99.90
35381 2020-11-27 16:55:54 Terrasse 5.40 4.60 99.90
35380 2020-11-27 16:27:48 Terrasse 5.90 5.15 99.90
35379 2020-11-27 15:59:44 Terrasse 6.50 5.81 99.90
35378 2020-11-27 15:31:42 Terrasse 7.60 7.02 99.90
35377 2020-11-27 15:03:35 Terrasse 10.10 9.77 99.60
35376 2020-11-27 14:35:27 Terrasse 10.10 9.77 99.90
35375 2020-11-27 14:07:17 Terrasse 8.20 7.68 99.90
35374 2020-11-27 13:39:03 Terrasse 7.80 7.24 99.90
35373 2020-11-27 13:10:50 Terrasse 5.90 5.15 99.90
35372 2020-11-27 12:42:41 Terrasse 5.70 4.93 99.90
35371 2020-11-27 12:14:32 Terrasse 5.80 5.04 99.90
35370 2020-11-27 11:46:21 Terrasse 5.40 4.60 99.90
35369 2020-11-27 11:18:13 Terrasse 5.20 4.38 99.90
35368 2020-11-27 10:50:01 Terrasse 4.70 3.83 99.90
35367 2020-11-27 10:21:50 Terrasse 4.50 3.61 99.90
35366 2020-11-27 09:53:38 Terrasse 4.20 3.28 99.90
35365 2020-11-27 09:25:29 Terrasse 4.00 3.06 99.90
35364 2020-11-27 08:57:21 Terrasse 3.90 2.95 99.90
35363 2020-11-27 08:29:10 Terrasse 3.60 2.62 99.90
35362 2020-11-27 08:01:01 Terrasse 3.60 2.62 99.90
35361 2020-11-27 07:32:51 Terrasse 3.60 2.62 99.90
35360 2020-11-27 07:04:42 Terrasse 3.50 2.51 99.90
35359 2020-11-27 06:36:35 Terrasse 3.60 2.62 99.90
35358 2020-11-27 06:08:25 Terrasse 3.60 2.62 99.90
35357 2020-11-27 05:40:18 Terrasse 3.60 2.62 99.90
35356 2020-11-27 05:12:09 Terrasse 3.60 2.62 99.90
35355 2020-11-27 04:43:59 Terrasse 3.40 2.40 99.90
35354 2020-11-27 04:15:50 Terrasse 3.50 2.51 99.90
35353 2020-11-27 03:47:41 Terrasse 3.90 2.95 99.90
35352 2020-11-27 03:19:31 Terrasse 4.00 3.06 99.90
35351 2020-11-27 02:51:22 Terrasse 4.10 3.17 99.90
35350 2020-11-27 02:23:11 Terrasse 3.80 2.84 99.90
35349 2020-11-27 01:55:00 Terrasse 3.70 2.73 99.90
35348 2020-11-27 01:26:52 Terrasse 3.80 2.84 99.90
35347 2020-11-27 00:58:42 Terrasse 3.80 2.84 99.90
35346 2020-11-27 00:30:34 Terrasse 3.90 2.95 99.90
35345 2020-11-27 00:02:25 Terrasse 3.80 2.84 99.90
35344 2020-11-26 23:34:17 Terrasse 4.10 3.17 99.90
35343 2020-11-26 23:06:07 Terrasse 4.00 3.06 99.90
35342 2020-11-26 22:37:59 Terrasse 4.00 3.06 99.90
35341 2020-11-26 22:09:50 Terrasse 3.80 2.84 99.90
35340 2020-11-26 21:41:41 Terrasse 4.00 3.06 99.90
35339 2020-11-26 21:13:32 Terrasse 3.90 2.95 99.90
35338 2020-11-26 20:45:23 Terrasse 3.80 2.84 99.90
35337 2020-11-26 20:17:14 Terrasse 3.80 2.84 99.90
35336 2020-11-26 19:49:06 Terrasse 3.80 2.84 99.90
35335 2020-11-26 19:20:57 Terrasse 3.80 2.84 99.90
35334 2020-11-26 18:52:49 Terrasse 3.80 2.84 99.90
35333 2020-11-26 18:24:38 Terrasse 3.70 2.73 99.90
35332 2020-11-26 17:56:29 Terrasse 3.50 2.51 99.90
35331 2020-11-26 17:28:18 Terrasse 3.50 2.51 99.90
35330 2020-11-26 17:00:09 Terrasse 3.30 2.29 99.90
35329 2020-11-26 16:32:03 Terrasse 3.70 2.73 99.90
35328 2020-11-26 16:03:56 Terrasse 4.00 3.06 99.90
35327 2020-11-26 15:35:49 Terrasse 4.10 3.17 99.90
35326 2020-11-26 15:07:39 Terrasse 4.10 3.17 99.90
35325 2020-11-26 14:39:30 Terrasse 4.00 3.06 99.90
35324 2020-11-26 14:11:22 Terrasse 4.10 3.17 99.90
35323 2020-11-26 13:43:17 Terrasse 4.00 3.06 99.90
35322 2020-11-26 13:15:08 Terrasse 4.10 3.17 99.90
35321 2020-11-26 12:47:00 Terrasse 4.00 3.06 99.90
35320 2020-11-26 12:18:53 Terrasse 4.00 3.06 99.90
35319 2020-11-26 11:50:45 Terrasse 4.00 3.06 99.90
35318 2020-11-26 11:22:38 Terrasse 3.90 2.95 99.90
35317 2020-11-26 10:54:32 Terrasse 4.10 3.17 99.90
35316 2020-11-26 10:26:22 Terrasse 4.00 3.06 99.90
35315 2020-11-26 09:58:13 Terrasse 4.00 3.06 99.90
35314 2020-11-26 09:30:02 Terrasse 3.80 2.84 99.90
35313 2020-11-26 09:01:52 Terrasse 3.60 2.62 99.90
35312 2020-11-26 08:33:42 Terrasse 3.70 2.73 99.90
35311 2020-11-26 08:05:34 Terrasse 3.60 2.62 99.90
35310 2020-11-26 07:37:26 Terrasse 3.50 2.51 99.90
35309 2020-11-26 07:09:20 Terrasse 3.70 2.73 99.90
35308 2020-11-26 06:41:10 Terrasse 3.70 2.73 99.90
35307 2020-11-26 06:13:02 Terrasse 4.00 3.06 99.90
35306 2020-11-26 05:44:53 Terrasse 3.90 2.95 99.90
35305 2020-11-26 05:16:46 Terrasse 4.20 3.28 99.90
35304 2020-11-26 04:48:36 Terrasse 4.30 3.39 99.90
35303 2020-11-26 04:20:28 Terrasse 4.40 3.50 99.90
35302 2020-11-26 03:52:19 Terrasse 4.20 3.28 99.90
35301 2020-11-26 03:24:10 Terrasse 4.50 3.61 99.90
35300 2020-11-26 02:56:02 Terrasse 4.60 3.72 99.90
35299 2020-11-26 02:27:53 Terrasse 4.60 3.72 99.90
35298 2020-11-26 01:59:44 Terrasse 4.50 3.61 99.90
35297 2020-11-26 01:31:35 Terrasse 4.50 3.61 99.90
35296 2020-11-26 01:03:26 Terrasse 4.60 3.72 99.90
35295 2020-11-26 00:35:19 Terrasse 4.90 4.05 99.90
35294 2020-11-26 00:07:10 Terrasse 4.90 4.05 99.90
35293 2020-11-25 23:39:01 Terrasse 4.90 4.05 99.90
35292 2020-11-25 23:10:53 Terrasse 5.10 4.27 99.90
35291 2020-11-25 22:42:44 Terrasse 5.10 4.27 99.90
35290 2020-11-25 22:14:33 Terrasse 5.00 4.16 99.90
35289 2020-11-25 21:46:24 Terrasse 5.00 4.16 99.90
35288 2020-11-25 21:18:15 Terrasse 5.00 4.16 99.90
35287 2020-11-25 20:50:07 Terrasse 5.00 4.16 99.90
35286 2020-11-25 20:22:00 Terrasse 5.00 4.16 99.90
35285 2020-11-25 19:53:51 Terrasse 5.20 4.38 99.90
35284 2020-11-25 19:25:42 Terrasse 5.20 4.38 99.90
35283 2020-11-25 18:57:33 Terrasse 5.20 4.38 99.90
35282 2020-11-25 18:29:24 Terrasse 5.20 4.38 99.90
35281 2020-11-25 18:01:15 Terrasse 5.40 4.60 99.90
35280 2020-11-25 17:33:05 Terrasse 5.30 4.49 99.90
35279 2020-11-25 17:04:56 Terrasse 5.20 4.38 99.90
35278 2020-11-25 16:36:47 Terrasse 5.10 4.27 99.90
35277 2020-11-25 16:08:40 Terrasse 5.20 4.38 99.90
35276 2020-11-25 15:40:31 Terrasse 5.40 4.60 99.90
35275 2020-11-25 15:12:21 Terrasse 5.20 4.38 99.90
35274 2020-11-25 14:44:14 Terrasse 5.30 4.49 99.90
35273 2020-11-25 14:16:04 Terrasse 5.30 4.49 99.90
35272 2020-11-25 13:47:54 Terrasse 5.10 4.27 99.90
35271 2020-11-25 13:19:46 Terrasse 5.10 4.27 99.90
35270 2020-11-25 12:51:33 Terrasse 4.80 3.94 99.90
35269 2020-11-25 12:23:24 Terrasse 4.70 3.83 99.90
35268 2020-11-25 11:55:16 Terrasse 4.70 3.83 99.90
35267 2020-11-25 11:27:07 Terrasse 4.60 3.72 99.90
35266 2020-11-25 10:59:00 Terrasse 4.50 3.61 99.90
35265 2020-11-25 10:30:54 Terrasse 4.70 3.83 99.90
35264 2020-11-25 10:02:46 Terrasse 4.80 3.94 99.90
35263 2020-11-25 09:34:38 Terrasse 5.00 4.16 99.90
35262 2020-11-25 09:06:31 Terrasse 5.10 4.27 99.90
35261 2020-11-25 08:38:23 Terrasse 5.20 4.38 99.90
35260 2020-11-25 08:10:17 Terrasse 5.20 4.38 99.90
35259 2020-11-25 07:42:09 Terrasse 5.20 4.38 99.90
35258 2020-11-25 07:14:02 Terrasse 5.40 4.60 99.90
35257 2020-11-25 06:45:55 Terrasse 5.40 4.60 99.90
35256 2020-11-25 06:17:51 Terrasse 5.80 5.04 99.90
35255 2020-11-25 05:49:43 Terrasse 5.70 4.93 99.90
35254 2020-11-25 05:21:38 Terrasse 5.90 5.15 99.90
35253 2020-11-25 04:53:29 Terrasse 5.90 5.15 99.90
35252 2020-11-25 04:25:23 Terrasse 6.00 5.26 99.90
35251 2020-11-25 03:57:13 Terrasse 6.20 5.48 99.90
35250 2020-11-25 03:29:03 Terrasse 6.10 5.37 99.90
35249 2020-11-25 03:00:53 Terrasse 6.10 5.37 99.90
35248 2020-11-25 02:32:44 Terrasse 6.30 5.59 99.90
35247 2020-11-25 02:04:37 Terrasse 6.20 5.48 99.90
35246 2020-11-25 01:36:29 Terrasse 6.50 5.81 99.90
35245 2020-11-25 01:08:21 Terrasse 6.40 5.70 99.90
35244 2020-11-25 00:40:12 Terrasse 6.30 5.59 99.90
35243 2020-11-25 00:12:03 Terrasse 6.20 5.48 99.90
35242 2020-11-24 23:43:54 Terrasse 6.20 5.48 99.90
35241 2020-11-24 23:15:44 Terrasse 6.20 5.48 99.90
35240 2020-11-24 22:47:36 Terrasse 6.20 5.48 99.90
35239 2020-11-24 22:19:27 Terrasse 6.00 5.26 99.90
35238 2020-11-24 21:51:18 Terrasse 6.20 5.48 99.90
35237 2020-11-24 21:23:10 Terrasse 6.10 5.37 99.90
35236 2020-11-24 20:54:59 Terrasse 6.00 5.26 99.90
35235 2020-11-24 20:26:52 Terrasse 6.00 5.26 99.90
35234 2020-11-24 19:58:43 Terrasse 5.80 5.04 99.90
35233 2020-11-24 19:30:35 Terrasse 5.80 5.04 99.90
35232 2020-11-24 19:02:26 Terrasse 5.80 5.04 99.90
35231 2020-11-24 18:34:17 Terrasse 5.70 4.93 99.90
35230 2020-11-24 18:06:09 Terrasse 5.80 5.04 99.90
35229 2020-11-24 17:38:02 Terrasse 5.80 5.04 99.90
35228 2020-11-24 17:09:53 Terrasse 5.70 4.93 99.90
35227 2020-11-24 16:41:45 Terrasse 5.80 5.04 99.90
35226 2020-11-24 16:13:35 Terrasse 5.60 4.82 99.90
35225 2020-11-24 15:45:29 Terrasse 5.80 5.04 99.90
35224 2020-11-24 15:17:21 Terrasse 5.70 4.93 99.90
35223 2020-11-24 14:49:13 Terrasse 6.00 5.26 99.90
35222 2020-11-24 14:21:04 Terrasse 6.00 5.26 99.90
35221 2020-11-24 13:52:57 Terrasse 6.10 5.37 99.90
35220 2020-11-24 13:24:49 Terrasse 6.20 5.48 99.90
35219 2020-11-24 12:56:39 Terrasse 6.10 5.37 99.90
35218 2020-11-24 12:28:31 Terrasse 6.20 5.48 99.90
35217 2020-11-24 12:00:24 Terrasse 6.20 5.48 99.90
35216 2020-11-24 11:32:15 Terrasse 6.00 5.26 99.90
35215 2020-11-24 11:04:08 Terrasse 6.00 5.26 99.90
35214 2020-11-24 10:35:59 Terrasse 5.70 4.93 99.90
35213 2020-11-24 10:07:50 Terrasse 5.60 4.82 99.90
35212 2020-11-24 09:39:43 Terrasse 5.80 5.04 99.90
35211 2020-11-24 09:11:37 Terrasse 5.80 5.04 99.90
35210 2020-11-24 08:43:30 Terrasse 5.80 5.04 99.90
35209 2020-11-24 08:15:26 Terrasse 6.00 5.26 99.90
35208 2020-11-24 07:47:18 Terrasse 6.00 5.26 99.90
35207 2020-11-24 07:19:12 Terrasse 6.30 5.59 99.90
35206 2020-11-24 06:51:08 Terrasse 6.80 6.14 99.90
35205 2020-11-24 06:23:02 Terrasse 6.90 6.25 99.90
35204 2020-11-24 05:54:55 Terrasse 7.00 6.36 99.90
35203 2020-11-24 05:26:47 Terrasse 7.10 6.47 99.90
35202 2020-11-24 04:58:38 Terrasse 7.20 6.58 99.90
35201 2020-11-24 04:30:30 Terrasse 7.20 6.58 99.90
35200 2020-11-24 04:02:26 Terrasse 7.60 7.02 99.90
35199 2020-11-24 03:34:25 Terrasse 7.50 6.91 99.90
35198 2020-11-24 03:06:16 Terrasse 7.50 6.91 99.90
35197 2020-11-24 02:38:09 Terrasse 7.50 6.91 99.90
35196 2020-11-24 02:10:02 Terrasse 7.60 7.02 99.90
35195 2020-11-24 01:41:54 Terrasse 7.80 7.24 99.90
35194 2020-11-24 01:13:46 Terrasse 7.80 7.24 99.90
35193 2020-11-24 00:45:38 Terrasse 7.70 7.13 99.90
35192 2020-11-24 00:17:31 Terrasse 7.90 7.35 99.90
35191 2020-11-23 23:49:23 Terrasse 7.90 7.35 99.90
35190 2020-11-23 23:21:16 Terrasse 8.10 7.57 99.90
35189 2020-11-23 22:53:19 Terrasse 8.00 7.46 99.90
35188 2020-11-23 22:25:08 Terrasse 8.10 7.57 99.90
35187 2020-11-23 21:56:59 Terrasse 8.20 7.68 99.90
35186 2020-11-23 21:28:49 Terrasse 8.20 7.68 99.90
35185 2020-11-23 21:00:42 Terrasse 8.00 7.46 99.90
35184 2020-11-23 20:32:32 Terrasse 8.00 7.46 99.90
35183 2020-11-23 20:04:24 Terrasse 7.90 7.35 99.90
35182 2020-11-23 19:36:16 Terrasse 8.00 7.46 99.90
35181 2020-11-23 19:08:08 Terrasse 8.00 7.46 99.90
35180 2020-11-23 18:40:01 Terrasse 8.10 7.57 99.90
35179 2020-11-23 18:11:52 Terrasse 8.20 7.68 99.90
35178 2020-11-23 17:43:47 Terrasse 8.40 7.90 99.90
35177 2020-11-23 17:15:38 Terrasse 8.30 7.79 99.90
35176 2020-11-23 16:47:30 Terrasse 8.20 7.68 99.90
35175 2020-11-23 16:19:24 Terrasse 8.10 7.57 99.90
35174 2020-11-23 15:51:18 Terrasse 8.80 8.34 99.90
35173 2020-11-23 15:23:14 Terrasse 9.30 8.89 99.90
35172 2020-11-23 14:55:11 Terrasse 10.20 9.88 99.90
35171 2020-11-23 14:27:01 Terrasse 9.50 9.11 99.90
35170 2020-11-23 13:58:57 Terrasse 10.40 10.10 99.90
35169 2020-11-23 13:30:47 Terrasse 9.80 9.44 99.90
35168 2020-11-23 13:02:38 Terrasse 11.00 10.76 99.90
35167 2020-11-23 12:34:27 Terrasse 8.90 8.45 99.90
35166 2020-11-23 12:06:20 Terrasse 8.80 8.34 99.90
35165 2020-11-23 11:38:10 Terrasse 9.20 8.78 99.90
35164 2020-11-23 11:10:00 Terrasse 8.20 7.68 99.90
35163 2020-11-23 10:41:51 Terrasse 7.90 7.35 99.90
35162 2020-11-23 10:13:43 Terrasse 7.90 7.35 99.90
35161 2020-11-23 09:45:36 Terrasse 8.10 7.57 99.90
35160 2020-11-23 09:17:26 Terrasse 7.60 7.02 99.90
35159 2020-11-23 08:49:19 Terrasse 7.40 6.80 99.90
35158 2020-11-23 08:21:11 Terrasse 7.10 6.47 99.90
35157 2020-11-23 07:53:03 Terrasse 7.30 6.69 99.90
35156 2020-11-23 07:24:56 Terrasse 7.30 6.69 99.90
35155 2020-11-23 06:56:48 Terrasse 7.20 6.58 99.90
35154 2020-11-23 06:28:40 Terrasse 7.30 6.69 99.90
35153 2020-11-23 06:00:34 Terrasse 7.30 6.69 99.90
35152 2020-11-23 05:32:26 Terrasse 7.20 6.58 99.90
35151 2020-11-23 05:04:18 Terrasse 7.20 6.58 99.90
35150 2020-11-23 04:36:11 Terrasse 7.10 6.47 99.90
35149 2020-11-23 04:08:05 Terrasse 7.20 6.58 99.90
35148 2020-11-23 03:39:59 Terrasse 7.20 6.58 99.90
35147 2020-11-23 03:11:52 Terrasse 7.20 6.58 99.90
35146 2020-11-23 02:43:45 Terrasse 7.30 6.69 99.90
35145 2020-11-23 02:15:38 Terrasse 7.40 6.80 99.90
35144 2020-11-23 01:47:32 Terrasse 7.50 6.91 99.90
35143 2020-11-23 01:19:24 Terrasse 7.40 6.80 99.90
35142 2020-11-23 00:51:16 Terrasse 7.40 6.80 99.90
35141 2020-11-23 00:23:08 Terrasse 7.30 6.69 99.90
35140 2020-11-22 23:55:01 Terrasse 7.20 6.58 99.90
35139 2020-11-22 23:26:54 Terrasse 7.00 6.36 99.90
35138 2020-11-22 22:58:48 Terrasse 7.20 6.58 99.90
35137 2020-11-22 22:30:40 Terrasse 7.30 6.69 99.90
35136 2020-11-22 22:02:32 Terrasse 7.30 6.69 99.90
35135 2020-11-22 21:34:24 Terrasse 7.20 6.58 99.90
35134 2020-11-22 21:06:17 Terrasse 7.10 6.47 99.90
35133 2020-11-22 20:38:09 Terrasse 7.20 6.58 99.90
35132 2020-11-22 20:10:02 Terrasse 7.30 6.69 99.90
35131 2020-11-22 19:41:53 Terrasse 7.40 6.80 99.90
35130 2020-11-22 19:13:46 Terrasse 7.70 7.13 99.90
35129 2020-11-22 18:45:38 Terrasse 7.50 6.91 99.90
35128 2020-11-22 18:17:28 Terrasse 7.40 6.80 99.90
35127 2020-11-22 17:49:21 Terrasse 7.40 6.80 99.90
35126 2020-11-22 17:21:13 Terrasse 7.40 6.80 99.90
35125 2020-11-22 16:53:03 Terrasse 7.40 6.80 99.90
35124 2020-11-22 16:24:55 Terrasse 7.40 6.80 99.90
35123 2020-11-22 15:56:46 Terrasse 7.40 6.80 99.90
35122 2020-11-22 15:28:39 Terrasse 7.70 7.13 99.90
35121 2020-11-22 15:00:30 Terrasse 7.70 7.13 99.90
35120 2020-11-22 14:32:22 Terrasse 7.70 7.13 99.90
35119 2020-11-22 14:04:12 Terrasse 7.40 6.80 99.90
35118 2020-11-22 13:36:02 Terrasse 7.10 6.47 99.90
35117 2020-11-22 13:07:56 Terrasse 7.20 6.58 99.90
35116 2020-11-22 12:39:49 Terrasse 7.40 6.80 99.90
35115 2020-11-22 12:11:40 Terrasse 7.10 6.47 99.90
35114 2020-11-22 11:43:31 Terrasse 7.20 6.58 99.90
35113 2020-11-22 11:15:26 Terrasse 6.90 6.25 99.90
35112 2020-11-22 10:47:14 Terrasse 7.20 6.58 99.90
35111 2020-11-22 10:19:03 Terrasse 6.00 5.26 99.90
35110 2020-11-22 09:50:54 Terrasse 5.60 4.82 99.90
35109 2020-11-22 09:22:47 Terrasse 5.50 4.71 99.90
35108 2020-11-22 08:54:38 Terrasse 4.90 4.05 99.90
35107 2020-11-22 08:26:29 Terrasse 4.60 3.72 99.90
35106 2020-11-22 07:58:25 Terrasse 4.70 3.83 99.90
35105 2020-11-22 07:30:18 Terrasse 4.70 3.83 99.90
35104 2020-11-22 07:02:12 Terrasse 4.60 3.72 99.90
35103 2020-11-22 06:34:06 Terrasse 4.60 3.72 99.90
35102 2020-11-22 06:06:00 Terrasse 4.60 3.72 99.90
35101 2020-11-22 05:37:54 Terrasse 4.60 3.72 99.90
35100 2020-11-22 05:09:48 Terrasse 4.80 3.94 99.90
35099 2020-11-22 04:41:41 Terrasse 4.70 3.83 99.90
35098 2020-11-22 04:13:32 Terrasse 4.50 3.61 99.90
35097 2020-11-22 03:45:27 Terrasse 4.70 3.83 99.90
35096 2020-11-22 03:17:22 Terrasse 4.60 3.72 99.90
35095 2020-11-22 02:49:15 Terrasse 4.50 3.61 99.90
35094 2020-11-22 02:21:07 Terrasse 4.20 3.28 99.90
35093 2020-11-22 01:53:01 Terrasse 4.00 3.06 99.90
35092 2020-11-22 01:24:57 Terrasse 4.40 3.50 99.90
35091 2020-11-22 00:56:53 Terrasse 4.90 4.05 99.90
35090 2020-11-22 00:28:49 Terrasse 5.40 4.60 99.90
35089 2020-11-22 00:00:41 Terrasse 5.20 4.38 99.90
35088 2020-11-21 23:32:36 Terrasse 5.10 4.27 99.90
35087 2020-11-21 23:04:30 Terrasse 5.30 4.49 99.90
35086 2020-11-21 22:36:26 Terrasse 5.60 4.82 99.90
35085 2020-11-21 22:08:21 Terrasse 5.80 5.04 99.90
35084 2020-11-21 21:40:14 Terrasse 6.00 5.26 99.90
35083 2020-11-21 21:12:08 Terrasse 6.10 5.37 99.90
35082 2020-11-21 20:44:03 Terrasse 6.30 5.59 99.90
35081 2020-11-21 20:15:56 Terrasse 6.40 5.70 99.90
35080 2020-11-21 19:47:49 Terrasse 6.40 5.70 99.90
35079 2020-11-21 19:19:43 Terrasse 6.40 5.70 99.90
35078 2020-11-21 18:51:37 Terrasse 6.30 5.59 99.90
35077 2020-11-21 18:23:30 Terrasse 6.50 5.81 99.90
35076 2020-11-21 17:55:24 Terrasse 6.40 5.70 99.90
35075 2020-11-21 17:27:18 Terrasse 6.40 5.70 99.90
35074 2020-11-21 16:59:09 Terrasse 6.00 5.26 99.90
35073 2020-11-21 16:31:06 Terrasse 6.10 5.37 99.90
35072 2020-11-21 16:03:04 Terrasse 6.80 6.14 99.90
35071 2020-11-21 15:35:04 Terrasse 8.10 6.84 71.60
35070 2020-11-21 15:07:12 Terrasse 10.40 9.05 59.70
35069 2020-11-21 14:39:34 Terrasse 16.00 14.94 49.20
35068 2020-11-21 14:11:08 Terrasse 16.60 15.65 51.10
35067 2020-11-21 13:42:49 Terrasse 11.10 9.81 59.20
35066 2020-11-21 13:14:57 Terrasse 15.70 14.68 51.90
35065 2020-11-21 12:46:36 Terrasse 11.20 9.98 61.50
35064 2020-11-21 12:18:12 Terrasse 14.40 13.49 61.10
35063 2020-11-21 11:49:51 Terrasse 5.30 4.49 99.90
35062 2020-11-21 11:21:46 Terrasse 4.80 3.94 99.90
35061 2020-11-21 10:53:46 Terrasse 5.80 5.04 99.90
35060 2020-11-21 10:25:46 Terrasse 7.80 7.24 99.90
35059 2020-11-21 09:57:25 Terrasse 6.10 5.37 99.90
35058 2020-11-21 09:29:16 Terrasse 4.50 3.61 99.90
35057 2020-11-21 09:01:08 Terrasse 3.60 2.62 99.90
35056 2020-11-21 08:33:01 Terrasse 2.70 1.63 99.90
35055 2020-11-21 08:04:56 Terrasse 2.70 1.63 99.90
35054 2020-11-21 07:36:48 Terrasse 2.50 1.41 99.90
35053 2020-11-21 07:08:42 Terrasse 2.50 1.41 99.90
35052 2020-11-21 06:40:36 Terrasse 2.50 1.41 99.90
35051 2020-11-21 06:12:30 Terrasse 2.50 1.41 99.90
35050 2020-11-21 05:44:23 Terrasse 2.50 1.41 99.90
35049 2020-11-21 05:16:18 Terrasse 3.00 1.96 99.90
35048 2020-11-21 04:48:10 Terrasse 2.90 1.85 99.90
35047 2020-11-21 04:20:03 Terrasse 2.50 1.41 99.90
35046 2020-11-21 03:51:56 Terrasse 1.80 0.64 99.90
35045 2020-11-21 03:23:51 Terrasse 1.90 0.75 99.90
35044 2020-11-21 02:55:45 Terrasse 1.90 0.75 99.90
35043 2020-11-21 02:27:40 Terrasse 2.00 0.86 99.90
35042 2020-11-21 01:59:34 Terrasse 2.10 0.97 99.90
35041 2020-11-21 01:31:31 Terrasse 2.30 1.19 99.90
35040 2020-11-21 01:03:26 Terrasse 2.30 1.19 99.90
35039 2020-11-21 00:35:21 Terrasse 2.40 1.30 99.90
35038 2020-11-21 00:07:15 Terrasse 2.40 1.30 99.90
35037 2020-11-20 23:39:09 Terrasse 2.50 1.41 99.90
35036 2020-11-20 23:11:02 Terrasse 2.70 1.63 99.90
35035 2020-11-20 22:42:56 Terrasse 2.70 1.63 99.90
35034 2020-11-20 22:14:51 Terrasse 2.70 1.63 99.90
35033 2020-11-20 21:46:46 Terrasse 2.90 1.85 99.90
35032 2020-11-20 21:18:40 Terrasse 3.10 2.07 99.90
35031 2020-11-20 20:50:37 Terrasse 3.50 2.51 99.90
35030 2020-11-20 20:22:40 Terrasse 4.90 4.05 99.90
35029 2020-11-20 19:54:36 Terrasse 6.10 5.37 99.90
35028 2020-11-20 19:26:30 Terrasse 6.30 5.59 99.90
35027 2020-11-20 18:58:24 Terrasse 6.40 5.70 99.90
35026 2020-11-20 18:30:17 Terrasse 6.50 5.81 99.90
35025 2020-11-20 18:02:11 Terrasse 6.70 6.03 99.90
35024 2020-11-20 17:34:03 Terrasse 6.60 5.92 99.90
35023 2020-11-20 17:05:57 Terrasse 6.80 6.14 99.90
35022 2020-11-20 16:37:51 Terrasse 7.10 6.47 99.90
35021 2020-11-20 16:09:48 Terrasse 8.10 7.57 99.90
35020 2020-11-20 15:41:48 Terrasse 9.20 8.78 99.90
35019 2020-11-20 15:13:19 Terrasse 7.30 6.69 99.90
35018 2020-11-20 14:45:12 Terrasse 6.70 6.03 99.90
35017 2020-11-20 14:17:03 Terrasse 6.50 5.81 99.90
35016 2020-11-20 13:48:59 Terrasse 6.50 5.81 99.90
35015 2020-11-20 13:20:53 Terrasse 6.80 6.14 99.90
35014 2020-11-20 12:52:45 Terrasse 6.80 6.14 99.90
35013 2020-11-20 12:24:38 Terrasse 6.50 5.81 99.90
35012 2020-11-20 11:56:32 Terrasse 6.50 5.81 99.90
35011 2020-11-20 11:30:06 Terrasse 6.30 5.59 99.90
35010 2020-11-20 10:59:27 Terrasse 6.10 5.37 99.90
35009 2020-11-20 10:31:20 Terrasse 5.90 5.15 99.90
35008 2020-11-20 10:03:13 Terrasse 5.70 4.93 99.90
35007 2020-11-20 09:35:05 Terrasse 5.40 4.60 99.90
35006 2020-11-20 09:07:00 Terrasse 5.40 4.60 99.90
35005 2020-11-20 08:38:54 Terrasse 5.40 4.60 99.90
35004 2020-11-20 08:10:47 Terrasse 5.30 4.49 99.90
35003 2020-11-20 07:42:41 Terrasse 5.30 4.49 99.90
35002 2020-11-20 07:14:34 Terrasse 5.50 4.71 99.90
35001 2020-11-20 06:46:34 Terrasse 5.10 4.27 99.90
35000 2020-11-20 05:50:23 Terrasse 5.40 4.60 99.90
34999 2020-11-20 05:22:14 Terrasse 5.50 4.71 99.90
34998 2020-11-20 04:54:25 Terrasse 5.70 4.93 99.90
34997 2020-11-20 04:26:18 Terrasse 5.80 5.04 99.90
34996 2020-11-20 03:58:26 Terrasse 5.80 5.04 99.90
34995 2020-11-20 03:30:24 Terrasse 5.80 5.04 99.90
34994 2020-11-20 02:02:54 Terrasse 5.80 5.04 99.90
34993 2020-11-20 01:34:41 Terrasse 6.10 5.37 99.90
34992 2020-11-20 01:06:31 Terrasse 6.40 5.70 99.90
34991 2020-11-20 00:38:29 Terrasse 6.50 5.81 99.90
34990 2020-11-20 00:10:25 Terrasse 6.70 6.03 99.90
34989 2020-11-19 23:42:22 Terrasse 6.90 6.25 99.90
34988 2020-11-19 23:14:19 Terrasse 7.20 6.58 99.90
34987 2020-11-19 22:46:15 Terrasse 7.50 6.91 99.90
34986 2020-11-19 22:18:08 Terrasse 7.50 6.91 99.90
34985 2020-11-19 21:50:06 Terrasse 7.60 7.02 99.90
34984 2020-11-19 21:22:02 Terrasse 8.00 7.46 99.90
34983 2020-11-19 20:53:57 Terrasse 8.00 7.46 99.90
34982 2020-11-19 20:25:52 Terrasse 8.00 7.46 99.90
34981 2020-11-19 19:57:47 Terrasse 7.90 7.35 99.90
34980 2020-11-19 19:29:42 Terrasse 7.90 7.35 99.90
34979 2020-11-19 19:01:40 Terrasse 8.40 7.90 99.90
34978 2020-11-19 18:33:37 Terrasse 8.50 8.01 99.90
34977 2020-11-19 18:05:35 Terrasse 8.70 8.23 99.90
34976 2020-11-19 17:37:32 Terrasse 9.10 8.67 99.90
34975 2020-11-19 17:09:31 Terrasse 9.50 9.11 99.90
34974 2020-11-19 16:41:24 Terrasse 9.70 9.32 99.20
34973 2020-11-19 16:13:21 Terrasse 9.90 9.47 96.70
34972 2020-11-19 15:45:17 Terrasse 10.50 10.11 96.00
34971 2020-11-19 15:17:12 Terrasse 11.00 10.76 99.90
34970 2020-11-19 14:49:03 Terrasse 10.00 9.66 99.90
34969 2020-11-19 14:20:58 Terrasse 9.40 9.00 99.90
34968 2020-11-19 13:52:54 Terrasse 9.70 9.33 99.90
34967 2020-11-19 13:24:50 Terrasse 9.60 9.22 99.90
34966 2020-11-19 12:56:50 Terrasse 10.80 10.54 99.90
34965 2020-11-19 12:28:42 Terrasse 10.70 10.43 99.90
34964 2020-11-19 12:00:34 Terrasse 10.40 10.10 99.90
34963 2020-11-19 11:32:25 Terrasse 10.20 9.88 99.90
34962 2020-11-19 11:04:17 Terrasse 9.50 9.11 99.90
34961 2020-11-19 10:36:07 Terrasse 8.40 7.90 99.90
34960 2020-11-19 10:08:03 Terrasse 8.00 7.46 99.90
34959 2020-11-19 09:39:57 Terrasse 7.70 7.13 99.90
34958 2020-11-19 09:11:53 Terrasse 7.70 7.13 99.90
34957 2020-11-19 08:43:53 Terrasse 7.90 7.35 99.90
34956 2020-11-19 08:15:50 Terrasse 8.10 7.57 99.90
34955 2020-11-19 07:47:46 Terrasse 8.30 7.79 99.90
34954 2020-11-19 07:19:43 Terrasse 8.50 8.01 99.90
34953 2020-11-19 06:51:39 Terrasse 8.50 8.01 99.90
34952 2020-11-19 06:23:34 Terrasse 8.40 7.90 99.90
34951 2020-11-19 05:55:29 Terrasse 8.40 7.90 99.90
34950 2020-11-19 05:27:24 Terrasse 8.50 8.01 99.90
34949 2020-11-19 04:59:20 Terrasse 8.50 8.01 99.90
34948 2020-11-19 04:31:15 Terrasse 8.50 8.01 99.90
34947 2020-11-19 04:03:11 Terrasse 8.60 8.12 99.90
34946 2020-11-19 03:35:07 Terrasse 8.80 8.34 99.90
34945 2020-11-19 03:07:03 Terrasse 8.70 8.23 99.90
34944 2020-11-19 02:39:00 Terrasse 8.90 8.45 99.90
34943 2020-11-19 02:10:55 Terrasse 9.00 8.56 99.90
34942 2020-11-19 01:42:49 Terrasse 8.90 8.45 99.90
34941 2020-11-19 01:14:45 Terrasse 8.90 8.45 99.90
34940 2020-11-19 00:46:41 Terrasse 9.00 8.56 99.90
34939 2020-11-19 00:18:37 Terrasse 9.10 8.67 99.90
34938 2020-11-18 23:50:32 Terrasse 9.20 8.78 99.90
34937 2020-11-18 23:22:28 Terrasse 9.40 9.00 99.90
34936 2020-11-18 22:54:24 Terrasse 9.50 9.11 99.90
34935 2020-11-18 22:26:20 Terrasse 9.70 9.33 99.90
34934 2020-11-18 21:58:16 Terrasse 9.80 9.44 99.90
34933 2020-11-18 21:30:11 Terrasse 9.80 9.44 99.90
34932 2020-11-18 21:02:08 Terrasse 9.80 9.44 99.90
34931 2020-11-18 20:34:04 Terrasse 10.10 9.77 99.90
34930 2020-11-18 20:06:02 Terrasse 10.40 10.10 99.90
34929 2020-11-18 19:37:57 Terrasse 10.70 10.43 99.90
34928 2020-11-18 19:09:57 Terrasse 11.10 10.87 99.90
34927 2020-11-18 18:41:53 Terrasse 11.40 11.20 99.90
34926 2020-11-18 18:13:50 Terrasse 11.70 11.53 99.90
34925 2020-11-18 17:45:46 Terrasse 12.20 12.08 99.90
34924 2020-11-18 17:17:41 Terrasse 12.60 12.52 99.90
34923 2020-11-18 16:49:39 Terrasse 13.30 13.29 99.90
34922 2020-11-18 16:21:34 Terrasse 13.70 13.73 99.90
34921 2020-11-18 15:53:35 Terrasse 15.40 15.14 82.20
34920 2020-11-18 15:25:29 Terrasse 16.60 16.73 92.60
34919 2020-11-18 14:29:24 Terrasse 15.40 15.23 85.40
34918 2020-11-18 14:01:18 Terrasse 15.50 15.37 86.90
34917 2020-11-18 13:33:10 Terrasse 15.20 15.00 85.10
34916 2020-11-18 13:05:01 Terrasse 14.70 14.63 92.00
34915 2020-11-18 12:36:54 Terrasse 14.40 14.50 99.90
34914 2020-11-18 12:08:47 Terrasse 13.80 13.84 99.90
34913 2020-11-18 11:40:38 Terrasse 13.20 13.18 99.90
34912 2020-11-18 11:12:31 Terrasse 12.50 12.41 99.90
34911 2020-11-18 10:44:23 Terrasse 11.80 11.64 99.90
34910 2020-11-18 10:16:14 Terrasse 11.40 11.20 99.90
34909 2020-11-18 09:48:07 Terrasse 10.70 10.43 99.90
34908 2020-11-18 09:20:12 Terrasse 10.50 10.21 99.90
34907 2020-11-18 08:52:06 Terrasse 10.80 10.54 99.90
34906 2020-11-18 08:24:09 Terrasse 12.00 11.86 99.90
34905 2020-11-18 07:56:56 Terrasse 16.90 17.25 99.90
34904 2020-11-18 07:55:14 Terrasse 14.50 14.61 99.90
34903 2020-11-18 07:11:50 Terrasse 15.20 15.38 99.90
34902 2020-11-17 16:37:02 Terrasse 10.50 10.21 99.90
34901 2020-11-17 16:08:54 Terrasse 10.60 10.32 99.90
34900 2020-11-17 15:40:26 Terrasse 10.60 10.32 99.90
34899 2020-11-17 15:12:08 Terrasse 10.60 10.32 99.90
34898 2020-11-17 14:43:44 Terrasse 10.50 10.21 99.90
34897 2020-11-17 14:15:24 Terrasse 10.40 10.10 99.90
34896 2020-11-17 13:47:02 Terrasse 10.40 10.10 99.90
34895 2020-11-17 13:20:49 Terrasse 10.60 10.32 99.90
34894 2020-11-17 12:18:06 Terrasse 10.30 9.99 99.90
34893 2020-11-17 10:29:21 Terrasse 9.50 9.11 99.90
34892 2020-11-17 09:35:39 Terrasse 8.90 8.45 99.90
34891 2020-11-17 09:07:22 Terrasse 8.80 8.34 99.90
34890 2020-11-17 08:39:02 Terrasse 8.90 8.45 99.90
34889 2020-11-17 08:10:44 Terrasse 8.90 8.45 99.90
34888 2020-11-17 07:42:12 Terrasse 9.00 8.56 99.90
34887 2020-11-17 06:41:01 Terrasse 8.60 8.12 99.90
34886 2020-11-17 06:12:50 Terrasse 8.60 8.12 99.90
34885 2020-11-17 05:44:33 Terrasse 8.70 8.23 99.90
34884 2020-11-17 05:16:34 Terrasse 8.70 8.23 99.90
34883 2020-11-17 04:48:09 Terrasse 8.60 8.12 99.90
34882 2020-11-17 04:20:09 Terrasse 8.50 8.01 99.90
34881 2020-11-17 03:51:42 Terrasse 8.50 8.01 99.90
34880 2020-11-17 03:23:24 Terrasse 8.40 7.90 99.90
34879 2020-11-17 02:55:06 Terrasse 8.40 7.90 99.90
34878 2020-11-17 02:26:47 Terrasse 8.40 7.90 99.90
34877 2020-11-17 01:58:29 Terrasse 8.30 7.79 99.90
34876 2020-11-17 01:30:11 Terrasse 8.40 7.90 99.90
34875 2020-11-17 01:01:58 Terrasse 8.60 8.12 99.90
34874 2020-11-17 00:33:50 Terrasse 8.80 8.34 99.90
34873 2020-11-17 00:05:29 Terrasse 8.80 8.34 99.90
34872 2020-11-16 23:37:13 Terrasse 8.90 8.45 99.90
34871 2020-11-16 23:08:58 Terrasse 9.00 8.56 99.90
34870 2020-11-16 22:40:42 Terrasse 9.20 8.78 99.90
34869 2020-11-16 22:12:24 Terrasse 9.40 9.00 99.90
34868 2020-11-16 21:44:08 Terrasse 9.50 9.11 99.90
34867 2020-11-16 21:15:53 Terrasse 9.60 9.22 99.90
34866 2020-11-16 20:47:38 Terrasse 9.90 9.55 99.90
34865 2020-11-16 20:19:21 Terrasse 9.70 9.33 99.90
34864 2020-11-16 19:51:05 Terrasse 9.70 9.33 99.90
34863 2020-11-16 19:22:49 Terrasse 9.80 9.44 99.90
34862 2020-11-16 18:54:32 Terrasse 9.80 9.44 99.90
34861 2020-11-16 18:26:15 Terrasse 9.80 9.44 99.90
34860 2020-11-16 17:57:56 Terrasse 9.80 9.44 99.90
34859 2020-11-16 17:29:39 Terrasse 9.90 9.55 99.90
34858 2020-11-16 17:01:23 Terrasse 10.10 9.77 99.90
34857 2020-11-16 16:33:04 Terrasse 10.00 9.66 99.90
34856 2020-11-16 16:04:46 Terrasse 10.00 9.66 99.90
34855 2020-11-16 15:36:28 Terrasse 10.00 9.66 99.90
34854 2020-11-16 15:08:10 Terrasse 10.10 9.77 99.90
34853 2020-11-16 14:39:55 Terrasse 10.10 9.77 99.90
34852 2020-11-16 14:11:37 Terrasse 10.10 9.77 99.90
34851 2020-11-16 13:43:19 Terrasse 10.10 9.77 99.90
34850 2020-11-16 13:15:04 Terrasse 10.10 9.77 99.90
34849 2020-11-16 12:46:45 Terrasse 10.00 9.66 99.90
34848 2020-11-16 12:18:27 Terrasse 10.00 9.66 99.90
34847 2020-11-16 11:50:08 Terrasse 9.90 9.55 99.90
34846 2020-11-16 11:21:51 Terrasse 9.80 9.44 99.90
34845 2020-11-16 10:53:32 Terrasse 9.50 9.11 99.90
34844 2020-11-16 10:25:15 Terrasse 9.50 9.11 99.90
34843 2020-11-16 09:56:57 Terrasse 9.40 9.00 99.90
34842 2020-11-16 09:28:39 Terrasse 9.20 8.78 99.90
34841 2020-11-16 09:00:22 Terrasse 9.20 8.78 99.90
34840 2020-11-16 08:32:02 Terrasse 9.00 8.56 99.90
34839 2020-11-16 08:03:44 Terrasse 8.90 8.45 99.90
34838 2020-11-16 07:35:25 Terrasse 8.80 8.34 99.90
34837 2020-11-16 07:07:09 Terrasse 8.90 8.45 99.90
34836 2020-11-16 06:39:41 Terrasse 9.20 8.78 99.90
34835 2020-11-16 06:09:00 Terrasse 9.50 9.11 99.90
34834 2020-11-16 05:41:04 Terrasse 9.60 9.22 99.90
34833 2020-11-16 05:13:05 Terrasse 9.80 9.44 99.90
34832 2020-11-16 04:16:41 Terrasse 10.00 9.66 99.90
34831 2020-11-16 03:20:23 Terrasse 10.10 9.77 99.90
34830 2020-11-16 02:24:09 Terrasse 10.40 10.10 99.90
34829 2020-11-16 01:55:59 Terrasse 10.80 10.54 99.90
34828 2020-11-16 00:59:29 Terrasse 11.50 11.31 99.90
34827 2020-11-16 00:03:03 Terrasse 12.10 11.97 99.90
34826 2020-11-15 22:38:24 Terrasse 12.60 12.52 99.90
34825 2020-11-15 22:10:07 Terrasse 12.50 12.41 99.90
34824 2020-11-15 21:41:48 Terrasse 12.60 12.52 99.90
34823 2020-11-15 21:13:31 Terrasse 12.70 12.63 99.90
34822 2020-11-15 20:45:13 Terrasse 12.90 12.85 99.90
34821 2020-11-15 20:16:56 Terrasse 13.30 13.29 99.90
34820 2020-11-15 19:48:40 Terrasse 13.50 13.51 99.90
34819 2020-11-15 19:20:42 Terrasse 13.50 13.51 99.90
34818 2020-11-15 18:24:10 Terrasse 13.70 13.73 99.90
34817 2020-11-15 17:56:07 Terrasse 13.70 13.73 99.90
34816 2020-11-15 17:28:41 Terrasse 13.80 13.84 99.90
34815 2020-11-15 16:58:54 Terrasse 14.00 14.06 99.90
34814 2020-11-15 16:30:08 Terrasse 14.30 14.39 99.90
34813 2020-11-15 16:02:11 Terrasse 14.80 14.94 99.90
34812 2020-11-15 15:34:02 Terrasse 15.50 15.71 99.90
34811 2020-11-15 15:05:41 Terrasse 16.30 16.59 99.90
34810 2020-11-15 14:37:21 Terrasse 16.80 17.14 99.90
34809 2020-11-15 14:09:01 Terrasse 16.50 16.81 99.90
34808 2020-11-15 13:40:41 Terrasse 16.50 16.81 99.90
34807 2020-11-15 13:12:20 Terrasse 15.50 15.71 99.90
34806 2020-11-15 12:43:59 Terrasse 14.60 14.72 99.90
34805 2020-11-15 12:15:41 Terrasse 14.10 14.17 99.90
34804 2020-11-15 11:47:22 Terrasse 13.60 13.62 99.90
34803 2020-11-15 11:19:03 Terrasse 13.40 13.40 99.90
34802 2020-11-15 10:50:43 Terrasse 12.80 12.74 99.90
34801 2020-11-15 10:22:22 Terrasse 12.00 11.86 99.90
34800 2020-11-15 09:54:01 Terrasse 11.10 10.87 99.90
34799 2020-11-15 09:25:43 Terrasse 10.40 10.10 99.90
34798 2020-11-15 08:57:23 Terrasse 9.90 9.55 99.90
34797 2020-11-15 08:29:06 Terrasse 9.80 9.44 99.90
34796 2020-11-15 08:00:49 Terrasse 10.00 9.66 99.90
34795 2020-11-15 07:32:33 Terrasse 10.20 9.88 99.90
34794 2020-11-15 07:05:17 Terrasse 10.10 9.77 99.90
34793 2020-11-15 06:07:46 Terrasse 10.20 9.88 99.90
34792 2020-11-15 05:38:27 Terrasse 10.30 9.99 99.90
34791 2020-11-15 05:10:28 Terrasse 10.40 10.10 99.90
34790 2020-11-15 04:42:04 Terrasse 10.60 10.32 99.90
34789 2020-11-15 04:13:47 Terrasse 10.70 10.43 99.90
34788 2020-11-15 03:45:29 Terrasse 10.80 10.54 99.90
34787 2020-11-15 03:17:12 Terrasse 10.90 10.65 99.90
34786 2020-11-15 02:48:55 Terrasse 10.90 10.65 99.90
34785 2020-11-15 02:20:37 Terrasse 11.00 10.76 99.90
34784 2020-11-15 01:52:29 Terrasse 11.10 10.87 99.90
34783 2020-11-15 01:24:08 Terrasse 11.10 10.87 99.90
34782 2020-11-15 00:55:50 Terrasse 11.20 10.98 99.90
34781 2020-11-15 00:27:34 Terrasse 11.30 11.09 99.90
34780 2020-11-14 23:59:16 Terrasse 11.40 11.20 99.90
34779 2020-11-14 23:30:58 Terrasse 11.50 11.31 99.90
34778 2020-11-14 23:02:53 Terrasse 11.50 11.31 99.90
34777 2020-11-14 22:34:46 Terrasse 11.40 11.20 99.90
34776 2020-11-14 22:06:36 Terrasse 11.50 11.31 99.90
34775 2020-11-14 21:38:15 Terrasse 11.70 11.53 99.90
34774 2020-11-14 21:09:58 Terrasse 11.80 11.64 99.90
34773 2020-11-14 20:41:54 Terrasse 12.10 11.97 99.90
34772 2020-11-14 20:13:33 Terrasse 12.40 12.30 99.90
34771 2020-11-14 19:45:20 Terrasse 12.70 12.63 99.90
34770 2020-11-14 19:17:04 Terrasse 13.40 13.40 99.90
34769 2020-11-14 18:48:52 Terrasse 14.60 14.72 99.90
34768 2020-11-14 18:20:36 Terrasse 16.70 17.03 99.90
34767 2020-11-14 17:52:15 Terrasse 15.70 15.93 99.90
34766 2020-11-14 16:55:49 Terrasse 13.80 13.84 99.90
34765 2020-11-14 16:27:32 Terrasse 14.60 14.72 99.90
34764 2020-11-14 15:59:14 Terrasse 14.60 14.72 99.90
34763 2020-11-14 15:30:53 Terrasse 14.50 14.61 99.90
34762 2020-11-14 15:02:35 Terrasse 14.30 14.39 99.90
34761 2020-11-14 14:34:21 Terrasse 14.40 14.50 99.90
34760 2020-11-14 14:06:11 Terrasse 14.60 14.72 99.90
34759 2020-11-14 13:38:08 Terrasse 14.20 14.28 99.90
34758 2020-11-14 13:09:55 Terrasse 13.70 13.73 99.90
34757 2020-11-14 12:41:32 Terrasse 13.60 13.62 99.90
34756 2020-11-14 12:13:27 Terrasse 13.80 13.84 99.90
34755 2020-11-14 11:45:15 Terrasse 13.90 13.95 99.90
34754 2020-11-14 11:17:02 Terrasse 13.30 13.29 99.90
34753 2020-11-14 10:48:55 Terrasse 13.20 13.18 99.90
34752 2020-11-14 10:21:00 Terrasse 12.50 12.41 99.90
34751 2020-11-14 09:21:45 Terrasse 10.90 10.65 99.90
34750 2020-11-14 08:53:43 Terrasse 10.80 10.54 99.90
34749 2020-11-14 08:25:51 Terrasse 10.70 10.43 99.90
34748 2020-11-14 07:57:32 Terrasse 10.60 10.32 99.90
34747 2020-11-14 07:29:59 Terrasse 10.50 10.21 99.90
34746 2020-11-14 07:00:51 Terrasse 10.50 10.21 99.90
34745 2020-11-14 06:32:02 Terrasse 10.50 10.21 99.90
34744 2020-11-14 06:03:24 Terrasse 10.40 10.10 99.90
34743 2020-11-14 05:34:47 Terrasse 10.30 9.99 99.90
34742 2020-11-14 05:06:30 Terrasse 10.30 9.99 99.90
34741 2020-11-14 04:38:13 Terrasse 10.40 10.10 99.90
34740 2020-11-14 04:09:55 Terrasse 10.40 10.10 99.90
34739 2020-11-14 03:41:37 Terrasse 10.40 10.10 99.90
34738 2020-11-14 03:13:19 Terrasse 10.50 10.21 99.90
34737 2020-11-14 02:45:02 Terrasse 10.50 10.21 99.90
34736 2020-11-14 02:16:45 Terrasse 10.60 10.32 99.90
34735 2020-11-14 01:48:29 Terrasse 10.60 10.32 99.90
34734 2020-11-14 01:20:12 Terrasse 10.80 10.54 99.90
34733 2020-11-14 00:21:17 Terrasse 10.70 10.43 99.90
34732 2020-11-13 23:53:05 Terrasse 10.70 10.43 99.90
34731 2020-11-13 23:24:47 Terrasse 10.60 10.32 99.90
34730 2020-11-13 22:56:28 Terrasse 10.60 10.32 99.90
34729 2020-11-13 22:28:11 Terrasse 10.50 10.21 99.90
34728 2020-11-13 21:59:52 Terrasse 10.40 10.10 99.90
34727 2020-11-13 21:31:38 Terrasse 10.30 9.99 99.90
34726 2020-11-13 21:03:27 Terrasse 10.30 9.99 99.90
34725 2020-11-13 20:35:07 Terrasse 10.40 10.10 99.90
34724 2020-11-13 20:06:49 Terrasse 10.30 9.99 99.90
34723 2020-11-13 19:38:30 Terrasse 10.20 9.88 99.90
34722 2020-11-13 18:42:05 Terrasse 10.10 9.77 99.90
34721 2020-11-13 18:13:47 Terrasse 10.10 9.77 99.90
34720 2020-11-13 10:38:46 Terrasse 8.30 7.79 99.90
34719 2020-11-13 09:14:27 Terrasse 8.20 7.68 99.90
34718 2020-11-13 07:49:48 Terrasse 7.90 7.35 99.90
34717 2020-11-13 07:21:30 Terrasse 7.90 7.35 99.90
34716 2020-11-13 06:53:13 Terrasse 7.80 7.24 99.90
34715 2020-11-13 06:25:10 Terrasse 7.60 7.02 99.90
34714 2020-11-13 05:57:02 Terrasse 7.50 6.91 99.90
34713 2020-11-13 05:28:53 Terrasse 7.30 6.69 99.90
34712 2020-11-13 05:00:35 Terrasse 7.20 6.58 99.90
34711 2020-11-13 04:32:19 Terrasse 7.30 6.69 99.90
34710 2020-11-13 04:04:06 Terrasse 7.30 6.69 99.90
34709 2020-11-13 03:35:50 Terrasse 7.40 6.80 99.90
34708 2020-11-13 03:07:36 Terrasse 7.60 7.02 99.90
34707 2020-11-13 02:11:26 Terrasse 7.70 7.13 99.90
34706 2020-11-13 00:47:18 Terrasse 8.00 7.46 99.90
34705 2020-11-12 22:26:19 Terrasse 8.80 8.34 99.90
34704 2020-11-12 21:58:04 Terrasse 9.00 8.56 99.90
34703 2020-11-12 21:29:47 Terrasse 9.20 8.78 99.90
34702 2020-11-12 21:01:31 Terrasse 9.40 9.00 99.90
34701 2020-11-12 20:33:22 Terrasse 9.60 9.22 99.90
34700 2020-11-12 20:05:19 Terrasse 9.80 9.44 99.90
34699 2020-11-12 19:36:54 Terrasse 10.00 9.66 99.90
34698 2020-11-12 19:08:36 Terrasse 10.10 9.77 99.90
34697 2020-11-12 18:40:21 Terrasse 10.20 9.88 99.90
34696 2020-11-12 18:12:03 Terrasse 10.30 9.99 99.90
34695 2020-11-12 17:43:48 Terrasse 10.40 10.10 99.90
34694 2020-11-12 17:17:11 Terrasse 10.60 10.32 99.90
34693 2020-11-12 16:44:58 Terrasse 11.00 10.76 99.90
34692 2020-11-12 15:38:49 Terrasse 11.30 11.09 99.90
34691 2020-11-12 14:25:26 Terrasse 9.40 9.00 99.90
34690 2020-11-12 13:56:24 Terrasse 9.20 8.78 99.90
34689 2020-11-12 13:28:10 Terrasse 9.10 8.67 99.90
34688 2020-11-12 12:59:27 Terrasse 9.10 8.67 99.90
34687 2020-11-12 12:31:00 Terrasse 9.00 8.56 99.90
34686 2020-11-12 12:02:36 Terrasse 9.00 8.56 99.90
34685 2020-11-12 11:34:18 Terrasse 8.90 8.45 99.90
34684 2020-11-12 11:06:01 Terrasse 8.90 8.45 99.90
34683 2020-11-12 10:37:46 Terrasse 8.80 8.34 99.90
34682 2020-11-12 10:09:20 Terrasse 8.90 8.45 99.90
34681 2020-11-12 07:10:32 Terrasse 9.00 8.56 99.90
34680 2020-11-12 06:42:15 Terrasse 9.00 8.56 99.90
34679 2020-11-12 06:13:58 Terrasse 9.10 8.67 99.90
34678 2020-11-12 05:45:42 Terrasse 9.20 8.78 99.90
34677 2020-11-12 05:17:26 Terrasse 9.20 8.78 99.90
34676 2020-11-12 04:49:10 Terrasse 9.20 8.78 99.90
34675 2020-11-12 04:20:53 Terrasse 9.20 8.78 99.90
34674 2020-11-12 03:52:37 Terrasse 9.20 8.78 99.90
34673 2020-11-12 03:24:21 Terrasse 9.10 8.67 99.90
34672 2020-11-12 02:56:05 Terrasse 9.10 8.67 99.90
34671 2020-11-12 02:27:48 Terrasse 9.10 8.67 99.90
34670 2020-11-12 01:59:32 Terrasse 9.00 8.56 99.90
34669 2020-11-12 01:31:14 Terrasse 9.10 8.67 99.90
34668 2020-11-12 01:03:03 Terrasse 9.00 8.56 99.90
34667 2020-11-12 00:34:44 Terrasse 9.00 8.56 99.90
34666 2020-11-12 00:06:28 Terrasse 9.00 8.56 99.90
34665 2020-11-11 23:38:12 Terrasse 9.00 8.56 99.90
34664 2020-11-11 23:09:56 Terrasse 9.00 8.56 99.90
34663 2020-11-11 22:41:40 Terrasse 8.90 8.45 99.90
34662 2020-11-11 22:13:29 Terrasse 9.00 8.56 99.90
34661 2020-11-11 21:45:12 Terrasse 9.10 8.67 99.90
34660 2020-11-11 21:16:59 Terrasse 9.20 8.78 99.90
34659 2020-11-11 20:48:44 Terrasse 9.10 8.67 99.90
34658 2020-11-11 20:20:30 Terrasse 9.10 8.67 99.90
34657 2020-11-11 19:52:15 Terrasse 9.10 8.67 99.90
34656 2020-11-11 19:23:59 Terrasse 9.00 8.56 99.90
34655 2020-11-11 18:55:44 Terrasse 9.00 8.56 99.90
34654 2020-11-11 18:27:30 Terrasse 9.00 8.56 99.90
34653 2020-11-11 18:00:27 Terrasse 8.90 8.45 99.90
34652 2020-11-11 17:30:09 Terrasse 8.80 8.34 99.90
34651 2020-11-11 17:01:57 Terrasse 8.80 8.34 99.90
34650 2020-11-11 16:33:40 Terrasse 9.00 8.56 99.90
34649 2020-11-11 16:05:26 Terrasse 9.00 8.56 99.90
34648 2020-11-11 15:37:10 Terrasse 9.20 8.78 99.90
34647 2020-11-11 15:08:55 Terrasse 9.50 9.11 99.90
34646 2020-11-11 14:40:39 Terrasse 9.20 8.78 99.90
34645 2020-11-11 14:12:25 Terrasse 9.00 8.56 99.90
34644 2020-11-11 13:44:09 Terrasse 8.70 8.23 99.90
34643 2020-11-11 13:15:54 Terrasse 8.80 8.34 99.90
34642 2020-11-11 12:47:37 Terrasse 8.80 8.34 99.90
34641 2020-11-11 12:19:21 Terrasse 8.70 8.23 99.90
34640 2020-11-11 11:51:05 Terrasse 8.50 8.01 99.90
34639 2020-11-11 11:22:47 Terrasse 8.30 7.79 99.90
34638 2020-11-11 10:54:31 Terrasse 8.20 7.68 99.90
34637 2020-11-11 10:26:14 Terrasse 8.10 7.57 99.90
34636 2020-11-11 09:57:57 Terrasse 7.80 7.24 99.90
34635 2020-11-11 09:29:39 Terrasse 7.40 6.80 99.90
34634 2020-11-11 09:01:24 Terrasse 7.40 6.80 99.90
34633 2020-11-11 08:33:09 Terrasse 7.50 6.91 99.90
34632 2020-11-11 08:04:53 Terrasse 7.60 7.02 99.90
34631 2020-11-11 07:36:40 Terrasse 7.50 6.91 99.90
34630 2020-11-11 07:08:25 Terrasse 7.60 7.02 99.90
34629 2020-11-11 00:59:43 Terrasse 7.50 6.91 99.90
34628 2020-11-11 00:03:26 Terrasse 7.50 6.91 99.90
34627 2020-11-10 22:10:45 Terrasse 7.50 6.91 99.90
34626 2020-11-10 21:14:27 Terrasse 7.50 6.91 99.90
34625 2020-11-10 19:50:00 Terrasse 7.60 7.02 99.90
34624 2020-11-10 18:53:42 Terrasse 7.70 7.13 99.90
34623 2020-11-10 18:25:26 Terrasse 7.60 7.02 99.90
34622 2020-11-10 17:57:11 Terrasse 7.70 7.13 99.90
34621 2020-11-10 17:28:57 Terrasse 7.80 7.24 99.90
34620 2020-11-10 17:00:41 Terrasse 7.70 7.13 99.90
34619 2020-11-10 16:32:26 Terrasse 7.70 7.13 99.90
34618 2020-11-10 16:04:13 Terrasse 7.90 7.35 99.90
34617 2020-11-10 15:35:58 Terrasse 7.80 7.24 99.90
34616 2020-11-10 15:07:45 Terrasse 7.90 7.35 99.90
34615 2020-11-10 14:39:30 Terrasse 8.00 7.46 99.90
34614 2020-11-10 14:11:17 Terrasse 8.40 7.90 99.90
34613 2020-11-10 13:43:01 Terrasse 8.40 7.90 99.90
34612 2020-11-10 13:14:47 Terrasse 8.70 8.23 99.90
34611 2020-11-10 12:46:31 Terrasse 8.40 7.90 99.90
34610 2020-11-10 12:18:15 Terrasse 8.30 7.79 99.90
34609 2020-11-10 11:49:59 Terrasse 8.10 7.57 99.90
34608 2020-11-10 11:21:45 Terrasse 8.00 7.46 99.90
34607 2020-11-10 10:53:28 Terrasse 7.90 7.35 99.90
34606 2020-11-10 09:28:56 Terrasse 7.40 6.80 99.90
34605 2020-11-10 09:00:41 Terrasse 7.20 6.58 99.90
34604 2020-11-10 08:32:28 Terrasse 7.10 6.47 99.90
34603 2020-11-10 08:04:14 Terrasse 7.10 6.47 99.90
34602 2020-11-10 07:35:58 Terrasse 7.00 6.36 99.90
34601 2020-11-10 07:07:42 Terrasse 7.00 6.36 99.90
34600 2020-11-10 06:39:29 Terrasse 7.10 6.47 99.90
34599 2020-11-10 06:11:16 Terrasse 7.40 6.80 99.90
34598 2020-11-10 05:43:03 Terrasse 7.60 7.02 99.90
34597 2020-11-10 05:14:49 Terrasse 7.50 6.91 99.90
34596 2020-11-10 04:46:35 Terrasse 7.70 7.13 99.90
34595 2020-11-10 04:18:21 Terrasse 7.80 7.24 99.90
34594 2020-11-09 21:16:33 Terrasse 10.80 10.54 99.90
34593 2020-11-09 20:48:19 Terrasse 11.00 10.76 99.90
34592 2020-11-09 19:52:14 Terrasse 11.40 11.20 99.90
34591 2020-11-09 19:23:56 Terrasse 11.60 11.42 99.90
34590 2020-11-09 18:27:36 Terrasse 12.20 12.08 99.90
34589 2020-11-09 17:59:34 Terrasse 12.60 12.52 99.90
34588 2020-11-09 17:31:20 Terrasse 13.00 12.96 99.90
34587 2020-11-09 17:03:05 Terrasse 13.60 13.62 99.90
34586 2020-11-09 16:34:52 Terrasse 14.30 14.39 99.80
34585 2020-11-09 16:06:36 Terrasse 15.10 15.02 90.10
34584 2020-11-09 15:38:21 Terrasse 15.90 15.70 82.50
34583 2020-11-09 14:41:57 Terrasse 16.80 16.59 78.50
34582 2020-11-09 14:13:38 Terrasse 16.70 16.58 82.40
34581 2020-11-09 13:45:20 Terrasse 16.50 16.42 84.70
34580 2020-11-09 13:17:02 Terrasse 16.60 16.73 92.50
34579 2020-11-09 12:48:43 Terrasse 16.00 16.16 96.00
34578 2020-11-09 12:20:21 Terrasse 14.90 15.05 99.90
34577 2020-11-09 11:52:02 Terrasse 14.30 14.39 99.90
34576 2020-11-09 11:23:42 Terrasse 13.00 12.96 99.90
34575 2020-11-09 10:55:23 Terrasse 12.90 12.85 99.90
34574 2020-11-09 10:27:02 Terrasse 11.60 11.42 99.90
34573 2020-11-09 09:58:43 Terrasse 10.20 9.88 99.90
34572 2020-11-09 09:30:27 Terrasse 10.00 9.66 99.90
34571 2020-11-09 09:02:09 Terrasse 9.70 9.33 99.90
34570 2020-11-09 08:33:57 Terrasse 9.60 9.22 99.90
34569 2020-11-09 08:05:41 Terrasse 9.40 9.00 99.90
34568 2020-11-09 07:37:26 Terrasse 9.40 9.00 99.90
34567 2020-11-09 07:09:10 Terrasse 9.60 9.22 99.90
34566 2020-11-09 06:40:54 Terrasse 9.60 9.22 99.90
34565 2020-11-09 06:12:42 Terrasse 9.80 9.44 99.90
34564 2020-11-09 05:44:26 Terrasse 9.90 9.55 99.90
34563 2020-11-09 05:16:11 Terrasse 9.90 9.55 99.90
34562 2020-11-09 04:47:56 Terrasse 9.90 9.55 99.90
34561 2020-11-09 04:20:38 Terrasse 10.00 9.66 99.90
34560 2020-11-09 03:48:22 Terrasse 10.10 9.77 99.90
34559 2020-11-09 03:20:08 Terrasse 10.30 9.99 99.90
34558 2020-11-09 02:51:54 Terrasse 10.30 9.99 99.90
34557 2020-11-09 02:23:38 Terrasse 10.50 10.21 99.90
34556 2020-11-09 01:55:24 Terrasse 10.60 10.32 99.90
34555 2020-11-09 01:27:08 Terrasse 10.60 10.32 99.90
34554 2020-11-09 00:58:54 Terrasse 10.60 10.32 99.90
34553 2020-11-09 00:30:38 Terrasse 10.70 10.43 99.90
34552 2020-11-09 00:02:24 Terrasse 10.80 10.54 99.90
34551 2020-11-08 20:17:11 Terrasse 10.60 10.32 99.90
34550 2020-11-08 19:48:54 Terrasse 10.50 10.21 99.90
34549 2020-11-08 19:20:30 Terrasse 9.70 9.33 99.90
34548 2020-11-08 16:04:11 Terrasse 10.60 10.32 99.90
34547 2020-11-08 14:09:52 Terrasse 14.10 14.16 99.40
34546 2020-11-08 11:48:53 Terrasse 11.10 10.87 99.90
34545 2020-11-08 11:20:44 Terrasse 10.40 10.10 99.90
34544 2020-11-08 10:52:24 Terrasse 9.80 9.44 99.90
34543 2020-11-08 10:24:09 Terrasse 9.60 9.22 99.90
34542 2020-11-08 09:57:07 Terrasse 9.20 8.78 99.90
34541 2020-11-08 09:25:46 Terrasse 8.80 8.34 99.90
34540 2020-11-08 08:57:29 Terrasse 8.30 7.79 99.90
34539 2020-11-08 08:29:14 Terrasse 8.10 7.57 99.90
34538 2020-11-08 08:00:59 Terrasse 8.00 7.46 99.90
34537 2020-11-08 07:32:48 Terrasse 8.00 7.46 99.90
34536 2020-11-08 07:04:21 Terrasse 8.00 7.46 99.90
34535 2020-11-08 06:36:06 Terrasse 8.10 7.57 99.90
34534 2020-11-08 06:07:51 Terrasse 8.20 7.68 99.90
34533 2020-11-08 05:39:38 Terrasse 8.30 7.79 99.90
34532 2020-11-08 05:11:23 Terrasse 8.40 7.90 99.90
34531 2020-11-08 04:43:09 Terrasse 8.50 8.01 99.90
34530 2020-11-08 04:14:54 Terrasse 8.60 8.12 99.90
34529 2020-11-08 03:46:39 Terrasse 8.60 8.12 99.90
34528 2020-11-08 03:18:24 Terrasse 8.70 8.23 99.90
34527 2020-11-08 02:50:11 Terrasse 8.90 8.45 99.90
34526 2020-11-08 02:21:56 Terrasse 9.00 8.56 99.90
34525 2020-11-08 01:53:42 Terrasse 9.20 8.78 99.90
34524 2020-11-08 01:25:27 Terrasse 9.30 8.89 99.90
34523 2020-11-08 00:57:12 Terrasse 9.40 9.00 99.90
34522 2020-11-08 00:28:56 Terrasse 9.50 9.11 99.90
34521 2020-11-08 00:00:43 Terrasse 9.70 9.33 99.90
34520 2020-11-07 23:32:27 Terrasse 9.70 9.33 99.90
34519 2020-11-07 23:04:12 Terrasse 9.90 9.55 99.90
34518 2020-11-07 22:36:00 Terrasse 10.00 9.59 97.20
34517 2020-11-07 20:43:22 Terrasse 10.50 10.21 99.90
34516 2020-11-07 18:50:48 Terrasse 10.90 10.02 75.60
34515 2020-11-07 18:22:34 Terrasse 11.20 10.27 72.50
34514 2020-11-07 17:54:20 Terrasse 11.50 10.54 70.10
34513 2020-11-07 17:26:07 Terrasse 11.80 10.83 68.80
34512 2020-11-07 16:57:53 Terrasse 12.20 11.21 66.50
34511 2020-11-07 16:29:40 Terrasse 12.70 11.70 64.00
34510 2020-11-07 16:01:26 Terrasse 13.50 12.50 61.00
34509 2020-11-07 15:33:14 Terrasse 14.70 13.80 60.40
34508 2020-11-07 15:04:54 Terrasse 15.30 14.56 64.10
34507 2020-11-07 14:36:40 Terrasse 14.10 13.14 60.30
34506 2020-11-07 14:08:23 Terrasse 14.10 13.15 60.80
34505 2020-11-07 13:40:08 Terrasse 14.10 13.14 60.30
34504 2020-11-07 13:11:52 Terrasse 14.50 13.62 61.70
34503 2020-11-07 12:43:33 Terrasse 13.70 12.81 64.60
34502 2020-11-07 12:15:11 Terrasse 12.40 11.56 71.40
34501 2020-11-07 11:46:54 Terrasse 12.20 11.22 66.70
34500 2020-11-07 11:18:34 Terrasse 11.50 10.55 70.70
34499 2020-11-07 10:50:15 Terrasse 10.80 9.94 76.60
34498 2020-11-07 10:21:57 Terrasse 10.00 9.27 84.70
34497 2020-11-07 09:53:37 Terrasse 9.60 9.13 96.20
34496 2020-11-07 09:25:18 Terrasse 7.90 7.35 99.90
34495 2020-11-07 08:57:01 Terrasse 7.00 6.36 99.90
34494 2020-11-07 08:28:44 Terrasse 6.40 5.70 99.90
34493 2020-11-07 08:00:30 Terrasse 6.40 5.70 99.90
34492 2020-11-07 07:32:19 Terrasse 6.50 5.81 99.90
34491 2020-11-07 07:04:04 Terrasse 6.40 5.70 99.90
34490 2020-11-07 06:35:52 Terrasse 6.50 5.81 99.90
34489 2020-11-07 06:07:43 Terrasse 6.70 6.03 99.90
34488 2020-11-07 05:39:28 Terrasse 6.90 6.25 99.90
34487 2020-11-07 05:11:15 Terrasse 6.90 6.25 99.90
34486 2020-11-07 04:43:01 Terrasse 7.00 6.36 99.90
34485 2020-11-07 04:14:49 Terrasse 7.20 6.46 95.20
34484 2020-11-07 03:16:05 Terrasse 7.50 6.37 79.00
34483 2020-11-07 02:44:50 Terrasse 7.60 6.25 70.10
34482 2020-11-07 02:16:36 Terrasse 7.70 6.28 67.30
34481 2020-11-07 01:48:23 Terrasse 7.90 6.41 63.90
34480 2020-11-07 01:20:08 Terrasse 8.00 6.47 62.00
34479 2020-11-07 00:51:54 Terrasse 8.20 6.64 59.90
34478 2020-11-07 00:23:42 Terrasse 8.40 6.82 58.50
34477 2020-11-06 23:55:28 Terrasse 8.50 6.90 57.10
34476 2020-11-06 23:27:17 Terrasse 8.60 6.98 55.90
34475 2020-11-06 22:59:05 Terrasse 8.70 7.06 55.10
34474 2020-11-06 22:30:51 Terrasse 8.80 7.15 54.10
34473 2020-11-06 21:07:12 Terrasse 9.30 7.65 52.20
34472 2020-11-06 20:10:26 Terrasse 9.70 8.06 51.30
34471 2020-11-06 19:41:54 Terrasse 9.80 8.15 50.30
34470 2020-11-06 19:12:15 Terrasse 10.10 8.42 48.20
34469 2020-11-06 18:43:35 Terrasse 10.50 8.86 48.10
34468 2020-11-06 18:14:55 Terrasse 10.90 9.31 48.30
34467 2020-11-06 17:46:28 Terrasse 11.50 10.00 49.70
34466 2020-11-06 17:18:16 Terrasse 11.90 10.45 49.90
34465 2020-11-06 16:50:02 Terrasse 12.50 11.11 50.10
34464 2020-11-06 16:21:50 Terrasse 13.50 12.22 50.30
34463 2020-11-06 15:53:38 Terrasse 14.70 13.48 48.20
34462 2020-11-06 15:25:25 Terrasse 15.70 14.54 46.70
34461 2020-11-06 14:57:11 Terrasse 16.20 15.06 45.40
34460 2020-11-06 14:28:52 Terrasse 16.20 15.05 44.80
34459 2020-11-06 14:00:40 Terrasse 16.10 14.96 45.70
34458 2020-11-06 13:04:11 Terrasse 15.00 13.82 48.50
34457 2020-11-06 12:35:53 Terrasse 14.30 13.25 56.10
34456 2020-11-06 12:07:36 Terrasse 13.70 12.47 51.50
34455 2020-11-06 11:39:15 Terrasse 12.60 11.44 58.50
34454 2020-11-06 10:42:47 Terrasse 11.10 10.09 69.80
34453 2020-11-06 10:14:27 Terrasse 10.30 9.99 99.90
34452 2020-11-06 09:46:10 Terrasse 8.80 8.34 99.80
34451 2020-11-06 09:17:51 Terrasse 7.80 7.24 99.90
34450 2020-11-06 08:49:52 Terrasse 6.70 6.03 99.90
34449 2020-11-06 08:21:27 Terrasse 6.10 5.37 99.90
34448 2020-11-06 07:53:11 Terrasse 6.00 5.26 99.90
34447 2020-11-06 07:24:52 Terrasse 5.90 5.15 99.90
34446 2020-11-06 06:56:36 Terrasse 5.50 4.71 99.90
34445 2020-11-06 06:28:21 Terrasse 5.70 4.93 99.90
34444 2020-11-06 06:00:08 Terrasse 5.70 4.93 99.90
34443 2020-11-06 05:31:55 Terrasse 5.80 5.04 99.90
34442 2020-11-06 05:03:41 Terrasse 5.90 5.15 99.90
34441 2020-11-06 04:35:28 Terrasse 6.00 5.26 99.90
34440 2020-11-06 04:07:13 Terrasse 6.10 5.27 96.00
34439 2020-11-06 03:39:00 Terrasse 6.20 5.26 91.40
34438 2020-11-06 03:10:46 Terrasse 6.20 5.24 90.40
34437 2020-11-06 02:42:32 Terrasse 6.20 5.28 92.00
34436 2020-11-06 02:14:17 Terrasse 6.40 5.58 95.30
34435 2020-11-06 01:46:02 Terrasse 6.50 5.66 93.90
34434 2020-11-06 01:17:49 Terrasse 6.70 5.83 92.00
34433 2020-11-06 00:49:33 Terrasse 6.90 6.00 90.30
34432 2020-11-06 00:21:18 Terrasse 7.20 6.33 90.30
34431 2020-11-05 23:53:03 Terrasse 7.30 6.39 88.40
34430 2020-11-05 23:24:47 Terrasse 7.40 6.40 84.40
34429 2020-11-05 22:56:33 Terrasse 7.40 6.24 78.20
34428 2020-11-05 22:28:17 Terrasse 7.30 5.96 71.90
34427 2020-11-05 22:00:02 Terrasse 7.30 5.77 64.70
34426 2020-11-05 21:31:49 Terrasse 7.60 6.04 62.20
34425 2020-11-05 21:03:35 Terrasse 7.70 6.10 60.30
34424 2020-11-05 20:35:22 Terrasse 7.90 6.27 58.20
34423 2020-11-05 20:07:08 Terrasse 8.10 6.49 58.40
34422 2020-11-05 19:38:55 Terrasse 8.40 6.85 59.60
34421 2020-11-05 19:10:41 Terrasse 8.80 7.28 59.20
34420 2020-11-05 18:42:28 Terrasse 9.20 7.68 57.50
34419 2020-11-05 18:14:17 Terrasse 9.90 8.41 56.10
34418 2020-11-05 17:46:07 Terrasse 10.70 9.24 54.10
34417 2020-11-05 17:17:58 Terrasse 11.80 10.40 52.20
34416 2020-11-05 16:49:49 Terrasse 13.00 11.64 49.30
34415 2020-11-05 16:21:43 Terrasse 14.30 13.00 46.40
34414 2020-11-05 15:53:45 Terrasse 16.10 14.89 43.10
34413 2020-11-05 15:25:51 Terrasse 19.20 18.18 38.50
34412 2020-11-05 14:57:29 Terrasse 19.90 19.05 42.40
34411 2020-11-05 14:29:34 Terrasse 22.40 21.71 38.80
34410 2020-11-05 14:01:39 Terrasse 25.70 25.28 36.70
34409 2020-11-05 13:33:25 Terrasse 26.30 25.96 37.20
34408 2020-11-05 13:05:08 Terrasse 27.60 27.08 35.60
34407 2020-11-05 12:36:50 Terrasse 29.20 28.39 35.10
34406 2020-11-05 12:08:19 Terrasse 28.80 28.03 35.20
34405 2020-11-05 11:39:59 Terrasse 31.20 30.10 31.60
34404 2020-11-05 11:11:26 Terrasse 28.70 28.01 36.10
34403 2020-11-05 10:42:52 Terrasse 25.90 25.63 41.40
34402 2020-11-05 10:14:13 Terrasse 22.50 22.04 47.20
34401 2020-11-05 09:45:09 Terrasse 15.20 14.67 72.60
34400 2020-11-05 09:16:36 Terrasse 8.00 7.46 99.90
34399 2020-11-05 08:48:12 Terrasse 6.80 6.14 99.90
34398 2020-11-05 08:19:52 Terrasse 5.70 4.93 99.90
34397 2020-11-05 07:51:34 Terrasse 5.10 4.27 99.90
34396 2020-11-05 07:23:17 Terrasse 4.80 3.94 99.90
34395 2020-11-05 06:55:03 Terrasse 4.70 3.83 99.90
34394 2020-11-05 06:26:47 Terrasse 4.80 3.94 99.90
34393 2020-11-05 05:58:31 Terrasse 4.90 4.05 99.90
34392 2020-11-05 05:30:17 Terrasse 5.00 4.16 99.90
34391 2020-11-05 05:02:02 Terrasse 5.00 4.16 99.90
34390 2020-11-05 04:33:47 Terrasse 5.20 4.38 99.90
34389 2020-11-05 04:05:32 Terrasse 5.30 4.49 99.90
34388 2020-11-05 03:37:17 Terrasse 5.60 4.82 99.90
34387 2020-11-05 03:09:01 Terrasse 5.70 4.93 99.90
34386 2020-11-05 02:40:47 Terrasse 5.80 5.04 99.90
34385 2020-11-05 02:12:34 Terrasse 6.10 5.37 99.90
34384 2020-11-05 01:44:20 Terrasse 6.40 5.70 99.90
34383 2020-11-05 01:16:05 Terrasse 6.50 5.81 99.90
34382 2020-11-05 00:47:50 Terrasse 6.80 6.14 99.90
34381 2020-11-05 00:19:36 Terrasse 7.20 6.58 99.90
34380 2020-11-04 23:51:20 Terrasse 7.30 6.69 99.90
34379 2020-11-04 23:23:05 Terrasse 7.40 6.80 99.90
34378 2020-11-04 22:54:50 Terrasse 7.50 6.91 99.90
34377 2020-11-04 22:26:33 Terrasse 7.20 6.58 99.90
34376 2020-11-04 21:58:19 Terrasse 7.30 6.69 99.90
34375 2020-11-04 21:30:03 Terrasse 7.40 6.80 99.90
34374 2020-11-04 21:01:48 Terrasse 7.60 6.98 98.30
34373 2020-11-04 20:33:34 Terrasse 7.70 6.88 90.30
34372 2020-11-04 20:05:20 Terrasse 8.10 6.95 75.90
34371 2020-11-04 19:37:05 Terrasse 8.30 7.00 69.60
34370 2020-11-04 19:08:51 Terrasse 8.60 7.24 66.00
34369 2020-11-04 18:40:38 Terrasse 9.10 7.74 64.20
34368 2020-11-04 18:12:25 Terrasse 9.60 8.25 62.70
34367 2020-11-04 17:44:14 Terrasse 10.20 8.84 60.00
34366 2020-11-04 17:16:02 Terrasse 11.10 9.79 58.50
34365 2020-11-04 16:47:52 Terrasse 12.10 10.85 56.70
34364 2020-11-04 16:19:41 Terrasse 12.90 11.71 56.10
34363 2020-11-04 15:51:31 Terrasse 14.10 12.91 51.60
34362 2020-11-04 15:23:40 Terrasse 17.60 16.66 47.70
34361 2020-11-04 14:55:05 Terrasse 17.50 16.57 48.30
34360 2020-11-04 14:26:49 Terrasse 17.30 16.31 47.00
34359 2020-11-04 13:59:13 Terrasse 19.80 19.05 46.60
34358 2020-11-04 13:30:25 Terrasse 16.70 15.81 52.90
34357 2020-11-04 13:02:42 Terrasse 21.10 20.45 45.50
34356 2020-11-04 12:33:46 Terrasse 20.00 19.32 48.30
34355 2020-11-04 12:05:55 Terrasse 24.50 24.13 42.90
34354 2020-11-04 11:37:40 Terrasse 28.10 27.85 41.40
34353 2020-11-04 11:09:09 Terrasse 25.90 25.68 43.40
34352 2020-11-04 10:40:39 Terrasse 23.80 23.50 48.40
34351 2020-11-04 10:12:01 Terrasse 22.60 22.19 48.70
34350 2020-11-04 09:42:51 Terrasse 14.10 13.63 78.90
34349 2020-11-04 09:14:19 Terrasse 7.20 6.58 99.90
34348 2020-11-04 08:45:58 Terrasse 6.20 5.48 99.90
34347 2020-11-04 08:17:41 Terrasse 6.00 5.26 99.90
34346 2020-11-04 07:49:35 Terrasse 5.90 5.15 99.90
34345 2020-11-04 07:21:16 Terrasse 5.70 4.93 99.90
34344 2020-11-04 06:53:01 Terrasse 6.00 5.26 99.90
34343 2020-11-04 06:24:46 Terrasse 6.00 5.26 99.90
34342 2020-11-04 05:56:31 Terrasse 6.10 5.37 99.90
34341 2020-11-04 05:28:16 Terrasse 6.40 5.70 99.90
34340 2020-11-04 05:00:01 Terrasse 6.60 5.92 99.90
34339 2020-11-04 04:31:45 Terrasse 6.80 6.14 99.90
34338 2020-11-04 04:03:29 Terrasse 6.90 6.25 99.90
34337 2020-11-04 03:35:14 Terrasse 7.00 6.36 99.90
34336 2020-11-04 03:06:57 Terrasse 7.00 6.36 99.90
34335 2020-11-04 02:38:41 Terrasse 7.20 6.58 99.90
34334 2020-11-04 02:10:26 Terrasse 7.60 7.02 99.90
34333 2020-11-04 01:42:11 Terrasse 7.80 7.24 99.90
34332 2020-11-04 01:13:56 Terrasse 7.90 7.35 99.90
34331 2020-11-04 00:45:41 Terrasse 8.20 7.68 99.90
34330 2020-11-04 00:17:27 Terrasse 8.60 8.12 99.90
34329 2020-11-03 23:49:13 Terrasse 9.00 8.56 99.90
34328 2020-11-03 23:20:59 Terrasse 9.40 9.00 99.90
34327 2020-11-03 22:52:44 Terrasse 9.70 9.33 99.90
34326 2020-11-03 22:24:28 Terrasse 9.80 9.44 99.90
34325 2020-11-03 21:56:13 Terrasse 9.80 9.44 99.90
34324 2020-11-03 21:27:57 Terrasse 9.90 9.55 99.90
34323 2020-11-03 20:59:44 Terrasse 10.20 9.88 99.90
34322 2020-11-03 20:31:31 Terrasse 10.80 10.54 99.90
34321 2020-11-03 20:03:18 Terrasse 11.10 10.87 99.90
34320 2020-11-03 19:35:06 Terrasse 11.80 11.64 99.90
34319 2020-11-03 19:06:49 Terrasse 12.00 11.86 99.90
34318 2020-11-03 18:38:34 Terrasse 12.00 11.72 94.40
34317 2020-11-03 18:10:17 Terrasse 12.10 11.71 89.80
34316 2020-11-03 17:42:01 Terrasse 12.30 11.77 83.70
34315 2020-11-03 17:13:46 Terrasse 12.40 11.66 75.30
34314 2020-11-03 16:45:32 Terrasse 12.60 11.78 71.30
34313 2020-11-03 16:17:17 Terrasse 12.90 12.04 68.70
34312 2020-11-03 15:49:02 Terrasse 13.20 12.25 64.20
34311 2020-11-03 15:20:49 Terrasse 13.50 12.63 66.10
34310 2020-11-03 14:52:37 Terrasse 13.80 12.94 65.30
34309 2020-11-03 14:24:23 Terrasse 14.10 13.23 63.80
34308 2020-11-03 13:56:09 Terrasse 14.40 13.54 63.10
34307 2020-11-03 13:27:58 Terrasse 15.00 14.17 61.70
34306 2020-11-03 12:59:49 Terrasse 16.20 15.36 56.70
34305 2020-11-03 12:31:23 Terrasse 16.90 16.12 56.50
34304 2020-11-03 12:03:23 Terrasse 19.00 18.34 53.20
34303 2020-11-03 11:35:27 Terrasse 21.80 21.30 48.30
34302 2020-11-03 11:06:48 Terrasse 26.30 26.77 49.30
34301 2020-11-03 10:37:54 Terrasse 17.50 17.24 74.00
34300 2020-11-03 10:09:38 Terrasse 15.90 15.67 81.40
34299 2020-11-03 09:41:09 Terrasse 14.50 14.61 99.90
34298 2020-11-03 09:12:44 Terrasse 12.00 11.86 99.90
34297 2020-11-03 08:44:30 Terrasse 11.90 11.75 99.90
34296 2020-11-03 08:16:14 Terrasse 11.90 11.75 99.90
34295 2020-11-03 07:47:58 Terrasse 11.90 11.75 99.90
34294 2020-11-03 07:19:43 Terrasse 12.00 11.86 99.90
34293 2020-11-03 06:51:31 Terrasse 12.00 11.86 99.90
34292 2020-11-03 06:23:16 Terrasse 12.10 11.97 99.90
34291 2020-11-03 05:55:01 Terrasse 12.30 12.19 99.90
34290 2020-11-03 05:26:46 Terrasse 12.50 12.41 99.90
34289 2020-11-03 04:58:31 Terrasse 12.60 12.52 99.90
34288 2020-11-03 04:30:14 Terrasse 12.70 12.63 99.90
34287 2020-11-03 04:01:58 Terrasse 12.60 12.52 99.90
34286 2020-11-03 03:33:43 Terrasse 12.50 12.41 99.90
34285 2020-11-03 03:05:28 Terrasse 12.70 12.63 99.90
34284 2020-11-03 02:37:13 Terrasse 12.80 12.74 99.90
34283 2020-11-03 02:08:59 Terrasse 12.90 12.85 99.90
34282 2020-11-03 01:40:45 Terrasse 13.10 13.07 99.90
34281 2020-11-03 01:12:30 Terrasse 13.30 13.29 99.90
34280 2020-11-03 00:44:15 Terrasse 13.20 13.18 99.90
34279 2020-11-03 00:15:59 Terrasse 13.30 13.29 99.90
34278 2020-11-02 23:47:44 Terrasse 13.60 13.62 99.90
34277 2020-11-02 23:19:29 Terrasse 13.90 13.95 99.90
34276 2020-11-02 22:51:19 Terrasse 14.60 14.72 99.90
34275 2020-11-02 22:23:11 Terrasse 16.00 16.26 99.90
34274 2020-11-02 21:55:03 Terrasse 17.70 18.13 99.90
34273 2020-11-02 21:26:46 Terrasse 17.90 18.35 99.90
34272 2020-11-02 20:58:32 Terrasse 18.00 18.46 99.90
34271 2020-11-02 20:30:15 Terrasse 18.20 18.68 99.90
34270 2020-11-02 20:02:00 Terrasse 18.50 19.01 99.90
34269 2020-11-02 19:33:53 Terrasse 18.60 19.12 99.90
34268 2020-11-02 19:05:34 Terrasse 18.70 19.23 99.90
34267 2020-11-02 18:37:17 Terrasse 18.80 19.34 99.90
34266 2020-11-02 18:09:01 Terrasse 18.90 19.45 99.90
34265 2020-11-02 17:40:44 Terrasse 19.00 19.56 99.90
34264 2020-11-02 17:12:29 Terrasse 19.20 19.78 99.90
34263 2020-11-02 16:44:13 Terrasse 19.40 20.00 99.90
34262 2020-11-02 16:16:00 Terrasse 20.00 20.66 99.90
34261 2020-11-02 15:47:51 Terrasse 21.20 21.48 80.50
34260 2020-11-02 15:19:56 Terrasse 23.70 23.92 68.70
34259 2020-11-02 14:51:41 Terrasse 24.60 24.78 63.70
34258 2020-11-02 14:23:42 Terrasse 26.00 26.96 61.00
34257 2020-11-02 13:55:33 Terrasse 27.50 28.81 60.80
34256 2020-11-02 13:26:38 Terrasse 22.30 22.56 75.70
34255 2020-11-02 12:58:42 Terrasse 25.00 25.30 66.70
34254 2020-11-02 12:30:32 Terrasse 27.80 29.52 63.40
34253 2020-11-02 12:01:58 Terrasse 28.10 30.35 66.20
34252 2020-11-02 11:33:31 Terrasse 28.70 31.60 67.10
34251 2020-11-02 11:04:02 Terrasse 18.40 18.90 99.90
34250 2020-11-02 10:35:44 Terrasse 16.60 16.92 99.90
34249 2020-11-02 10:07:28 Terrasse 16.50 16.81 99.90
34248 2020-11-02 09:39:09 Terrasse 16.20 16.48 99.90
34247 2020-11-02 09:10:52 Terrasse 16.10 16.37 99.90
34246 2020-11-02 08:42:34 Terrasse 15.80 16.04 99.90
34245 2020-11-02 08:14:17 Terrasse 15.70 15.93 99.90
34244 2020-11-02 07:46:02 Terrasse 15.70 15.93 99.90
34243 2020-11-02 07:17:45 Terrasse 15.60 15.82 99.90
34242 2020-11-02 06:49:29 Terrasse 15.60 15.82 99.90
34241 2020-11-02 06:21:13 Terrasse 15.50 15.71 99.90
34240 2020-11-02 05:52:56 Terrasse 15.50 15.71 99.90
34239 2020-11-02 05:24:39 Terrasse 15.40 15.60 99.90
34238 2020-11-02 04:56:23 Terrasse 15.30 15.49 99.90
34237 2020-11-02 04:28:07 Terrasse 15.20 15.38 99.90
34236 2020-11-02 03:59:49 Terrasse 15.10 15.27 99.90
34235 2020-11-02 03:31:33 Terrasse 15.00 15.16 99.90
34234 2020-11-02 03:03:18 Terrasse 15.00 15.16 99.90
34233 2020-11-02 02:35:00 Terrasse 14.90 15.05 99.90
34232 2020-11-02 02:06:44 Terrasse 14.90 15.05 99.90
34231 2020-11-02 01:38:26 Terrasse 14.80 14.94 99.90
34230 2020-11-02 01:10:09 Terrasse 14.70 14.83 99.90
34229 2020-11-02 00:41:52 Terrasse 14.60 14.72 99.90
34228 2020-11-02 00:13:35 Terrasse 14.60 14.72 99.90
34227 2020-11-01 23:45:18 Terrasse 14.50 14.61 99.90
34226 2020-11-01 23:17:01 Terrasse 14.50 14.61 99.90
34225 2020-11-01 22:48:44 Terrasse 14.50 14.61 99.90
34224 2020-11-01 22:20:27 Terrasse 14.50 14.61 99.90
34223 2020-11-01 21:52:11 Terrasse 14.40 14.50 99.90
34222 2020-11-01 21:23:56 Terrasse 14.50 14.61 99.90
34221 2020-11-01 20:55:39 Terrasse 14.50 14.61 99.90
34220 2020-11-01 20:27:22 Terrasse 14.50 14.61 99.90
34219 2020-11-01 19:59:06 Terrasse 14.50 14.61 99.90
34218 2020-11-01 19:30:48 Terrasse 14.50 14.61 99.90
34217 2020-11-01 19:02:30 Terrasse 14.50 14.61 99.90
34216 2020-11-01 18:34:13 Terrasse 14.40 14.50 99.90
34215 2020-11-01 18:05:57 Terrasse 14.30 14.39 99.90
34214 2020-11-01 17:37:40 Terrasse 14.30 14.39 99.90
34213 2020-11-01 17:09:22 Terrasse 14.20 14.28 99.90
34212 2020-11-01 16:41:05 Terrasse 14.20 14.28 99.90
34211 2020-11-01 16:12:47 Terrasse 14.10 14.17 99.90
34210 2020-11-01 15:44:30 Terrasse 14.00 14.06 99.90
34209 2020-11-01 15:16:14 Terrasse 13.90 13.95 99.90
34208 2020-11-01 14:47:57 Terrasse 13.70 13.73 99.90
34207 2020-11-01 14:19:40 Terrasse 13.60 13.62 99.90
34206 2020-11-01 13:51:24 Terrasse 13.50 13.51 99.90
34205 2020-11-01 13:23:06 Terrasse 13.50 13.51 99.90
34204 2020-11-01 12:54:49 Terrasse 13.30 13.29 99.90
34203 2020-11-01 12:26:34 Terrasse 13.30 13.29 99.90
34202 2020-11-01 11:58:17 Terrasse 13.10 13.07 99.90
34201 2020-11-01 11:30:00 Terrasse 13.00 12.96 99.90
34200 2020-11-01 11:01:43 Terrasse 12.90 12.85 99.90
34199 2020-11-01 10:33:28 Terrasse 12.90 12.85 99.90
34198 2020-11-01 10:05:13 Terrasse 12.70 12.63 99.90
34197 2020-11-01 09:36:55 Terrasse 12.70 12.63 99.90
34196 2020-11-01 09:08:39 Terrasse 12.70 12.63 99.90
34195 2020-11-01 08:40:24 Terrasse 12.60 12.52 99.90
34194 2020-11-01 08:12:08 Terrasse 12.60 12.52 99.90
34193 2020-11-01 07:43:53 Terrasse 12.60 12.52 99.90
34192 2020-11-01 07:15:38 Terrasse 12.70 12.63 99.90
34191 2020-11-01 06:47:21 Terrasse 12.60 12.52 99.90
34190 2020-11-01 06:19:03 Terrasse 12.50 12.41 99.90
34189 2020-11-01 05:50:48 Terrasse 12.50 12.41 99.90
34188 2020-11-01 05:22:32 Terrasse 12.50 12.41 99.90
34187 2020-11-01 04:54:15 Terrasse 12.40 12.30 99.90
34186 2020-11-01 04:25:57 Terrasse 12.50 12.41 99.90
34185 2020-11-01 03:57:40 Terrasse 12.60 12.52 99.90
34184 2020-11-01 03:29:24 Terrasse 12.70 12.63 99.90
34183 2020-11-01 03:01:06 Terrasse 12.70 12.63 99.90
34182 2020-11-01 02:32:49 Terrasse 12.80 12.74 99.90
34181 2020-11-01 02:04:32 Terrasse 12.70 12.63 99.90
34180 2020-11-01 01:36:14 Terrasse 12.60 12.52 99.90
34179 2020-11-01 01:07:57 Terrasse 12.60 12.52 99.90
34178 2020-11-01 00:39:43 Terrasse 12.80 12.74 99.90
34177 2020-11-01 00:11:27 Terrasse 12.90 12.85 99.90
34176 2020-10-31 23:43:11 Terrasse 12.90 12.85 99.90
34175 2020-10-31 23:14:53 Terrasse 12.80 12.74 99.90
34174 2020-10-31 22:46:38 Terrasse 12.70 12.63 99.90
34173 2020-10-31 22:18:21 Terrasse 12.80 12.74 99.90
34172 2020-10-31 21:50:06 Terrasse 12.80 12.74 99.90
34171 2020-10-31 21:21:50 Terrasse 12.70 12.63 99.90
34170 2020-10-31 20:53:35 Terrasse 12.70 12.63 99.90
34169 2020-10-31 20:25:17 Terrasse 12.80 12.74 99.90
34168 2020-10-31 19:57:02 Terrasse 12.90 12.85 99.90
34167 2020-10-31 19:28:46 Terrasse 13.00 12.96 99.90
34166 2020-10-31 19:00:32 Terrasse 13.40 13.40 99.90
34165 2020-10-31 18:32:19 Terrasse 13.70 13.73 99.90
34164 2020-10-31 18:04:05 Terrasse 14.10 14.17 99.90
34163 2020-10-31 17:35:55 Terrasse 14.90 15.05 99.90
34162 2020-10-31 17:07:44 Terrasse 15.70 15.93 99.90
34161 2020-10-31 16:39:33 Terrasse 16.70 16.43 76.70
34160 2020-10-31 16:11:25 Terrasse 17.70 17.33 69.10
34159 2020-10-31 15:43:24 Terrasse 19.90 19.56 61.80
34158 2020-10-31 15:15:11 Terrasse 21.80 21.57 58.80
34157 2020-10-31 14:46:58 Terrasse 22.20 22.04 59.80
34156 2020-10-31 14:18:50 Terrasse 24.00 23.97 58.20
34155 2020-10-31 13:50:32 Terrasse 24.30 24.30 58.20
34154 2020-10-31 13:22:13 Terrasse 23.40 23.36 59.90
34153 2020-10-31 12:54:04 Terrasse 25.10 25.14 56.50
34152 2020-10-31 12:25:38 Terrasse 23.90 23.85 57.50
34151 2020-10-31 11:56:47 Terrasse 18.30 18.48 87.90
34150 2020-10-31 11:28:41 Terrasse 19.90 20.11 82.80
34149 2020-10-31 11:00:15 Terrasse 15.20 15.38 99.90
34148 2020-10-31 10:31:54 Terrasse 13.80 13.84 99.90
34147 2020-10-31 10:03:37 Terrasse 13.90 13.95 99.90
34146 2020-10-31 09:35:19 Terrasse 13.80 13.84 99.90
34145 2020-10-31 09:06:59 Terrasse 13.30 13.29 99.90
34144 2020-10-31 08:38:38 Terrasse 12.90 12.85 99.90
34143 2020-10-31 08:10:18 Terrasse 12.00 11.86 99.90
34142 2020-10-31 07:42:00 Terrasse 11.90 11.75 99.90
34141 2020-10-31 07:13:44 Terrasse 12.10 11.97 99.90
34140 2020-10-31 06:45:29 Terrasse 12.10 11.97 99.90
34139 2020-10-31 06:17:12 Terrasse 12.10 11.97 99.90
34138 2020-10-31 05:48:56 Terrasse 12.20 12.08 99.90
34137 2020-10-31 05:20:38 Terrasse 12.20 12.08 99.90
34136 2020-10-31 04:52:20 Terrasse 12.20 12.08 99.90
34135 2020-10-31 04:24:03 Terrasse 12.10 11.97 99.90
34134 2020-10-31 03:55:46 Terrasse 12.00 11.86 99.90
34133 2020-10-31 03:27:31 Terrasse 12.10 11.97 99.90
34132 2020-10-31 02:59:16 Terrasse 12.20 12.08 99.90
34131 2020-10-31 02:30:59 Terrasse 12.20 12.08 99.90
34130 2020-10-31 02:02:43 Terrasse 12.30 12.19 99.90
34129 2020-10-31 01:34:29 Terrasse 12.80 12.74 99.90
34128 2020-10-31 01:06:12 Terrasse 13.00 12.96 99.90
34127 2020-10-31 00:37:57 Terrasse 12.90 12.85 99.90
34126 2020-10-31 00:09:41 Terrasse 13.00 12.96 99.90
34125 2020-10-30 23:41:24 Terrasse 12.90 12.85 99.90
34124 2020-10-30 23:13:08 Terrasse 13.00 12.96 99.90
34123 2020-10-30 22:44:52 Terrasse 13.00 12.96 99.90
34122 2020-10-30 22:16:52 Terrasse 13.00 12.96 99.90
34121 2020-10-30 21:48:31 Terrasse 13.10 13.07 99.90
34120 2020-10-30 21:20:16 Terrasse 13.10 13.07 99.90
34119 2020-10-30 20:51:59 Terrasse 13.10 13.07 99.90
34118 2020-10-30 20:23:42 Terrasse 13.00 12.96 99.90
34117 2020-10-30 19:55:27 Terrasse 13.00 12.96 99.90
34116 2020-10-30 19:27:12 Terrasse 13.10 13.07 99.90
34115 2020-10-30 18:58:57 Terrasse 13.20 13.18 99.90
34114 2020-10-30 18:30:41 Terrasse 13.20 13.18 99.90
34113 2020-10-30 18:02:26 Terrasse 13.40 13.40 99.90
34112 2020-10-30 17:34:10 Terrasse 13.60 13.62 99.90
34111 2020-10-30 17:05:54 Terrasse 13.70 13.73 99.90
34110 2020-10-30 16:37:40 Terrasse 13.90 13.95 99.90
34109 2020-10-30 16:09:25 Terrasse 14.30 14.39 99.90
34108 2020-10-30 15:41:08 Terrasse 14.40 14.50 99.90
34107 2020-10-30 15:12:48 Terrasse 14.00 14.06 99.90
34106 2020-10-30 14:44:32 Terrasse 13.80 13.84 99.90
34105 2020-10-30 14:16:16 Terrasse 14.00 14.06 99.90
34104 2020-10-30 13:48:01 Terrasse 13.90 13.95 99.90
34103 2020-10-30 13:19:44 Terrasse 13.90 13.95 99.90
34102 2020-10-30 12:51:27 Terrasse 13.90 13.95 99.90
34101 2020-10-30 12:23:10 Terrasse 13.70 13.73 99.90
34100 2020-10-30 11:54:55 Terrasse 13.90 13.95 99.90
34099 2020-10-30 11:26:30 Terrasse 13.10 13.07 99.90
34098 2020-10-30 10:58:11 Terrasse 12.90 12.85 99.90
34097 2020-10-30 10:29:56 Terrasse 12.60 12.52 99.90
34096 2020-10-30 10:01:38 Terrasse 12.50 12.41 99.90
34095 2020-10-30 09:33:20 Terrasse 12.30 12.19 99.90
34094 2020-10-30 09:05:03 Terrasse 12.20 12.08 99.90
34093 2020-10-30 08:36:46 Terrasse 12.00 11.86 99.90
34092 2020-10-30 08:08:29 Terrasse 11.90 11.75 99.90
34091 2020-10-30 07:40:12 Terrasse 11.80 11.64 99.90
34090 2020-10-30 07:11:53 Terrasse 11.70 11.53 99.90
34089 2020-10-30 06:43:36 Terrasse 11.70 11.53 99.90
34088 2020-10-30 06:15:19 Terrasse 11.60 11.42 99.90
34087 2020-10-30 05:47:02 Terrasse 11.50 11.31 99.90
34086 2020-10-30 05:18:44 Terrasse 11.50 11.31 99.90
34085 2020-10-30 04:50:28 Terrasse 11.50 11.31 99.90
34084 2020-10-30 04:22:10 Terrasse 11.40 11.20 99.90
34083 2020-10-30 03:53:53 Terrasse 11.40 11.20 99.90
34082 2020-10-30 03:25:36 Terrasse 11.30 11.09 99.90
34081 2020-10-30 02:57:18 Terrasse 11.20 10.98 99.90
34080 2020-10-30 02:29:01 Terrasse 11.20 10.98 99.90
34079 2020-10-30 02:00:45 Terrasse 11.10 10.87 99.90
34078 2020-10-30 01:32:29 Terrasse 11.00 10.76 99.90
34077 2020-10-30 01:04:12 Terrasse 10.90 10.65 99.90
34076 2020-10-30 00:35:55 Terrasse 10.90 10.65 99.90
34075 2020-10-30 00:07:38 Terrasse 10.90 10.65 99.90
34074 2020-10-29 23:39:23 Terrasse 11.00 10.76 99.90
34073 2020-10-29 23:11:05 Terrasse 11.00 10.76 99.90
34072 2020-10-29 22:42:49 Terrasse 11.30 11.09 99.90
34071 2020-10-29 22:14:33 Terrasse 11.00 10.76 99.90
34070 2020-10-29 21:46:16 Terrasse 11.00 10.76 99.90
34069 2020-10-29 21:17:59 Terrasse 11.00 10.76 99.90
34068 2020-10-29 20:49:42 Terrasse 11.00 10.76 99.90
34067 2020-10-29 20:21:25 Terrasse 11.00 10.76 99.90
34066 2020-10-29 19:53:09 Terrasse 11.00 10.76 99.90
34065 2020-10-29 19:24:53 Terrasse 11.00 10.76 99.90
34064 2020-10-29 18:56:37 Terrasse 11.00 10.76 99.90
34063 2020-10-29 18:28:21 Terrasse 11.10 10.87 99.90
34062 2020-10-29 18:00:05 Terrasse 11.10 10.87 99.90
34061 2020-10-29 17:31:49 Terrasse 11.00 10.76 99.90
34060 2020-10-29 17:03:34 Terrasse 11.10 10.87 99.90
34059 2020-10-29 16:35:22 Terrasse 11.40 11.20 99.90
34058 2020-10-29 16:07:07 Terrasse 11.80 11.64 99.90
34057 2020-10-29 15:38:51 Terrasse 11.90 11.75 99.90
34056 2020-10-29 15:10:33 Terrasse 11.80 11.64 99.90
34055 2020-10-29 14:42:14 Terrasse 11.10 10.87 99.90
34054 2020-10-29 14:14:01 Terrasse 11.60 11.42 99.90
34053 2020-10-29 13:45:46 Terrasse 11.60 11.42 99.90
34052 2020-10-29 13:17:34 Terrasse 12.20 12.08 99.90
34051 2020-10-29 12:49:25 Terrasse 13.30 13.29 99.90
34050 2020-10-29 12:21:16 Terrasse 14.30 13.53 66.70
34049 2020-10-29 11:53:28 Terrasse 18.70 18.05 54.70
34048 2020-10-29 11:24:50 Terrasse 18.20 17.60 58.50
34047 2020-10-29 10:56:52 Terrasse 19.70 19.15 54.60
34046 2020-10-29 10:28:43 Terrasse 18.60 18.02 57.80
34045 2020-10-29 10:00:28 Terrasse 19.00 18.50 59.20
34044 2020-10-29 09:31:21 Terrasse 12.60 12.52 99.90
34043 2020-10-29 09:03:01 Terrasse 10.30 9.99 99.90
34042 2020-10-29 08:34:44 Terrasse 9.60 9.22 99.90
34041 2020-10-29 08:06:51 Terrasse 9.60 9.22 99.90
34040 2020-10-29 07:38:30 Terrasse 9.70 9.33 99.90
34039 2020-10-29 06:42:09 Terrasse 9.80 9.44 99.90
34038 2020-10-29 06:13:53 Terrasse 9.90 9.55 99.90
34037 2020-10-28 21:16:59 Terrasse 11.20 10.98 99.90
34036 2020-10-28 20:48:31 Terrasse 11.30 11.09 99.90
34035 2020-10-28 20:19:39 Terrasse 11.20 10.98 99.90
34034 2020-10-28 19:52:10 Terrasse 11.30 11.09 99.90
34033 2020-10-28 19:22:51 Terrasse 11.30 11.09 99.90
34032 2020-10-28 18:55:26 Terrasse 11.40 11.20 99.90
34031 2020-10-28 18:26:08 Terrasse 11.50 11.31 99.90
34030 2020-10-28 17:57:53 Terrasse 11.60 11.42 99.90
34029 2020-10-28 17:29:52 Terrasse 11.90 11.75 99.90
34028 2020-10-28 17:01:32 Terrasse 12.00 11.86 99.90
34027 2020-10-28 16:05:16 Terrasse 12.40 12.30 99.90
34026 2020-10-28 15:37:00 Terrasse 12.50 12.41 99.90
34025 2020-10-28 15:09:18 Terrasse 12.90 12.85 99.90
34024 2020-10-28 14:40:46 Terrasse 12.80 12.74 99.90
34023 2020-10-28 14:12:28 Terrasse 12.80 12.74 99.90
34022 2020-10-28 13:44:46 Terrasse 12.80 12.74 99.90
34021 2020-10-28 13:16:13 Terrasse 13.20 13.18 99.90
34020 2020-10-28 12:48:05 Terrasse 12.60 12.52 99.90
34019 2020-10-28 12:19:44 Terrasse 11.20 10.98 99.90
34018 2020-10-28 11:51:25 Terrasse 11.00 10.76 99.90
34017 2020-10-28 11:23:12 Terrasse 10.80 10.54 99.90
34016 2020-10-28 10:54:56 Terrasse 10.80 10.54 99.90
34015 2020-10-28 10:26:26 Terrasse 10.70 10.43 99.90
34014 2020-10-28 09:58:12 Terrasse 10.70 10.43 99.90
34013 2020-10-28 09:29:52 Terrasse 10.40 10.10 99.90
34012 2020-10-28 09:01:55 Terrasse 10.20 9.88 99.90
34011 2020-10-28 08:31:28 Terrasse 10.20 9.88 99.90
34010 2020-10-28 08:03:12 Terrasse 10.10 9.77